
Distance (Route):
Temperature : 0°C
Humidity : 0%
Pressure : 0hPa| Receiver | Date | Latitude | Longitude | Direction | Speed | Altitude | Climb | Temperature | Humidity | Pressure | Voltage | Killtimer | Uptime | BKT | XDATA |
|---|---|---|---|---|---|---|---|---|---|---|---|---|---|---|---|
| EA3GEO | 2026-09-01 12:59:30 | 41.62901 | 2.98404 | 10° | 16km/h | 558m | -13.3m/s | 0°C | 0% | 0hPa | 0V | 00:00:00 | 00:00:00 | 00:00:00 | |
| EA3GEO | 2026-09-01 12:58:46 | 41.62792 | 2.98089 | 76° | 33km/h | 1120m | -13.8m/s | 0°C | 0% | 0hPa | 0V | 00:00:00 | 00:00:00 | 00:00:00 | |
| EA3GEO | 2026-09-01 12:58:41 | 41.62784 | 2.98035 | 77° | 33km/h | 1190m | -12.9m/s | 0°C | 0% | 0hPa | 0V | 00:00:00 | 00:00:00 | 00:00:00 | |
| EA3GEO | 2026-09-01 12:58:32 | 41.62769 | 2.97958 | 89° | 26km/h | 1313m | -13.5m/s | 0°C | 0% | 0hPa | 0V | 00:00:00 | 00:00:00 | 00:00:00 | |
| EA3GEO | 2026-09-01 12:58:24 | 41.62768 | 2.97875 | 89° | 26km/h | 1436m | -12.9m/s | 0°C | 0% | 0hPa | 0V | 00:00:00 | 00:00:00 | 00:00:00 | |
| EA3GEO | 2026-09-01 12:58:17 | 41.62756 | 2.97820 | 71° | 27km/h | 1515m | -13.4m/s | 0°C | 0% | 0hPa | 0V | 00:00:00 | 00:00:00 | 00:00:00 | |
| EA3GEO | 2026-09-01 12:58:12 | 41.62743 | 2.97779 | 69° | 24km/h | 1585m | -14.3m/s | 0°C | 0% | 0hPa | 0V | 00:00:00 | 00:00:00 | 00:00:00 | |
| EA3GEO | 2026-09-01 12:58:04 | 41.62724 | 2.97716 | 59° | 26km/h | 1695m | -13.5m/s | 0°C | 0% | 0hPa | 0V | 00:00:00 | 00:00:00 | 00:00:00 | |
| EA3GEO | 2026-09-01 12:57:55 | 41.62701 | 2.97654 | 77° | 22km/h | 1819m | -13.1m/s | 0°C | 0% | 0hPa | 0V | 00:00:00 | 00:00:00 | 00:00:00 | |
| EA3GEO | 2026-09-01 12:57:48 | 41.62699 | 2.97606 | 92° | 18km/h | 1914m | -13.7m/s | 0°C | 0% | 0hPa | 0V | 00:00:00 | 00:00:00 | 00:00:00 | |
| EA3GEO | 2026-09-01 12:56:59 | 41.62691 | 2.97390 | 89° | 13km/h | 2554m | -13.1m/s | 0°C | 0% | 0hPa | 0V | 00:00:00 | 00:00:00 | 00:00:00 | |
| EA3GEO | 2026-09-01 12:56:53 | 41.62686 | 2.97364 | 72° | 11km/h | 2631m | -12.4m/s | 0°C | 0% | 0hPa | 0V | 00:00:00 | 00:00:00 | 00:00:00 | |
| EA3GEO | 2026-09-01 12:56:48 | 41.62678 | 2.97341 | 79° | 15km/h | 2691m | -12.4m/s | 0°C | 0% | 0hPa | 0V | 00:00:00 | 00:00:00 | 00:00:00 | |
| EA3GEO | 2026-09-01 12:56:42 | 41.62663 | 2.97306 | 63° | 22km/h | 2765m | -12.8m/s | 0°C | 0% | 0hPa | 0V | 00:00:00 | 00:00:00 | 00:00:00 | |
| EA3GEO | 2026-09-01 12:56:36 | 41.62647 | 2.97271 | 74° | 22km/h | 2843m | -12.0m/s | 0°C | 0% | 0hPa | 0V | 00:00:00 | 00:00:00 | 00:00:00 | |
| EA3GEO | 2026-09-01 12:56:30 | 41.62638 | 2.97233 | 74° | 22km/h | 2920m | -12.6m/s | 0°C | 0% | 0hPa | 0V | 00:00:00 | 00:00:00 | 00:00:00 | |
| EA3GEO | 2026-09-01 12:56:25 | 41.62632 | 2.97194 | 80° | 26km/h | 2985m | -13.5m/s | 0°C | 0% | 0hPa | 0V | 00:00:00 | 00:00:00 | 00:00:00 | |
| EA3GEO | 2026-09-01 12:56:16 | 41.62619 | 2.97118 | 76° | 31km/h | 3107m | -12.5m/s | 0°C | 0% | 0hPa | 0V | 00:00:00 | 00:00:00 | 00:00:00 | |
| EA3GEO | 2026-09-01 12:56:10 | 41.62606 | 2.97069 | 70° | 29km/h | 3186m | -12.6m/s | 0°C | 0% | 0hPa | 0V | 00:00:00 | 00:00:00 | 00:00:00 | |
| EA3GEO | 2026-09-01 12:56:04 | 41.62588 | 2.97011 | 71° | 31km/h | 3261m | -12.3m/s | 0°C | 0% | 0hPa | 0V | 00:00:00 | 00:00:00 | 00:00:00 | |
| EA3GEO | 2026-09-01 12:55:58 | 41.62571 | 2.96950 | 68° | 33km/h | 3336m | -12.6m/s | 0°C | 0% | 0hPa | 0V | 00:00:00 | 00:00:00 | 00:00:00 | |
| EA3GEO | 2026-09-01 12:55:52 | 41.62555 | 2.96888 | 71° | 31km/h | 3414m | -13.2m/s | 0°C | 0% | 0hPa | 0V | 00:00:00 | 00:00:00 | 00:00:00 | |
| EA3GEO | 2026-09-01 12:55:47 | 41.62542 | 2.96835 | 76° | 35km/h | 3479m | -12.9m/s | 0°C | 0% | 0hPa | 0V | 00:00:00 | 00:00:00 | 00:00:00 | |
| EA3GEO | 2026-09-01 12:55:41 | 41.62531 | 2.96769 | 78° | 35km/h | 3561m | -13.6m/s | 0°C | 0% | 0hPa | 0V | 00:00:00 | 00:00:00 | 00:00:00 | |
| EA3GEO | 2026-09-01 12:55:35 | 41.62517 | 2.96700 | 74° | 37km/h | 3644m | -14.3m/s | 0°C | 0% | 0hPa | 0V | 00:00:00 | 00:00:00 | 00:00:00 | |
| EA3GEO | 2026-09-01 12:55:30 | 41.62499 | 2.96641 | 66° | 40km/h | 3716m | -15.0m/s | 0°C | 0% | 0hPa | 0V | 00:00:00 | 00:00:00 | 00:00:00 | |
| EA3GEO | 2026-09-01 12:55:24 | 41.62477 | 2.96566 | 74° | 37km/h | 3801m | -14.1m/s | 0°C | 0% | 0hPa | 0V | 00:00:00 | 00:00:00 | 00:00:00 | |
| EA3GEO | 2026-09-01 12:55:19 | 41.62461 | 2.96495 | 76° | 40km/h | 3889m | -13.9m/s | 0°C | 0% | 0hPa | 0V | 00:00:00 | 00:00:00 | 00:00:00 | |
| EA3GEO | 2026-09-01 12:55:13 | 41.62442 | 2.96410 | 79° | 47km/h | 3974m | -13.9m/s | 0°C | 0% | 0hPa | 0V | 00:00:00 | 00:00:00 | 00:00:00 | |
| EA3GEO | 2026-09-01 12:55:06 | 41.62424 | 2.96315 | 80° | 51km/h | 4060m | -15.0m/s | 0°C | 0% | 0hPa | 0V | 00:00:00 | 00:00:00 | 00:00:00 | |
| EA3GEO | 2026-09-01 12:55:00 | 41.62405 | 2.96201 | 77° | 58km/h | 4149m | -14.2m/s | 0°C | 0% | 0hPa | 0V | 00:00:00 | 00:00:00 | 00:00:00 | |
| EA3GEO | 2026-09-01 12:54:54 | 41.62385 | 2.96088 | 82° | 58km/h | 4233m | -14.1m/s | 0°C | 0% | 0hPa | 0V | 00:00:00 | 00:00:00 | 00:00:00 | |
| EA3GEO | 2026-09-01 12:54:48 | 41.62371 | 2.95962 | 84° | 66km/h | 4317m | -13.6m/s | 0°C | 0% | 0hPa | 0V | 00:00:00 | 00:00:00 | 00:00:00 | |
| EA3GEO | 2026-09-01 12:54:43 | 41.62359 | 2.95852 | 80° | 69km/h | 4386m | -14.8m/s | 0°C | 0% | 0hPa | 0V | 00:00:00 | 00:00:00 | 00:00:00 | |
| EA3GEO | 2026-09-01 12:54:37 | 41.62340 | 2.95718 | 80° | 66km/h | 4471m | -14.2m/s | 0°C | 0% | 0hPa | 0V | 00:00:00 | 00:00:00 | 00:00:00 | |
| EA3GEO | 2026-09-01 12:54:32 | 41.62323 | 2.95614 | 75° | 64km/h | 4543m | -14.9m/s | 0°C | 0% | 0hPa | 0V | 00:00:00 | 00:00:00 | 00:00:00 | |
| EA3GEO | 2026-09-01 12:54:27 | 41.62303 | 2.95502 | 80° | 68km/h | 4614m | -13.8m/s | 0°C | 0% | 0hPa | 0V | 00:00:00 | 00:00:00 | 00:00:00 | |
| EA3GEO | 2026-09-01 12:54:21 | 41.62284 | 2.95368 | 79° | 73km/h | 4704m | -14.8m/s | 0°C | 0% | 0hPa | 0V | 00:00:00 | 00:00:00 | 00:00:00 | |
| EA3GEO | 2026-09-01 12:54:15 | 41.62259 | 2.95222 | 76° | 68km/h | 4795m | -14.2m/s | 0°C | 0% | 0hPa | 0V | 00:00:00 | 00:00:00 | 00:00:00 | |
| EA3GEO | 2026-09-01 12:54:10 | 41.62236 | 2.95106 | 77° | 71km/h | 4867m | -14.1m/s | 0°C | 0% | 0hPa | 0V | 00:00:00 | 00:00:00 | 00:00:00 | |
| EA3GEO | 2026-09-01 12:54:04 | 41.62214 | 2.94970 | 80° | 66km/h | 4948m | -13.4m/s | 0°C | 0% | 0hPa | 0V | 00:00:00 | 00:00:00 | 00:00:00 | |
| EA3GEO | 2026-09-01 12:53:59 | 41.62195 | 2.94865 | 76° | 60km/h | 5019m | -14.5m/s | 0°C | 0% | 0hPa | 0V | 00:00:00 | 00:00:00 | 00:00:00 | |
| EA3GEO | 2026-09-01 12:53:53 | 41.62169 | 2.94742 | 75° | 62km/h | 5113m | -15.1m/s | 0°C | 0% | 0hPa | 0V | 00:00:00 | 00:00:00 | 00:00:00 | |
| EA3GEO | 2026-09-01 12:53:45 | 41.62129 | 2.94584 | 75° | 55km/h | 5248m | -14.2m/s | 0°C | 0% | 0hPa | 0V | 00:00:00 | 00:00:00 | 00:00:00 | |
| EA3GEO | 2026-09-01 12:53:39 | 41.62112 | 2.94499 | 78° | 49km/h | 5320m | -14.4m/s | 0°C | 0% | 0hPa | 0V | 00:00:00 | 00:00:00 | 00:00:00 | |
| EA3GEO | 2026-09-01 12:53:33 | 41.62097 | 2.94393 | 80° | 51km/h | 5406m | -14.2m/s | 0°C | 0% | 0hPa | 0V | 00:00:00 | 00:00:00 | 00:00:00 | |
| EA3GEO | 2026-09-01 12:53:27 | 41.62080 | 2.94282 | 79° | 57km/h | 5489m | -14.0m/s | 0°C | 0% | 0hPa | 0V | 00:00:00 | 00:00:00 | 00:00:00 | |
| EA3GEO | 2026-09-01 12:53:21 | 41.62062 | 2.94169 | 82° | 60km/h | 5574m | -14.2m/s | 0°C | 0% | 0hPa | 0V | 00:00:00 | 00:00:00 | 00:00:00 | |
| EA3GEO | 2026-09-01 12:53:16 | 41.62051 | 2.94073 | 82° | 55km/h | 5647m | -15.3m/s | 0°C | 0% | 0hPa | 0V | 00:00:00 | 00:00:00 | 00:00:00 | |
| EA3GEO | 2026-09-01 12:53:11 | 41.62039 | 2.93979 | 80° | 57km/h | 5723m | -14.9m/s | 0°C | 0% | 0hPa | 0V | 00:00:00 | 00:00:00 | 00:00:00 | |
| EA3GEO | 2026-09-01 12:53:05 | 41.62018 | 2.93864 | 78° | 60km/h | 5809m | -14.0m/s | 0°C | 0% | 0hPa | 0V | 00:00:00 | 00:00:00 | 00:00:00 | |
| EA3GEO | 2026-09-01 12:53:00 | 41.62006 | 2.93758 | 79° | 58km/h | 5882m | -14.8m/s | 0°C | 0% | 0hPa | 0V | 00:00:00 | 00:00:00 | 00:00:00 | |
| EA3GEO | 2026-09-01 12:52:51 | 41.61983 | 2.93567 | 82° | 62km/h | 6010m | -12.4m/s | 0°C | 0% | 0hPa | 0V | 00:00:00 | 00:00:00 | 00:00:00 | |
| EA3GEO | 2026-09-01 12:52:46 | 41.61975 | 2.93456 | 90° | 73km/h | 6078m | -14.6m/s | 0°C | 0% | 0hPa | 0V | 00:00:00 | 00:00:00 | 00:00:00 | |
| EA3GEO | 2026-09-01 12:52:41 | 41.61966 | 2.93345 | 83° | 66km/h | 6151m | -12.4m/s | 0°C | 0% | 0hPa | 0V | 00:00:00 | 00:00:00 | 00:00:00 | |
| EA3GEO | 2026-09-01 12:52:36 | 41.61955 | 2.93228 | 83° | 71km/h | 6215m | -12.7m/s | 0°C | 0% | 0hPa | 0V | 00:00:00 | 00:00:00 | 00:00:00 | |
| EA3GEO | 2026-09-01 12:52:25 | 41.61912 | 2.92953 | 76° | 78km/h | 6362m | -13.1m/s | 0°C | 0% | 0hPa | 0V | 00:00:00 | 00:00:00 | 00:00:00 | |
| EA3GEO | 2026-09-01 12:52:20 | 41.61889 | 2.92823 | 80° | 78km/h | 6428m | -14.8m/s | 0°C | 0% | 0hPa | 0V | 00:00:00 | 00:00:00 | 00:00:00 | |
| EA3GEO | 2026-09-01 12:52:15 | 41.61862 | 2.92653 | 74° | 88km/h | 6522m | -15.0m/s | 0°C | 0% | 0hPa | 0V | 00:00:00 | 00:00:00 | 00:00:00 | |
| EA3GEO | 2026-09-01 12:52:09 | 41.61836 | 2.92514 | 78° | 86km/h | 6595m | -14.9m/s | 0°C | 0% | 0hPa | 0V | 00:00:00 | 00:00:00 | 00:00:00 | |
| EA3GEO | 2026-09-01 12:52:04 | 41.61808 | 2.92349 | 78° | 78km/h | 6687m | -16.0m/s | 0°C | 0% | 0hPa | 0V | 00:00:00 | 00:00:00 | 00:00:00 | |
| EA3GEO | 2026-09-01 12:51:57 | 41.61780 | 2.92185 | 80° | 82km/h | 6774m | -11.6m/s | 0°C | 0% | 0hPa | 0V | 00:00:00 | 00:00:00 | 00:00:00 | |
| EA3GEO | 2026-09-01 12:51:50 | 41.61755 | 2.91998 | 87° | 78km/h | 6872m | -15.4m/s | 0°C | 0% | 0hPa | 0V | 00:00:00 | 00:00:00 | 00:00:00 | |
| EA3GEO | 2026-09-01 12:51:44 | 41.61734 | 2.91845 | 81° | 77km/h | 6957m | -12.5m/s | 0°C | 0% | 0hPa | 0V | 00:00:00 | 00:00:00 | 00:00:00 | |
| EA3GEO | 2026-09-01 12:51:38 | 41.61716 | 2.91697 | 88° | 73km/h | 7042m | -15.6m/s | 0°C | 0% | 0hPa | 0V | 00:00:00 | 00:00:00 | 00:00:00 | |
| EA3GEO | 2026-09-01 12:51:34 | 41.61704 | 2.91569 | 83° | 78km/h | 7119m | -14.5m/s | 0°C | 0% | 0hPa | 0V | 00:00:00 | 00:00:00 | 00:00:00 | |
| EA3GEO | 2026-09-01 12:51:28 | 41.61687 | 2.91441 | 82° | 75km/h | 7192m | -12.5m/s | 0°C | 0% | 0hPa | 0V | 00:00:00 | 00:00:00 | 00:00:00 | |
| EA3GEO | 2026-09-01 12:51:22 | 41.61669 | 2.91289 | 83° | 78km/h | 7276m | -13.6m/s | 0°C | 0% | 0hPa | 0V | 00:00:00 | 00:00:00 | 00:00:00 | |
| EA3GEO | 2026-09-01 12:51:17 | 41.61653 | 2.91161 | 77° | 73km/h | 7346m | -13.8m/s | 0°C | 0% | 0hPa | 0V | 00:00:00 | 00:00:00 | 00:00:00 | |
| EA3GEO | 2026-09-01 12:51:12 | 41.61640 | 2.91032 | 83° | 75km/h | 7423m | -14.5m/s | 0°C | 0% | 0hPa | 0V | 00:00:00 | 00:00:00 | 00:00:00 | |
| EA3GEO | 2026-09-01 12:51:06 | 41.61620 | 2.90878 | 82° | 75km/h | 7507m | -13.0m/s | 0°C | 0% | 0hPa | 0V | 00:00:00 | 00:00:00 | 00:00:00 | |
| EA3GEO | 2026-09-01 12:51:01 | 41.61599 | 2.90751 | 79° | 78km/h | 7576m | -12.7m/s | 0°C | 0% | 0hPa | 0V | 00:00:00 | 00:00:00 | 00:00:00 | |
| EA3GEO | 2026-09-01 12:50:56 | 41.61577 | 2.90625 | 79° | 77km/h | 7641m | -12.8m/s | 0°C | 0% | 0hPa | 0V | 00:00:00 | 00:00:00 | 00:00:00 | |
| EA3GEO | 2026-09-01 12:50:48 | 41.61539 | 2.90422 | 78° | 78km/h | 7752m | -13.0m/s | 0°C | 0% | 0hPa | 0V | 00:00:00 | 00:00:00 | 00:00:00 | |
| EA3GEO | 2026-09-01 12:50:42 | 41.61509 | 2.90271 | 79° | 77km/h | 7835m | -13.0m/s | 0°C | 0% | 0hPa | 0V | 00:00:00 | 00:00:00 | 00:00:00 | |
| EA3GEO | 2026-09-01 12:50:37 | 41.61486 | 2.90143 | 77° | 77km/h | 7905m | -13.1m/s | 0°C | 0% | 0hPa | 0V | 00:00:00 | 00:00:00 | 00:00:00 | |
| EA3GEO | 2026-09-01 12:50:31 | 41.61456 | 2.89986 | 77° | 82km/h | 7985m | -12.9m/s | 0°C | 0% | 0hPa | 0V | 00:00:00 | 00:00:00 | 00:00:00 | |
| EA3GEO | 2026-09-01 12:50:26 | 41.61431 | 2.89848 | 76° | 86km/h | 8054m | -12.8m/s | 0°C | 0% | 0hPa | 0V | 00:00:00 | 00:00:00 | 00:00:00 | |
| EA3GEO | 2026-09-01 12:50:20 | 41.61398 | 2.89682 | 77° | 84km/h | 8135m | -12.6m/s | 0°C | 0% | 0hPa | 0V | 00:00:00 | 00:00:00 | 00:00:00 | |
| EA3GEO | 2026-09-01 12:50:14 | 41.61366 | 2.89514 | 75° | 86km/h | 8216m | -13.0m/s | 0°C | 0% | 0hPa | 0V | 00:00:00 | 00:00:00 | 00:00:00 | |
| EA3GEO | 2026-09-01 12:50:09 | 41.61330 | 2.89352 | 75° | 78km/h | 8300m | -13.6m/s | 0°C | 0% | 0hPa | 0V | 00:00:00 | 00:00:00 | 00:00:00 | |
| EA3GEO | 2026-09-01 12:50:03 | 41.61302 | 2.89218 | 74° | 82km/h | 8368m | -12.4m/s | 0°C | 0% | 0hPa | 0V | 00:00:00 | 00:00:00 | 00:00:00 | |
| EA3GEO | 2026-09-01 12:49:58 | 41.61272 | 2.89056 | 77° | 84km/h | 8448m | -13.0m/s | 0°C | 0% | 0hPa | 0V | 00:00:00 | 00:00:00 | 00:00:00 | |
| EA3GEO | 2026-09-01 12:49:51 | 41.61242 | 2.88892 | 77° | 84km/h | 8528m | -11.5m/s | 0°C | 0% | 0hPa | 0V | 00:00:00 | 00:00:00 | 00:00:00 | |
| EA3GEO | 2026-09-01 12:49:46 | 41.61217 | 2.88756 | 80° | 84km/h | 8595m | -13.3m/s | 0°C | 0% | 0hPa | 0V | 00:00:00 | 00:00:00 | 00:00:00 | |
| EA3GEO | 2026-09-01 12:49:41 | 41.61192 | 2.88617 | 76° | 88km/h | 8659m | -11.2m/s | 0°C | 0% | 0hPa | 0V | 00:00:00 | 00:00:00 | 00:00:00 | |
| EA3GEO | 2026-09-01 12:49:36 | 41.61161 | 2.88452 | 77° | 82km/h | 8736m | -12.1m/s | 0°C | 0% | 0hPa | 0V | 00:00:00 | 00:00:00 | 00:00:00 | |
| EA3GEO | 2026-09-01 12:49:29 | 41.61129 | 2.88288 | 76° | 86km/h | 8817m | -12.7m/s | 0°C | 0% | 0hPa | 0V | 00:00:00 | 00:00:00 | 00:00:00 | |
| EA3GEO | 2026-09-01 12:49:24 | 41.61099 | 2.88148 | 73° | 86km/h | 8884m | -13.3m/s | 0°C | 0% | 0hPa | 0V | 00:00:00 | 00:00:00 | 00:00:00 | |
| EA3GEO | 2026-09-01 12:49:18 | 41.61060 | 2.87986 | 70° | 77km/h | 8968m | -15.0m/s | 0°C | 0% | 0hPa | 0V | 00:00:00 | 00:00:00 | 00:00:00 | |
| EA3GEO | 2026-09-01 12:49:13 | 41.61028 | 2.87852 | 74° | 88km/h | 9041m | -14.1m/s | 0°C | 0% | 0hPa | 0V | 00:00:00 | 00:00:00 | 00:00:00 | |
| EA3GEO | 2026-09-01 12:49:08 | 41.60996 | 2.87719 | 74° | 84km/h | 9109m | -13.6m/s | 0°C | 0% | 0hPa | 0V | 00:00:00 | 00:00:00 | 00:00:00 | |
| EA3GEO | 2026-09-01 12:49:01 | 41.60951 | 2.87532 | 73° | 84km/h | 9198m | -13.4m/s | 0°C | 0% | 0hPa | 0V | 00:00:00 | 00:00:00 | 00:00:00 | |
| EA3GEO | 2026-09-01 12:48:55 | 41.60912 | 2.87364 | 75° | 88km/h | 9277m | -12.6m/s | 0°C | 0% | 0hPa | 0V | 00:00:00 | 00:00:00 | 00:00:00 | |
| EA3GEO | 2026-09-01 12:48:50 | 41.60882 | 2.87224 | 73° | 84km/h | 9345m | -14.2m/s | 0°C | 0% | 0hPa | 0V | 00:00:00 | 00:00:00 | 00:00:00 | |
| EA3GEO | 2026-09-01 12:48:46 | 41.60851 | 2.87085 | 76° | 86km/h | 9415m | -13.7m/s | 0°C | 0% | 0hPa | 0V | 00:00:00 | 00:00:00 | 00:00:00 | |
| EA3GEO | 2026-09-01 12:48:39 | 41.60814 | 2.86914 | 75° | 88km/h | 9497m | -12.7m/s | 0°C | 0% | 0hPa | 0V | 00:00:00 | 00:00:00 | 00:00:00 | |
| EA3GEO | 2026-09-01 12:48:33 | 41.60778 | 2.86742 | 76° | 86km/h | 9580m | -12.7m/s | 0°C | 0% | 0hPa | 0V | 00:00:00 | 00:00:00 | 00:00:00 | |
| EA3GEO | 2026-09-01 12:48:27 | 41.60746 | 2.86573 | 77° | 88km/h | 9670m | -13.5m/s | 0°C | 0% | 0hPa | 0V | 00:00:00 | 00:00:00 | 00:00:00 | |
| EA3GEO | 2026-09-01 12:48:20 | 41.60702 | 2.86317 | 77° | 84km/h | 9796m | -12.4m/s | 0°C | 0% | 0hPa | 0V | 00:00:00 | 00:00:00 | 00:00:00 | |
| EA3GEO | 2026-09-01 12:48:13 | 41.60678 | 2.86178 | 79° | 86km/h | 9872m | -14.2m/s | 0°C | 0% | 0hPa | 0V | 00:00:00 | 00:00:00 | 00:00:00 | |
| EA3GEO | 2026-09-01 12:48:06 | 41.60642 | 2.85982 | 76° | 86km/h | 9972m | -13.1m/s | 0°C | 0% | 0hPa | 0V | 00:00:00 | 00:00:00 | 00:00:00 | |
| EA3GEO | 2026-09-01 12:48:00 | 41.60610 | 2.85817 | 74° | 86km/h | 10054m | -13.3m/s | 0°C | 0% | 0hPa | 0V | 00:00:00 | 00:00:00 | 00:00:00 | |
| EA3GEO | 2026-09-01 12:47:55 | 41.60580 | 2.85681 | 74° | 84km/h | 10122m | -12.2m/s | 0°C | 0% | 0hPa | 0V | 00:00:00 | 00:00:00 | 00:00:00 | |
| EA3GEO | 2026-09-01 12:47:50 | 41.60543 | 2.85518 | 72° | 84km/h | 10204m | -13.1m/s | 0°C | 0% | 0hPa | 0V | 00:00:00 | 00:00:00 | 00:00:00 | |
| EA3GEO | 2026-09-01 12:47:43 | 41.60504 | 2.85354 | 74° | 84km/h | 10289m | -14.1m/s | 0°C | 0% | 0hPa | 0V | 00:00:00 | 00:00:00 | 00:00:00 | |
| EA3GEO | 2026-09-01 12:47:38 | 41.60474 | 2.85215 | 74° | 84km/h | 10359m | -12.4m/s | 0°C | 0% | 0hPa | 0V | 00:00:00 | 00:00:00 | 00:00:00 | |
| EA3GEO | 2026-09-01 12:47:33 | 41.60445 | 2.85078 | 72° | 84km/h | 10426m | -13.2m/s | 0°C | 0% | 0hPa | 0V | 00:00:00 | 00:00:00 | 00:00:00 | |
| EA3GEO | 2026-09-01 12:47:28 | 41.60412 | 2.84943 | 73° | 86km/h | 10495m | -12.5m/s | 0°C | 0% | 0hPa | 0V | 00:00:00 | 00:00:00 | 00:00:00 | |
| EA3GEO | 2026-09-01 12:47:21 | 41.60367 | 2.84755 | 72° | 80km/h | 10590m | -12.6m/s | 0°C | 0% | 0hPa | 0V | 00:00:00 | 00:00:00 | 00:00:00 | |
| EA3GEO | 2026-09-01 12:47:16 | 41.60331 | 2.84626 | 71° | 82km/h | 10656m | -12.1m/s | 0°C | 0% | 0hPa | 0V | 00:00:00 | 00:00:00 | 00:00:00 | |
| EA3GEO | 2026-09-01 12:47:04 | 41.60256 | 2.84320 | 73° | 77km/h | 10825m | -13.0m/s | 0°C | 0% | 0hPa | 0V | 00:00:00 | 00:00:00 | 00:00:00 | |
| EA3GEO | 2026-09-01 12:46:54 | 41.60208 | 2.84070 | 77° | 78km/h | 10966m | -13.5m/s | 0°C | 0% | 0hPa | 0V | 00:00:00 | 00:00:00 | 00:00:00 | |
| EA3GEO | 2026-09-01 12:46:46 | 41.60176 | 2.83862 | 79° | 78km/h | 11078m | -13.7m/s | 0°C | 0% | 0hPa | 0V | 00:00:00 | 00:00:00 | 00:00:00 | |
| EA3GEO | 2026-09-01 12:46:38 | 41.60141 | 2.83652 | 75° | 78km/h | 11194m | -13.9m/s | 0°C | 0% | 0hPa | 0V | 00:00:00 | 00:00:00 | 00:00:00 | |
| EA3GEO | 2026-09-01 12:46:30 | 41.60099 | 2.83443 | 72° | 80km/h | 11311m | -14.6m/s | 0°C | 0% | 0hPa | 0V | 00:00:00 | 00:00:00 | 00:00:00 | |
| EA3GEO | 2026-09-01 12:46:26 | 41.60067 | 2.83315 | 71° | 82km/h | 11384m | -14.6m/s | 0°C | 0% | 0hPa | 0V | 00:00:00 | 00:00:00 | 00:00:00 | |
| EA3GEO | 2026-09-01 12:46:19 | 41.60014 | 2.83123 | 69° | 89km/h | 11489m | -15.1m/s | 0°C | 0% | 0hPa | 0V | 00:00:00 | 00:00:00 | 00:00:00 | |
| EA3GEO | 2026-09-01 12:46:11 | 41.59953 | 2.82931 | 67° | 86km/h | 11592m | -14.4m/s | 0°C | 0% | 0hPa | 0V | 00:00:00 | 00:00:00 | 00:00:00 | |
| EA3GEO | 2026-09-01 12:45:59 | 41.59839 | 2.82617 | 63° | 78km/h | 11772m | -13.4m/s | 0°C | 0% | 0hPa | 0V | 00:00:00 | 00:00:00 | 00:00:00 | |
| EA3GEO | 2026-09-01 12:45:54 | 41.59787 | 2.82497 | 62° | 84km/h | 11847m | -14.4m/s | 0°C | 0% | 0hPa | 0V | 00:00:00 | 00:00:00 | 00:00:00 | |
| EA3GEO | 2026-09-01 12:45:47 | 41.59720 | 2.82314 | 68° | 86km/h | 11959m | -15.7m/s | 0°C | 0% | 0hPa | 0V | 00:00:00 | 00:00:00 | 00:00:00 | |
| EA3GEO | 2026-09-01 12:45:40 | 41.59657 | 2.82128 | 69° | 89km/h | 12071m | -15.6m/s | 0°C | 0% | 0hPa | 0V | 00:00:00 | 00:00:00 | 00:00:00 | |
| EA3GEO | 2026-09-01 12:45:33 | 41.59595 | 2.81929 | 72° | 91km/h | 12190m | -14.9m/s | 0°C | 0% | 0hPa | 0V | 00:00:00 | 00:00:00 | 00:00:00 | |
| EA3GEO | 2026-09-01 12:45:23 | 41.59513 | 2.81635 | 74° | 89km/h | 12359m | -15.8m/s | 0°C | 0% | 0hPa | 0V | 00:00:00 | 00:00:00 | 00:00:00 | |
| EA3GEO | 2026-09-01 12:45:17 | 41.59475 | 2.81467 | 73° | 86km/h | 12460m | -14.0m/s | 0°C | 0% | 0hPa | 0V | 00:00:00 | 00:00:00 | 00:00:00 | |
| EA3GEO | 2026-09-01 12:45:10 | 41.59420 | 2.81272 | 68° | 91km/h | 12575m | -14.9m/s | 0°C | 0% | 0hPa | 0V | 00:00:00 | 00:00:00 | 00:00:00 | |
| EA3GEO | 2026-09-01 12:44:59 | 41.59320 | 2.80947 | 67° | 91km/h | 12766m | -15.6m/s | 0°C | 0% | 0hPa | 0V | 00:00:00 | 00:00:00 | 00:00:00 | |
| EA3GEO | 2026-09-01 12:44:43 | 41.59191 | 2.80496 | 70° | 88km/h | 13047m | -16.3m/s | 0°C | 0% | 0hPa | 0V | 00:00:00 | 00:00:00 | 00:00:00 | |
| EA3GEO | 2026-09-01 12:44:32 | 41.59084 | 2.80197 | 63° | 91km/h | 13241m | -16.8m/s | 0°C | 0% | 0hPa | 0V | 00:00:00 | 00:00:00 | 00:00:00 | |
| EA3GEO | 2026-09-01 12:44:22 | 41.58993 | 2.79914 | 72° | 91km/h | 13418m | -17.0m/s | 0°C | 0% | 0hPa | 0V | 00:00:00 | 00:00:00 | 00:00:00 | |
| EA3GEO | 2026-09-01 12:44:14 | 41.58935 | 2.79654 | 73° | 88km/h | 13577m | -17.9m/s | 0°C | 0% | 0hPa | 0V | 00:00:00 | 00:00:00 | 00:00:00 | |
| EA3GEO | 2026-09-01 12:44:04 | 41.58869 | 2.79397 | 69° | 89km/h | 13746m | -18.1m/s | 0°C | 0% | 0hPa | 0V | 00:00:00 | 00:00:00 | 00:00:00 | |
| EA3GEO | 2026-09-01 12:43:57 | 41.58816 | 2.79194 | 73° | 91km/h | 13877m | -17.9m/s | 0°C | 0% | 0hPa | 0V | 00:00:00 | 00:00:00 | 00:00:00 | |
| EA3GEO | 2026-09-01 12:43:48 | 41.58772 | 2.78927 | 82° | 86km/h | 14045m | -18.0m/s | 0°C | 0% | 0hPa | 0V | 00:00:00 | 00:00:00 | 00:00:00 | |
| EA3GEO | 2026-09-01 12:43:36 | 41.58733 | 2.78579 | 79° | 86km/h | 14272m | -18.7m/s | 0°C | 0% | 0hPa | 0V | 00:00:00 | 00:00:00 | 00:00:00 | |
| EA3GEO | 2026-09-01 12:43:22 | 41.58675 | 2.78156 | 82° | 84km/h | 14545m | -19.3m/s | 0°C | 0% | 0hPa | 0V | 00:00:00 | 00:00:00 | 00:00:00 | |
| EA3GEO | 2026-09-01 12:43:16 | 41.58660 | 2.77989 | 82° | 80km/h | 14662m | -18.2m/s | 0°C | 0% | 0hPa | 0V | 00:00:00 | 00:00:00 | 00:00:00 | |
| EA3GEO | 2026-09-01 12:43:07 | 41.58625 | 2.77754 | 76° | 75km/h | 14840m | -18.5m/s | 0°C | 0% | 0hPa | 0V | 00:00:00 | 00:00:00 | 00:00:00 | |
| EA3GEO | 2026-09-01 12:42:56 | 41.58566 | 2.77494 | 71° | 71km/h | 15060m | -18.8m/s | 0°C | 0% | 0hPa | 0V | 00:00:00 | 00:00:00 | 00:00:00 | |
| EA3GEO | 2026-09-01 12:42:27 | 41.58379 | 2.76821 | 71° | 69km/h | 15658m | -21.1m/s | 0°C | 0% | 0hPa | 0V | 00:00:00 | 00:00:00 | 00:00:00 | |
| EA3GEO | 2026-09-01 12:41:52 | 41.58248 | 2.76094 | 81° | 62km/h | 16428m | -22.3m/s | 0°C | 0% | 0hPa | 0V | 00:00:00 | 00:00:00 | 00:00:00 | |
| EA3GEO | 2026-09-01 12:41:42 | 41.58227 | 2.75916 | 72° | 46km/h | 16657m | -21.4m/s | 0°C | 0% | 0hPa | 0V | 00:00:00 | 00:00:00 | 00:00:00 | |
| EA3GEO | 2026-09-01 12:41:27 | 41.58196 | 2.75690 | 93° | 38km/h | 17002m | -22.1m/s | 0°C | 0% | 0hPa | 0V | 00:00:00 | 00:00:00 | 00:00:00 | |
| EA3GEO | 2026-09-01 12:41:11 | 41.58210 | 2.75577 | 86° | 11km/h | 17378m | -24.0m/s | 0°C | 0% | 0hPa | 0V | 00:00:00 | 00:00:00 | 00:00:00 | |
| EA3GEO | 2026-09-01 12:39:47 | 41.58065 | 2.75162 | 141° | 4km/h | 19471m | -26.1m/s | 0°C | 0% | 0hPa | 0V | 00:00:00 | 00:00:00 | 00:00:00 | |
| EA3GEO | 2026-09-01 12:39:37 | 41.58068 | 2.75135 | 131° | 7km/h | 19735m | -25.8m/s | 0°C | 0% | 0hPa | 0V | 00:00:00 | 00:00:00 | 00:00:00 | |
| EA3GEO | 2026-09-01 12:39:30 | 41.58078 | 2.75133 | 97° | 2km/h | 19914m | -25.1m/s | 0°C | 0% | 0hPa | 0V | 00:00:00 | 00:00:00 | 00:00:00 | |
| EA3GEO | 2026-09-01 12:39:24 | 41.58081 | 2.75120 | 120° | 13km/h | 20092m | -24.4m/s | 0°C | 0% | 0hPa | 0V | 00:00:00 | 00:00:00 | 00:00:00 | |
| EA3GEO | 2026-09-01 12:39:19 | 41.58084 | 2.75100 | 84° | 13km/h | 20217m | -23.7m/s | 0°C | 0% | 0hPa | 0V | 00:00:00 | 00:00:00 | 00:00:00 | |
| EA3GEO | 2026-09-01 12:38:44 | 41.58090 | 2.75072 | 326° | 13km/h | 21184m | -27.6m/s | 0°C | 0% | 0hPa | 0V | 00:00:00 | 00:00:00 | 00:00:00 | |
| EA3GEO | 2026-09-01 12:38:25 | 41.58023 | 2.75141 | 336° | 20km/h | 21737m | -33.6m/s | 0°C | 0% | 0hPa | 0V | 00:00:00 | 00:00:00 | 00:00:00 | |
| EA3GEO | 2026-09-01 12:38:05 | 41.57977 | 2.75187 | 295° | 5km/h | 22428m | -34.7m/s | 0°C | 0% | 0hPa | 0V | 00:00:00 | 00:00:00 | 00:00:00 | |
| EA3GEO | 2026-09-01 12:36:57 | 41.57962 | 2.75477 | 307° | 29km/h | 24577m | -33.2m/s | 0°C | 0% | 0hPa | 0V | 00:00:00 | 00:00:00 | 00:00:00 | |
| EA3GEO | 2026-09-01 12:36:33 | 41.57852 | 2.75581 | 316° | 13km/h | 25237m | -27.0m/s | 0°C | 0% | 0hPa | 0V | 00:00:00 | 00:00:00 | 00:00:00 | |
| EA3GEO | 2026-09-01 12:36:21 | 41.57815 | 2.75623 | 347° | 20km/h | 25575m | -30.3m/s | 0°C | 0% | 0hPa | 0V | 00:00:00 | 00:00:00 | 00:00:00 | |
| EA3GEO | 2026-09-01 12:36:02 | 41.57700 | 2.75647 | 356° | 20km/h | 26152m | -30.0m/s | 0°C | 0% | 0hPa | 0V | 00:00:00 | 00:00:00 | 00:00:00 | |
| EA3GEO | 2026-09-01 12:35:37 | 41.57623 | 2.75689 | 321° | 31km/h | 26880m | -29.8m/s | 0°C | 0% | 0hPa | 0V | 00:00:00 | 00:00:00 | 00:00:00 | |
| EA3GEO | 2026-09-01 12:35:16 | 41.57551 | 2.75673 | 131° | 9km/h | 27538m | -31.3m/s | 0°C | 0% | 0hPa | 0V | 00:00:00 | 00:00:00 | 00:00:00 | |
| EA3GEO | 2026-09-01 12:35:10 | 41.57552 | 2.75664 | 310° | 4km/h | 27788m | -33.0m/s | 0°C | 0% | 0hPa | 0V | 00:00:00 | 00:00:00 | 00:00:00 | |
| EA3GEO | 2026-09-01 12:34:48 | 41.57538 | 2.75656 | 220° | 4km/h | 28347m | -26.4m/s | 0°C | 0% | 0hPa | 0V | 00:00:00 | 00:00:00 | 00:00:00 | |
| EA3GEO | 2026-09-01 12:34:42 | 41.57542 | 2.75673 | 253° | 24km/h | 28493m | -26.3m/s | 0°C | 0% | 0hPa | 0V | 00:00:00 | 00:00:00 | 00:00:00 | |
| EA3GEO | 2026-09-01 12:34:37 | 41.57548 | 2.75706 | 289° | 7km/h | 28655m | -19.8m/s | 0°C | 0% | 0hPa | 0V | 00:00:00 | 00:00:00 | 00:00:00 | |
| EA3GEO | 2026-09-01 12:34:27 | 41.57542 | 2.75727 | 44° | 9km/h | 28818m | -21.2m/s | 0°C | 0% | 0hPa | 0V | 00:00:00 | 00:00:00 | 00:00:00 | |
| EA3GEO | 2026-09-01 12:34:22 | 41.57537 | 2.75727 | 241° | 13km/h | 28981m | -32.4m/s | 0°C | 0% | 0hPa | 0V | 00:00:00 | 00:00:00 | 00:00:00 | |
| EA3GEO | 2026-09-01 12:34:09 | 41.57578 | 2.75766 | 219° | 29km/h | 29236m | -15.2m/s | 0°C | 0% | 0hPa | 0V | 00:00:00 | 00:00:00 | 00:00:00 | |
| EA3GEO | 2026-09-01 12:33:48 | 41.57609 | 2.75901 | 260° | 11km/h | 29613m | -32.3m/s | 0°C | 0% | 0hPa | 0V | 00:00:00 | 00:00:00 | 00:00:00 | |
| EA3GEO | 2026-09-01 12:33:43 | 41.57586 | 2.75938 | 319° | 38km/h | 29771m | -25.3m/s | 0°C | 0% | 0hPa | 0V | 00:00:00 | 00:00:00 | 00:00:00 | |
| EA3GEO | 2026-09-01 12:33:30 | 41.57538 | 2.76024 | 249° | 20km/h | 29800m | 4.2m/s | 0°C | 0% | 0hPa | 0V | 00:00:00 | 00:00:00 | 00:00:00 | |
| EA3GEO | 2026-09-01 12:33:22 | 41.57505 | 2.76081 | 262° | 31km/h | 29755m | 6.0m/s | 0°C | 0% | 0hPa | 0V | 00:00:00 | 00:00:00 | 00:00:00 | |
| EA3GEO | 2026-09-01 12:33:14 | 41.57492 | 2.76137 | 307° | 20km/h | 29709m | 5.3m/s | 0°C | 0% | 0hPa | 0V | 00:00:00 | 00:00:00 | 00:00:00 | |
| EA3GEO | 2026-09-01 12:33:09 | 41.57476 | 2.76180 | 243° | 18km/h | 29673m | 5.8m/s | 0°C | 0% | 0hPa | 0V | 00:00:00 | 00:00:00 | 00:00:00 | |
| EA3GEO | 2026-09-01 12:33:02 | 41.57454 | 2.76205 | 306° | 27km/h | 29641m | 6.5m/s | 0°C | 0% | 0hPa | 0V | 00:00:00 | 00:00:00 | 00:00:00 | |
| EA3GEO | 2026-09-01 12:32:56 | 41.57456 | 2.76244 | 308° | 20km/h | 29605m | 5.5m/s | 0°C | 0% | 0hPa | 0V | 00:00:00 | 00:00:00 | 00:00:00 | |
| EA3GEO | 2026-09-01 12:32:50 | 41.57449 | 2.76276 | 286° | 18km/h | 29571m | 4.6m/s | 0°C | 0% | 0hPa | 0V | 00:00:00 | 00:00:00 | 00:00:00 | |
| EA3GEO | 2026-09-01 12:32:45 | 41.57430 | 2.76303 | 282° | 15km/h | 29544m | 7.8m/s | 0°C | 0% | 0hPa | 0V | 00:00:00 | 00:00:00 | 00:00:00 | |
| EA3GEO | 2026-09-01 12:32:24 | 41.57438 | 2.76449 | 292° | 26km/h | 29417m | 3.9m/s | 0°C | 0% | 0hPa | 0V | 00:00:00 | 00:00:00 | 00:00:00 | |
| EA3GEO | 2026-09-01 12:32:18 | 41.57462 | 2.76513 | 235° | 29km/h | 29382m | 4.4m/s | 0°C | 0% | 0hPa | 0V | 00:00:00 | 00:00:00 | 00:00:00 | |
| EA3GEO | 2026-09-01 12:32:13 | 41.57480 | 2.76532 | 221° | 18km/h | 29352m | 4.3m/s | 0°C | 0% | 0hPa | 0V | 00:00:00 | 00:00:00 | 00:00:00 | |
| EA3GEO | 2026-09-01 12:32:08 | 41.57494 | 2.76577 | 226° | 38km/h | 29324m | 7.8m/s | 0°C | 0% | 0hPa | 0V | 00:00:00 | 00:00:00 | 00:00:00 | |
| EA3GEO | 2026-09-01 12:32:02 | 41.57530 | 2.76601 | 256° | 13km/h | 29289m | 5.7m/s | 0°C | 0% | 0hPa | 0V | 00:00:00 | 00:00:00 | 00:00:00 | |
| EA3GEO | 2026-09-01 12:31:56 | 41.57557 | 2.76640 | 214° | 22km/h | 29254m | 5.1m/s | 0°C | 0% | 0hPa | 0V | 00:00:00 | 00:00:00 | 00:00:00 | |
| EA3GEO | 2026-09-01 12:31:51 | 41.57578 | 2.76649 | 220° | 7km/h | 29225m | 7.7m/s | 0°C | 0% | 0hPa | 0V | 00:00:00 | 00:00:00 | 00:00:00 | |
| EA3GEO | 2026-09-01 12:31:41 | 41.57615 | 2.76675 | 152° | 13km/h | 29167m | 6.9m/s | 0°C | 0% | 0hPa | 0V | 00:00:00 | 00:00:00 | 00:00:00 | |
| EA3GEO | 2026-09-01 12:31:35 | 41.57628 | 2.76701 | 267° | 20km/h | 29133m | 4.0m/s | 0°C | 0% | 0hPa | 0V | 00:00:00 | 00:00:00 | 00:00:00 | |
| EA3GEO | 2026-09-01 12:31:29 | 41.57653 | 2.76699 | 98° | 11km/h | 29099m | 6.5m/s | 0°C | 0% | 0hPa | 0V | 00:00:00 | 00:00:00 | 00:00:00 | |
| EA3GEO | 2026-09-01 12:31:21 | 41.57666 | 2.76719 | 99° | 13km/h | 29054m | 6.5m/s | 0°C | 0% | 0hPa | 0V | 00:00:00 | 00:00:00 | 00:00:00 | |
| EA3GEO | 2026-09-01 12:30:41 | 41.57681 | 2.76740 | 35° | 7km/h | 28829m | 6.5m/s | 0°C | 0% | 0hPa | 0V | 00:00:00 | 00:00:00 | 00:00:00 | |
| EA3GEO | 2026-09-01 12:30:23 | 41.57684 | 2.76792 | 224° | 9km/h | 28729m | 4.9m/s | 0°C | 0% | 0hPa | 0V | 00:00:00 | 00:00:00 | 00:00:00 | |
| EA3GEO | 2026-09-01 12:30:19 | 41.57688 | 2.76820 | 275° | 16km/h | 28694m | 4.1m/s | 0°C | 0% | 0hPa | 0V | 00:00:00 | 00:00:00 | 00:00:00 | |
| EA3GEO | 2026-09-01 12:30:12 | 41.57690 | 2.76854 | 223° | 22km/h | 28666m | 7.6m/s | 0°C | 0% | 0hPa | 0V | 00:00:00 | 00:00:00 | 00:00:00 | |
| EA3GEO | 2026-09-01 12:29:59 | 41.57721 | 2.76929 | 245° | 15km/h | 28592m | 5.9m/s | 0°C | 0% | 0hPa | 0V | 00:00:00 | 00:00:00 | 00:00:00 | |
| EA3GEO | 2026-09-01 12:29:49 | 41.57747 | 2.76983 | 204° | 16km/h | 28536m | 5.1m/s | 0°C | 0% | 0hPa | 0V | 00:00:00 | 00:00:00 | 00:00:00 | |
| EA3GEO | 2026-09-01 12:29:41 | 41.57757 | 2.77017 | 266° | 22km/h | 28489m | 6.5m/s | 0°C | 0% | 0hPa | 0V | 00:00:00 | 00:00:00 | 00:00:00 | |
| EA3GEO | 2026-09-01 12:29:01 | 41.57759 | 2.77103 | 267° | 20km/h | 28267m | 6.7m/s | 0°C | 0% | 0hPa | 0V | 00:00:00 | 00:00:00 | 00:00:00 | |
| EA3GEO | 2026-09-01 12:28:56 | 41.57765 | 2.77104 | 50° | 4km/h | 28240m | 4.4m/s | 0°C | 0% | 0hPa | 0V | 00:00:00 | 00:00:00 | 00:00:00 | |
| EA3GEO | 2026-09-01 12:28:49 | 41.57761 | 2.77122 | 105° | 5km/h | 28198m | 7.3m/s | 0°C | 0% | 0hPa | 0V | 00:00:00 | 00:00:00 | 00:00:00 | |
| EA3GEO | 2026-09-01 12:28:44 | 41.57772 | 2.77107 | 107° | 5km/h | 28166m | 5.1m/s | 0°C | 0% | 0hPa | 0V | 00:00:00 | 00:00:00 | 00:00:00 | |
| EA3GEO | 2026-09-01 12:28:38 | 41.57770 | 2.77110 | 68° | 13km/h | 28132m | 5.3m/s | 0°C | 0% | 0hPa | 0V | 00:00:00 | 00:00:00 | 00:00:00 | |
| EA3GEO | 2026-09-01 12:28:25 | 41.57773 | 2.77092 | 77° | 16km/h | 28055m | 5.7m/s | 0°C | 0% | 0hPa | 0V | 00:00:00 | 00:00:00 | 00:00:00 | |
| EA3GEO | 2026-09-01 12:28:17 | 41.57768 | 2.77079 | 39° | 11km/h | 28010m | 5.3m/s | 0°C | 0% | 0hPa | 0V | 00:00:00 | 00:00:00 | 00:00:00 | |
| EA3GEO | 2026-09-01 12:27:44 | 41.57773 | 2.77075 | 310° | 9km/h | 27818m | 5.7m/s | 0°C | 0% | 0hPa | 0V | 00:00:00 | 00:00:00 | 00:00:00 | |
| EA3GEO | 2026-09-01 12:27:36 | 41.57776 | 2.77078 | 129° | 16km/h | 27769m | 6.0m/s | 0°C | 0% | 0hPa | 0V | 00:00:00 | 00:00:00 | 00:00:00 | |
| EA3GEO | 2026-09-01 12:27:30 | 41.57782 | 2.77097 | 2° | 15km/h | 27736m | 4.7m/s | 0°C | 0% | 0hPa | 0V | 00:00:00 | 00:00:00 | 00:00:00 | |
| EA3GEO | 2026-09-01 12:27:23 | 41.57793 | 2.77086 | 326° | 5km/h | 27694m | 6.9m/s | 0°C | 0% | 0hPa | 0V | 00:00:00 | 00:00:00 | 00:00:00 | |
| EA3GEO | 2026-09-01 12:27:16 | 41.57790 | 2.77080 | 110° | 27km/h | 27652m | 4.1m/s | 0°C | 0% | 0hPa | 0V | 00:00:00 | 00:00:00 | 00:00:00 | |
| EA3GEO | 2026-09-01 12:27:02 | 41.57804 | 2.77019 | 52° | 22km/h | 27569m | 7.5m/s | 0°C | 0% | 0hPa | 0V | 00:00:00 | 00:00:00 | 00:00:00 | |
| EA3GEO | 2026-09-01 12:26:51 | 41.57794 | 2.76953 | 79° | 11km/h | 27505m | 7.1m/s | 0°C | 0% | 0hPa | 0V | 00:00:00 | 00:00:00 | 00:00:00 | |
| EA3GEO | 2026-09-01 12:26:43 | 41.57791 | 2.76910 | 94° | 20km/h | 27458m | 6.2m/s | 0°C | 0% | 0hPa | 0V | 00:00:00 | 00:00:00 | 00:00:00 | |
| EA3GEO | 2026-09-01 12:26:33 | 41.57761 | 2.76885 | 75° | 27km/h | 27397m | 5.4m/s | 0°C | 0% | 0hPa | 0V | 00:00:00 | 00:00:00 | 00:00:00 | |
| EA3GEO | 2026-09-01 12:26:24 | 41.57724 | 2.76881 | 15° | 15km/h | 27342m | 7.4m/s | 0°C | 0% | 0hPa | 0V | 00:00:00 | 00:00:00 | 00:00:00 | |
| EA3GEO | 2026-09-01 12:26:18 | 41.57700 | 2.76879 | 8° | 38km/h | 27306m | 5.0m/s | 0°C | 0% | 0hPa | 0V | 00:00:00 | 00:00:00 | 00:00:00 | |
| EA3GEO | 2026-09-01 12:26:12 | 41.57660 | 2.76895 | 350° | 26km/h | 27270m | 6.7m/s | 0°C | 0% | 0hPa | 0V | 00:00:00 | 00:00:00 | 00:00:00 | |
| EA3GEO | 2026-09-01 12:26:07 | 41.57619 | 2.76909 | 345° | 37km/h | 27238m | 5.2m/s | 0°C | 0% | 0hPa | 0V | 00:00:00 | 00:00:00 | 00:00:00 | |
| EA3GEO | 2026-09-01 12:26:00 | 41.57585 | 2.76920 | 354° | 26km/h | 27197m | 7.6m/s | 0°C | 0% | 0hPa | 0V | 00:00:00 | 00:00:00 | 00:00:00 | |
| EA3GEO | 2026-09-01 12:25:55 | 41.57542 | 2.76930 | 330° | 26km/h | 27167m | 4.9m/s | 0°C | 0% | 0hPa | 0V | 00:00:00 | 00:00:00 | 00:00:00 | |
| EA3GEO | 2026-09-01 12:25:46 | 41.57490 | 2.76941 | 357° | 33km/h | 27114m | 6.2m/s | 0°C | 0% | 0hPa | 0V | 00:00:00 | 00:00:00 | 00:00:00 | |
| EA3GEO | 2026-09-01 12:25:40 | 41.57465 | 2.76951 | 301° | 13km/h | 27081m | 5.2m/s | 0°C | 0% | 0hPa | 0V | 00:00:00 | 00:00:00 | 00:00:00 | |
| EA3GEO | 2026-09-01 12:25:34 | 41.57433 | 2.76952 | 329° | 20km/h | 27043m | 6.3m/s | 0°C | 0% | 0hPa | 0V | 00:00:00 | 00:00:00 | 00:00:00 | |
| EA3GEO | 2026-09-01 12:25:28 | 41.57410 | 2.76963 | 326° | 16km/h | 27010m | 6.9m/s | 0°C | 0% | 0hPa | 0V | 00:00:00 | 00:00:00 | 00:00:00 | |
| EA3GEO | 2026-09-01 12:25:19 | 41.57353 | 2.77002 | 321° | 18km/h | 26956m | 7.1m/s | 0°C | 0% | 0hPa | 0V | 00:00:00 | 00:00:00 | 00:00:00 | |
| EA3GEO | 2026-09-01 12:25:08 | 41.57262 | 2.77065 | 333° | 33km/h | 26891m | 5.4m/s | 0°C | 0% | 0hPa | 0V | 00:00:00 | 00:00:00 | 00:00:00 | |
| EA3GEO | 2026-09-01 12:24:57 | 41.57180 | 2.77126 | 347° | 26km/h | 26827m | 6.1m/s | 0°C | 0% | 0hPa | 0V | 00:00:00 | 00:00:00 | 00:00:00 | |
| EA3GEO | 2026-09-01 12:24:52 | 41.57150 | 2.77152 | 326° | 31km/h | 26798m | 4.8m/s | 0°C | 0% | 0hPa | 0V | 00:00:00 | 00:00:00 | 00:00:00 | |
| EA3GEO | 2026-09-01 12:24:46 | 41.57112 | 2.77186 | 337° | 9km/h | 26759m | 3.5m/s | 0°C | 0% | 0hPa | 0V | 00:00:00 | 00:00:00 | 00:00:00 | |
| EA3GEO | 2026-09-01 12:24:38 | 41.57084 | 2.77217 | 239° | 4km/h | 26718m | 4.8m/s | 0°C | 0% | 0hPa | 0V | 00:00:00 | 00:00:00 | 00:00:00 | |
| EA3GEO | 2026-09-01 12:24:32 | 41.57078 | 2.77238 | 323° | 11km/h | 26682m | 5.2m/s | 0°C | 0% | 0hPa | 0V | 00:00:00 | 00:00:00 | 00:00:00 | |
| EA3GEO | 2026-09-01 12:24:15 | 41.57080 | 2.77236 | 146° | 4km/h | 26586m | 6.2m/s | 0°C | 0% | 0hPa | 0V | 00:00:00 | 00:00:00 | 00:00:00 | |
| EA3GEO | 2026-09-01 12:24:09 | 41.57086 | 2.77236 | 333° | 5km/h | 26551m | 5.4m/s | 0°C | 0% | 0hPa | 0V | 00:00:00 | 00:00:00 | 00:00:00 | |
| EA3GEO | 2026-09-01 12:24:04 | 41.57093 | 2.77229 | 136° | 9km/h | 26524m | 6.2m/s | 0°C | 0% | 0hPa | 0V | 00:00:00 | 00:00:00 | 00:00:00 | |
| EA3GEO | 2026-09-01 12:23:58 | 41.57083 | 2.77211 | 56° | 13km/h | 26491m | 3.1m/s | 0°C | 0% | 0hPa | 0V | 00:00:00 | 00:00:00 | 00:00:00 | |
| EA3GEO | 2026-09-01 12:23:51 | 41.57069 | 2.77208 | 52° | 13km/h | 26453m | 5.5m/s | 0°C | 0% | 0hPa | 0V | 00:00:00 | 00:00:00 | 00:00:00 | |
| EA3GEO | 2026-09-01 12:23:45 | 41.57041 | 2.77189 | 19° | 13km/h | 26421m | 4.1m/s | 0°C | 0% | 0hPa | 0V | 00:00:00 | 00:00:00 | 00:00:00 | |
| EA3GEO | 2026-09-01 12:23:39 | 41.57013 | 2.77196 | 30° | 26km/h | 26386m | 5.0m/s | 0°C | 0% | 0hPa | 0V | 00:00:00 | 00:00:00 | 00:00:00 | |
| EA3GEO | 2026-09-01 12:23:33 | 41.56977 | 2.77190 | 321° | 22km/h | 26348m | 6.4m/s | 0°C | 0% | 0hPa | 0V | 00:00:00 | 00:00:00 | 00:00:00 | |
| EA3GEO | 2026-09-01 12:23:27 | 41.56947 | 2.77193 | 33° | 24km/h | 26320m | 3.8m/s | 0°C | 0% | 0hPa | 0V | 00:00:00 | 00:00:00 | 00:00:00 | |
| EA3GEO | 2026-09-01 12:23:20 | 41.56907 | 2.77197 | 324° | 15km/h | 26281m | 6.1m/s | 0°C | 0% | 0hPa | 0V | 00:00:00 | 00:00:00 | 00:00:00 | |
| EA3GEO | 2026-09-01 12:23:13 | 41.56873 | 2.77197 | 2° | 29km/h | 26242m | 6.3m/s | 0°C | 0% | 0hPa | 0V | 00:00:00 | 00:00:00 | 00:00:00 | |
| EA3GEO | 2026-09-01 12:23:07 | 41.56842 | 2.77218 | 338° | 22km/h | 26209m | 5.3m/s | 0°C | 0% | 0hPa | 0V | 00:00:00 | 00:00:00 | 00:00:00 | |
| EA3GEO | 2026-09-01 12:23:01 | 41.56806 | 2.77210 | 341° | 33km/h | 26178m | 7.3m/s | 0°C | 0% | 0hPa | 0V | 00:00:00 | 00:00:00 | 00:00:00 | |
| EA3GEO | 2026-09-01 12:22:56 | 41.56780 | 2.77233 | 65° | 11km/h | 26150m | 5.3m/s | 0°C | 0% | 0hPa | 0V | 00:00:00 | 00:00:00 | 00:00:00 | |
| EA3GEO | 2026-09-01 12:22:51 | 41.56755 | 2.77226 | 340° | 37km/h | 26123m | 5.1m/s | 0°C | 0% | 0hPa | 0V | 00:00:00 | 00:00:00 | 00:00:00 | |
| EA3GEO | 2026-09-01 12:22:45 | 41.56718 | 2.77246 | 3° | 31km/h | 26089m | 5.4m/s | 0°C | 0% | 0hPa | 0V | 00:00:00 | 00:00:00 | 00:00:00 | |
| EA3GEO | 2026-09-01 12:22:39 | 41.56672 | 2.77245 | 325° | 35km/h | 26053m | 4.4m/s | 0°C | 0% | 0hPa | 0V | 00:00:00 | 00:00:00 | 00:00:00 | |
| EA3GEO | 2026-09-01 12:22:34 | 41.56639 | 2.77257 | 6° | 37km/h | 26027m | 6.2m/s | 0°C | 0% | 0hPa | 0V | 00:00:00 | 00:00:00 | 00:00:00 | |
| EA3GEO | 2026-09-01 12:22:28 | 41.56598 | 2.77259 | 327° | 29km/h | 25994m | 7.8m/s | 0°C | 0% | 0hPa | 0V | 00:00:00 | 00:00:00 | 00:00:00 | |
| EA3GEO | 2026-09-01 12:22:23 | 41.56558 | 2.77265 | 19° | 38km/h | 25966m | 5.5m/s | 0°C | 0% | 0hPa | 0V | 00:00:00 | 00:00:00 | 00:00:00 | |
| EA3GEO | 2026-09-01 12:22:13 | 41.56478 | 2.77283 | 346° | 38km/h | 25910m | 5.2m/s | 0°C | 0% | 0hPa | 0V | 00:00:00 | 00:00:00 | 00:00:00 | |
| EA3GEO | 2026-09-01 12:22:08 | 41.56442 | 2.77293 | 344° | 35km/h | 25885m | 6.4m/s | 0°C | 0% | 0hPa | 0V | 00:00:00 | 00:00:00 | 00:00:00 | |
| EA3GEO | 2026-09-01 12:22:03 | 41.56401 | 2.77308 | 355° | 26km/h | 25857m | 5.5m/s | 0°C | 0% | 0hPa | 0V | 00:00:00 | 00:00:00 | 00:00:00 | |
| EA3GEO | 2026-09-01 12:21:58 | 41.56358 | 2.77325 | 339° | 37km/h | 25831m | 6.1m/s | 0°C | 0% | 0hPa | 0V | 00:00:00 | 00:00:00 | 00:00:00 | |
| EA3GEO | 2026-09-01 12:21:52 | 41.56312 | 2.77333 | 358° | 35km/h | 25798m | 5.4m/s | 0°C | 0% | 0hPa | 0V | 00:00:00 | 00:00:00 | 00:00:00 | |
| EA3GEO | 2026-09-01 12:21:46 | 41.56273 | 2.77341 | 340° | 33km/h | 25764m | 4.5m/s | 0°C | 0% | 0hPa | 0V | 00:00:00 | 00:00:00 | 00:00:00 | |
| EA3GEO | 2026-09-01 12:21:40 | 41.56242 | 2.77356 | 2° | 29km/h | 25731m | 6.1m/s | 0°C | 0% | 0hPa | 0V | 00:00:00 | 00:00:00 | 00:00:00 | |
| EA3GEO | 2026-09-01 12:21:35 | 41.56218 | 2.77358 | 303° | 15km/h | 25702m | 5.8m/s | 0°C | 0% | 0hPa | 0V | 00:00:00 | 00:00:00 | 00:00:00 | |
| EA3GEO | 2026-09-01 12:21:28 | 41.56191 | 2.77389 | 356° | 9km/h | 25665m | 5.3m/s | 0°C | 0% | 0hPa | 0V | 00:00:00 | 00:00:00 | 00:00:00 | |
| EA3GEO | 2026-09-01 12:21:22 | 41.56163 | 2.77406 | 296° | 9km/h | 25631m | 6.9m/s | 0°C | 0% | 0hPa | 0V | 00:00:00 | 00:00:00 | 00:00:00 | |
| EA3GEO | 2026-09-01 12:21:17 | 41.56159 | 2.77426 | 298° | 13km/h | 25600m | 6.3m/s | 0°C | 0% | 0hPa | 0V | 00:00:00 | 00:00:00 | 00:00:00 | |
| EA3GEO | 2026-09-01 12:21:09 | 41.56148 | 2.77458 | 234° | 11km/h | 25555m | 5.7m/s | 0°C | 0% | 0hPa | 0V | 00:00:00 | 00:00:00 | 00:00:00 | |
| EA3GEO | 2026-09-01 12:21:03 | 41.56131 | 2.77486 | 344° | 16km/h | 25516m | 4.5m/s | 0°C | 0% | 0hPa | 0V | 00:00:00 | 00:00:00 | 00:00:00 | |
| EA3GEO | 2026-09-01 12:20:56 | 41.56114 | 2.77501 | 311° | 11km/h | 25482m | 5.0m/s | 0°C | 0% | 0hPa | 0V | 00:00:00 | 00:00:00 | 00:00:00 | |
| EA3GEO | 2026-09-01 12:20:50 | 41.56092 | 2.77523 | 317° | 7km/h | 25446m | 5.3m/s | 0°C | 0% | 0hPa | 0V | 00:00:00 | 00:00:00 | 00:00:00 | |
| EA3GEO | 2026-09-01 12:20:44 | 41.56087 | 2.77551 | 279° | 15km/h | 25414m | 4.5m/s | 0°C | 0% | 0hPa | 0V | 00:00:00 | 00:00:00 | 00:00:00 | |
| EA3GEO | 2026-09-01 12:20:37 | 41.56070 | 2.77571 | 227° | 13km/h | 25375m | 4.4m/s | 0°C | 0% | 0hPa | 0V | 00:00:00 | 00:00:00 | 00:00:00 | |
| EA3GEO | 2026-09-01 12:20:29 | 41.56050 | 2.77591 | 2° | 13km/h | 25330m | 5.6m/s | 0°C | 0% | 0hPa | 0V | 00:00:00 | 00:00:00 | 00:00:00 | |
| EA3GEO | 2026-09-01 12:20:24 | 41.56042 | 2.77610 | 290° | 13km/h | 25302m | 5.3m/s | 0°C | 0% | 0hPa | 0V | 00:00:00 | 00:00:00 | 00:00:00 | |
| EA3GEO | 2026-09-01 12:20:19 | 41.56024 | 2.77616 | 44° | 15km/h | 25274m | 5.6m/s | 0°C | 0% | 0hPa | 0V | 00:00:00 | 00:00:00 | 00:00:00 | |
| EA3GEO | 2026-09-01 12:20:13 | 41.56002 | 2.77630 | 319° | 16km/h | 25242m | 6.0m/s | 0°C | 0% | 0hPa | 0V | 00:00:00 | 00:00:00 | 00:00:00 | |
| EA3GEO | 2026-09-01 12:20:08 | 41.55978 | 2.77632 | 5° | 26km/h | 25212m | 5.8m/s | 0°C | 0% | 0hPa | 0V | 00:00:00 | 00:00:00 | 00:00:00 | |
| EA3GEO | 2026-09-01 12:20:00 | 41.55934 | 2.77653 | 354° | 20km/h | 25166m | 6.7m/s | 0°C | 0% | 0hPa | 0V | 00:00:00 | 00:00:00 | 00:00:00 | |
| EA3GEO | 2026-09-01 12:19:52 | 41.55888 | 2.77663 | 331° | 18km/h | 25120m | 7.3m/s | 0°C | 0% | 0hPa | 0V | 00:00:00 | 00:00:00 | 00:00:00 | |
| EA3GEO | 2026-09-01 12:19:47 | 41.55860 | 2.77684 | 335° | 26km/h | 25092m | 6.1m/s | 0°C | 0% | 0hPa | 0V | 00:00:00 | 00:00:00 | 00:00:00 | |
| EA3GEO | 2026-09-01 12:19:33 | 41.55775 | 2.77749 | 303° | 27km/h | 25015m | 4.9m/s | 0°C | 0% | 0hPa | 0V | 00:00:00 | 00:00:00 | 00:00:00 | |
| EA3GEO | 2026-09-01 12:19:28 | 41.55748 | 2.77785 | 329° | 20km/h | 24986m | 5.5m/s | 0°C | 0% | 0hPa | 0V | 00:00:00 | 00:00:00 | 00:00:00 | |
| EA3GEO | 2026-09-01 12:19:22 | 41.55719 | 2.77817 | 300° | 26km/h | 24952m | 4.6m/s | 0°C | 0% | 0hPa | 0V | 00:00:00 | 00:00:00 | 00:00:00 | |
| EA3GEO | 2026-09-01 12:19:16 | 41.55692 | 2.77857 | 340° | 15km/h | 24919m | 4.9m/s | 0°C | 0% | 0hPa | 0V | 00:00:00 | 00:00:00 | 00:00:00 | |
| EA3GEO | 2026-09-01 12:19:07 | 41.55657 | 2.77912 | 336° | 16km/h | 24870m | 5.0m/s | 0°C | 0% | 0hPa | 0V | 00:00:00 | 00:00:00 | 00:00:00 | |
| EA3GEO | 2026-09-01 12:18:32 | 41.55572 | 2.78057 | 311° | 16km/h | 24687m | 5.5m/s | 0°C | 0% | 0hPa | 0V | 00:00:00 | 00:00:00 | 00:00:00 | |
| EA3GEO | 2026-09-01 12:18:10 | 41.55508 | 2.78209 | 309° | 26km/h | 24575m | 5.0m/s | 0°C | 0% | 0hPa | 0V | 00:00:00 | 00:00:00 | 00:00:00 | |
| EA3GEO | 2026-09-01 12:18:02 | 41.55486 | 2.78270 | 266° | 15km/h | 24531m | 6.7m/s | 0°C | 0% | 0hPa | 0V | 00:00:00 | 00:00:00 | 00:00:00 | |
| EA3GEO | 2026-09-01 12:17:43 | 41.55454 | 2.78403 | 306° | 22km/h | 24430m | 3.8m/s | 0°C | 0% | 0hPa | 0V | 00:00:00 | 00:00:00 | 00:00:00 | |
| EA3GEO | 2026-09-01 12:17:36 | 41.55453 | 2.78442 | 319° | 20km/h | 24396m | 3.9m/s | 0°C | 0% | 0hPa | 0V | 00:00:00 | 00:00:00 | 00:00:00 | |
| EA3GEO | 2026-09-01 12:17:27 | 41.55453 | 2.78476 | 266° | 16km/h | 24347m | 4.0m/s | 0°C | 0% | 0hPa | 0V | 00:00:00 | 00:00:00 | 00:00:00 | |
| EA3GEO | 2026-09-01 12:17:19 | 41.55445 | 2.78510 | 170° | 15km/h | 24310m | 4.9m/s | 0°C | 0% | 0hPa | 0V | 00:00:00 | 00:00:00 | 00:00:00 | |
| EA3GEO | 2026-09-01 12:17:12 | 41.55445 | 2.78528 | 279° | 13km/h | 24274m | 6.0m/s | 0°C | 0% | 0hPa | 0V | 00:00:00 | 00:00:00 | 00:00:00 | |
| EA3GEO | 2026-09-01 12:16:56 | 41.55455 | 2.78606 | 258° | 33km/h | 24189m | 4.4m/s | 0°C | 0% | 0hPa | 0V | 00:00:00 | 00:00:00 | 00:00:00 | |
| EA3GEO | 2026-09-01 12:16:32 | 41.55456 | 2.78756 | 245° | 15km/h | 24055m | 5.7m/s | 0°C | 0% | 0hPa | 0V | 00:00:00 | 00:00:00 | 00:00:00 | |
| EA3GEO | 2026-09-01 12:16:26 | 41.55453 | 2.78787 | 268° | 27km/h | 24021m | 5.1m/s | 0°C | 0% | 0hPa | 0V | 00:00:00 | 00:00:00 | 00:00:00 | |
| EA3GEO | 2026-09-01 12:16:13 | 41.55447 | 2.78869 | 293° | 16km/h | 23948m | 6.4m/s | 0°C | 0% | 0hPa | 0V | 00:00:00 | 00:00:00 | 00:00:00 | |
| EA3GEO | 2026-09-01 12:16:06 | 41.55442 | 2.78922 | 284° | 18km/h | 23911m | 7.4m/s | 0°C | 0% | 0hPa | 0V | 00:00:00 | 00:00:00 | 00:00:00 | |
| EA3GEO | 2026-09-01 12:15:59 | 41.55441 | 2.78959 | 280° | 26km/h | 23870m | 5.9m/s | 0°C | 0% | 0hPa | 0V | 00:00:00 | 00:00:00 | 00:00:00 | |
| EA3GEO | 2026-09-01 12:15:54 | 41.55443 | 2.78998 | 248° | 7km/h | 23837m | 7.1m/s | 0°C | 0% | 0hPa | 0V | 00:00:00 | 00:00:00 | 00:00:00 | |
| EA3GEO | 2026-09-01 12:15:47 | 41.55445 | 2.79025 | 250° | 26km/h | 23805m | 5.9m/s | 0°C | 0% | 0hPa | 0V | 00:00:00 | 00:00:00 | 00:00:00 | |
| EA3GEO | 2026-09-01 12:15:34 | 41.55455 | 2.79083 | 300° | 11km/h | 23729m | 6.0m/s | 0°C | 0% | 0hPa | 0V | 00:00:00 | 00:00:00 | 00:00:00 | |
| EA3GEO | 2026-09-01 12:15:27 | 41.55456 | 2.79103 | 300° | 5km/h | 23689m | 4.1m/s | 0°C | 0% | 0hPa | 0V | 00:00:00 | 00:00:00 | 00:00:00 | |
| EA3GEO | 2026-09-01 12:15:22 | 41.55457 | 2.79108 | 332° | 13km/h | 23656m | 4.8m/s | 0°C | 0% | 0hPa | 0V | 00:00:00 | 00:00:00 | 00:00:00 | |
| EA3GEO | 2026-09-01 12:15:19 | 41.55456 | 2.79116 | 233° | 5km/h | 23629m | 6.3m/s | 0°C | 0% | 0hPa | 0V | 00:00:00 | 00:00:00 | 00:00:00 | |
| EA3GEO | 2026-09-01 12:15:11 | 41.55460 | 2.79134 | 250° | 13km/h | 23601m | 4.0m/s | 0°C | 0% | 0hPa | 0V | 00:00:00 | 00:00:00 | 00:00:00 | |
| EA3GEO | 2026-09-01 12:15:05 | 41.55456 | 2.79141 | 0° | 0km/h | 23567m | 4.1m/s | 0°C | 0% | 0hPa | 0V | 00:00:00 | 00:00:00 | 00:00:00 | |
| EA3GEO | 2026-09-01 12:14:59 | 41.55446 | 2.79159 | 333° | 16km/h | 23526m | 5.3m/s | 0°C | 0% | 0hPa | 0V | 00:00:00 | 00:00:00 | 00:00:00 | |
| EA3GEO | 2026-09-01 12:14:52 | 41.55441 | 2.79173 | 283° | 20km/h | 23492m | 5.8m/s | 0°C | 0% | 0hPa | 0V | 00:00:00 | 00:00:00 | 00:00:00 | |
| EA3GEO | 2026-09-01 12:14:46 | 41.55432 | 2.79199 | 299° | 15km/h | 23460m | 5.4m/s | 0°C | 0% | 0hPa | 0V | 00:00:00 | 00:00:00 | 00:00:00 | |
| EA3GEO | 2026-09-01 12:14:40 | 41.55437 | 2.79227 | 298° | 18km/h | 23426m | 6.2m/s | 0°C | 0% | 0hPa | 0V | 00:00:00 | 00:00:00 | 00:00:00 | |
| EA3GEO | 2026-09-01 12:14:34 | 41.55432 | 2.79258 | 255° | 16km/h | 23392m | 4.1m/s | 0°C | 0% | 0hPa | 0V | 00:00:00 | 00:00:00 | 00:00:00 | |
| EA3GEO | 2026-09-01 12:14:28 | 41.55440 | 2.79280 | 326° | 13km/h | 23360m | 3.8m/s | 0°C | 0% | 0hPa | 0V | 00:00:00 | 00:00:00 | 00:00:00 | |
| EA3GEO | 2026-09-01 12:14:21 | 41.55442 | 2.79298 | 335° | 9km/h | 23323m | 4.7m/s | 0°C | 0% | 0hPa | 0V | 00:00:00 | 00:00:00 | 00:00:00 | |
| EA3GEO | 2026-09-01 12:14:15 | 41.55441 | 2.79306 | 8° | 4km/h | 23291m | 4.9m/s | 0°C | 0% | 0hPa | 0V | 00:00:00 | 00:00:00 | 00:00:00 | |
| EA3GEO | 2026-09-01 12:14:09 | 41.55440 | 2.79306 | 336° | 5km/h | 23260m | 5.2m/s | 0°C | 0% | 0hPa | 0V | 00:00:00 | 00:00:00 | 00:00:00 | |
| EA3GEO | 2026-09-01 12:14:02 | 41.55441 | 2.79325 | 249° | 9km/h | 23224m | 6.2m/s | 0°C | 0% | 0hPa | 0V | 00:00:00 | 00:00:00 | 00:00:00 | |
| EA3GEO | 2026-09-01 12:13:57 | 41.55443 | 2.79336 | 309° | 9km/h | 23199m | 3.5m/s | 0°C | 0% | 0hPa | 0V | 00:00:00 | 00:00:00 | 00:00:00 | |
| EA3GEO | 2026-09-01 12:13:51 | 41.55449 | 2.79362 | 281° | 11km/h | 23168m | 4.3m/s | 0°C | 0% | 0hPa | 0V | 00:00:00 | 00:00:00 | 00:00:00 | |
| EA3GEO | 2026-09-01 12:13:46 | 41.55454 | 2.79378 | 265° | 11km/h | 23143m | 5.9m/s | 0°C | 0% | 0hPa | 0V | 00:00:00 | 00:00:00 | 00:00:00 | |
| EA3GEO | 2026-09-01 12:13:39 | 41.55465 | 2.79423 | 256° | 16km/h | 23108m | 4.3m/s | 0°C | 0% | 0hPa | 0V | 00:00:00 | 00:00:00 | 00:00:00 | |
| EA3GEO | 2026-09-01 12:13:34 | 41.55475 | 2.79435 | 249° | 11km/h | 23082m | 6.0m/s | 0°C | 0% | 0hPa | 0V | 00:00:00 | 00:00:00 | 00:00:00 | |
| EA3GEO | 2026-09-01 12:13:28 | 41.55489 | 2.79478 | 242° | 16km/h | 23046m | 5.6m/s | 0°C | 0% | 0hPa | 0V | 00:00:00 | 00:00:00 | 00:00:00 | |
| EA3GEO | 2026-09-01 12:13:22 | 41.55504 | 2.79508 | 233° | 24km/h | 23014m | 5.7m/s | 0°C | 0% | 0hPa | 0V | 00:00:00 | 00:00:00 | 00:00:00 | |
| EA3GEO | 2026-09-01 12:13:16 | 41.55519 | 2.79536 | 237° | 15km/h | 22988m | 6.6m/s | 0°C | 0% | 0hPa | 0V | 00:00:00 | 00:00:00 | 00:00:00 | |
| EA3GEO | 2026-09-01 12:13:11 | 41.55534 | 2.79572 | 228° | 20km/h | 22958m | 5.4m/s | 0°C | 0% | 0hPa | 0V | 00:00:00 | 00:00:00 | 00:00:00 | |
| EA3GEO | 2026-09-01 12:13:02 | 41.55550 | 2.79612 | 254° | 24km/h | 22917m | 5.4m/s | 0°C | 0% | 0hPa | 0V | 00:00:00 | 00:00:00 | 00:00:00 | |
| EA3GEO | 2026-09-01 12:12:56 | 41.55571 | 2.79642 | 244° | 11km/h | 22887m | 5.3m/s | 0°C | 0% | 0hPa | 0V | 00:00:00 | 00:00:00 | 00:00:00 | |
| EA3GEO | 2026-09-01 12:12:50 | 41.55587 | 2.79660 | 231° | 16km/h | 22858m | 5.1m/s | 0°C | 0% | 0hPa | 0V | 00:00:00 | 00:00:00 | 00:00:00 | |
| EA3GEO | 2026-09-01 12:12:46 | 41.55596 | 2.79663 | 160° | 9km/h | 22834m | 4.5m/s | 0°C | 0% | 0hPa | 0V | 00:00:00 | 00:00:00 | 00:00:00 | |
| EA3GEO | 2026-09-01 12:12:39 | 41.55612 | 2.79673 | 176° | 26km/h | 22804m | 4.2m/s | 0°C | 0% | 0hPa | 0V | 00:00:00 | 00:00:00 | 00:00:00 | |
| EA3GEO | 2026-09-01 12:12:33 | 41.55629 | 2.79676 | 166° | 7km/h | 22775m | 5.7m/s | 0°C | 0% | 0hPa | 0V | 00:00:00 | 00:00:00 | 00:00:00 | |
| EA3GEO | 2026-09-01 12:12:28 | 41.55643 | 2.79672 | 143° | 9km/h | 22750m | 5.6m/s | 0°C | 0% | 0hPa | 0V | 00:00:00 | 00:00:00 | 00:00:00 | |
| EA3GEO | 2026-09-01 12:12:23 | 41.55648 | 2.79662 | 220° | 9km/h | 22723m | 3.7m/s | 0°C | 0% | 0hPa | 0V | 00:00:00 | 00:00:00 | 00:00:00 | |
| EA3GEO | 2026-09-01 12:12:17 | 41.55665 | 2.79657 | 256° | 4km/h | 22693m | 5.0m/s | 0°C | 0% | 0hPa | 0V | 00:00:00 | 00:00:00 | 00:00:00 | |
| EA3GEO | 2026-09-01 12:12:10 | 41.55668 | 2.79654 | 189° | 7km/h | 22657m | 3.9m/s | 0°C | 0% | 0hPa | 0V | 00:00:00 | 00:00:00 | 00:00:00 | |
| EA3GEO | 2026-09-01 12:12:04 | 41.55660 | 2.79646 | 20° | 11km/h | 22623m | 6.5m/s | 0°C | 0% | 0hPa | 0V | 00:00:00 | 00:00:00 | 00:00:00 | |
| EA3GEO | 2026-09-01 12:11:59 | 41.55657 | 2.79641 | 126° | 7km/h | 22596m | 6.6m/s | 0°C | 0% | 0hPa | 0V | 00:00:00 | 00:00:00 | 00:00:00 | |
| EA3GEO | 2026-09-01 12:11:54 | 41.55651 | 2.79640 | 351° | 9km/h | 22564m | 5.8m/s | 0°C | 0% | 0hPa | 0V | 00:00:00 | 00:00:00 | 00:00:00 | |
| EA3GEO | 2026-09-01 12:11:47 | 41.55649 | 2.79647 | 169° | 4km/h | 22533m | 6.2m/s | 0°C | 0% | 0hPa | 0V | 00:00:00 | 00:00:00 | 00:00:00 | |
| EA3GEO | 2026-09-01 12:11:39 | 41.55634 | 2.79663 | 16° | 2km/h | 22493m | 5.3m/s | 0°C | 0% | 0hPa | 0V | 00:00:00 | 00:00:00 | 00:00:00 | |
| EA3GEO | 2026-09-01 12:11:34 | 41.55647 | 2.79669 | 199° | 9km/h | 22468m | 5.8m/s | 0°C | 0% | 0hPa | 0V | 00:00:00 | 00:00:00 | 00:00:00 | |
| EA3GEO | 2026-09-01 12:11:29 | 41.55632 | 2.79676 | 333° | 20km/h | 22440m | 4.3m/s | 0°C | 0% | 0hPa | 0V | 00:00:00 | 00:00:00 | 00:00:00 | |
| EA3GEO | 2026-09-01 12:11:23 | 41.55632 | 2.79686 | 270° | 11km/h | 22408m | 4.0m/s | 0°C | 0% | 0hPa | 0V | 00:00:00 | 00:00:00 | 00:00:00 | |
| EA3GEO | 2026-09-01 12:11:18 | 41.55616 | 2.79694 | 327° | 16km/h | 22382m | 5.4m/s | 0°C | 0% | 0hPa | 0V | 00:00:00 | 00:00:00 | 00:00:00 | |
| EA3GEO | 2026-09-01 12:11:14 | 41.55615 | 2.79706 | 176° | 7km/h | 22355m | 4.5m/s | 0°C | 0% | 0hPa | 0V | 00:00:00 | 00:00:00 | 00:00:00 | |
| EA3GEO | 2026-09-01 12:11:07 | 41.55614 | 2.79717 | 16° | 9km/h | 22323m | 4.0m/s | 0°C | 0% | 0hPa | 0V | 00:00:00 | 00:00:00 | 00:00:00 | |
| EA3GEO | 2026-09-01 12:11:02 | 41.55617 | 2.79723 | 262° | 4km/h | 22296m | 6.4m/s | 0°C | 0% | 0hPa | 0V | 00:00:00 | 00:00:00 | 00:00:00 | |
| EA3GEO | 2026-09-01 12:10:58 | 41.55612 | 2.79741 | 241° | 9km/h | 22263m | 7.2m/s | 0°C | 0% | 0hPa | 0V | 00:00:00 | 00:00:00 | 00:00:00 | |
| EA3GEO | 2026-09-01 12:10:51 | 41.55610 | 2.79753 | 317° | 16km/h | 22235m | 5.3m/s | 0°C | 0% | 0hPa | 0V | 00:00:00 | 00:00:00 | 00:00:00 | |
| EA3GEO | 2026-09-01 12:10:45 | 41.55599 | 2.79771 | 284° | 16km/h | 22202m | 3.4m/s | 0°C | 0% | 0hPa | 0V | 00:00:00 | 00:00:00 | 00:00:00 | |
| EA3GEO | 2026-09-01 12:10:39 | 41.55579 | 2.79792 | 341° | 22km/h | 22169m | 5.9m/s | 0°C | 0% | 0hPa | 0V | 00:00:00 | 00:00:00 | 00:00:00 | |
| EA3GEO | 2026-09-01 12:10:33 | 41.55561 | 2.79812 | 315° | 15km/h | 22136m | 6.5m/s | 0°C | 0% | 0hPa | 0V | 00:00:00 | 00:00:00 | 00:00:00 | |
| EA3GEO | 2026-09-01 12:10:27 | 41.55534 | 2.79831 | 326° | 15km/h | 22103m | 6.8m/s | 0°C | 0% | 0hPa | 0V | 00:00:00 | 00:00:00 | 00:00:00 | |
| EA3GEO | 2026-09-01 12:10:22 | 41.55522 | 2.79848 | 329° | 18km/h | 22076m | 6.4m/s | 0°C | 0% | 0hPa | 0V | 00:00:00 | 00:00:00 | 00:00:00 | |
| EA3GEO | 2026-09-01 12:10:16 | 41.55503 | 2.79864 | 294° | 11km/h | 22043m | 4.7m/s | 0°C | 0% | 0hPa | 0V | 00:00:00 | 00:00:00 | 00:00:00 | |
| EA3GEO | 2026-09-01 12:10:11 | 41.55505 | 2.79881 | 312° | 11km/h | 22011m | 6.2m/s | 0°C | 0% | 0hPa | 0V | 00:00:00 | 00:00:00 | 00:00:00 | |
| EA3GEO | 2026-09-01 12:10:04 | 41.55491 | 2.79884 | 151° | 2km/h | 21977m | 6.3m/s | 0°C | 0% | 0hPa | 0V | 00:00:00 | 00:00:00 | 00:00:00 | |
| EA3GEO | 2026-09-01 12:09:57 | 41.55488 | 2.79886 | 27° | 22km/h | 21939m | 3.9m/s | 0°C | 0% | 0hPa | 0V | 00:00:00 | 00:00:00 | 00:00:00 | |
| EA3GEO | 2026-09-01 12:09:51 | 41.55478 | 2.79892 | 148° | 5km/h | 21908m | 4.8m/s | 0°C | 0% | 0hPa | 0V | 00:00:00 | 00:00:00 | 00:00:00 | |
| EA3GEO | 2026-09-01 12:09:45 | 41.55458 | 2.79890 | 353° | 15km/h | 21876m | 3.9m/s | 0°C | 0% | 0hPa | 0V | 00:00:00 | 00:00:00 | 00:00:00 | |
| EA3GEO | 2026-09-01 12:09:39 | 41.55454 | 2.79901 | 54° | 18km/h | 21847m | 5.0m/s | 0°C | 0% | 0hPa | 0V | 00:00:00 | 00:00:00 | 00:00:00 | |
| EA3GEO | 2026-09-01 12:09:32 | 41.55405 | 2.79902 | 314° | 9km/h | 21811m | 5.0m/s | 0°C | 0% | 0hPa | 0V | 00:00:00 | 00:00:00 | 00:00:00 | |
| EA3GEO | 2026-09-01 12:09:27 | 41.55397 | 2.79906 | 29° | 24km/h | 21786m | 6.6m/s | 0°C | 0% | 0hPa | 0V | 00:00:00 | 00:00:00 | 00:00:00 | |
| EA3GEO | 2026-09-01 12:09:19 | 41.55342 | 2.79913 | 333° | 7km/h | 21743m | 5.7m/s | 0°C | 0% | 0hPa | 0V | 00:00:00 | 00:00:00 | 00:00:00 | |
| EA3GEO | 2026-09-01 12:09:14 | 41.55319 | 2.79903 | 27° | 27km/h | 21718m | 3.4m/s | 0°C | 0% | 0hPa | 0V | 00:00:00 | 00:00:00 | 00:00:00 | |
| EA3GEO | 2026-09-01 12:09:09 | 41.55297 | 2.79923 | 293° | 18km/h | 21692m | 5.1m/s | 0°C | 0% | 0hPa | 0V | 00:00:00 | 00:00:00 | 00:00:00 | |
| EA3GEO | 2026-09-01 12:09:04 | 41.55274 | 2.79918 | 7° | 31km/h | 21667m | 4.2m/s | 0°C | 0% | 0hPa | 0V | 00:00:00 | 00:00:00 | 00:00:00 | |
| EA3GEO | 2026-09-01 12:08:58 | 41.55252 | 2.79931 | 309° | 18km/h | 21638m | 3.3m/s | 0°C | 0% | 0hPa | 0V | 00:00:00 | 00:00:00 | 00:00:00 | |
| EA3GEO | 2026-09-01 12:08:52 | 41.55227 | 2.79928 | 347° | 22km/h | 21609m | 4.8m/s | 0°C | 0% | 0hPa | 0V | 00:00:00 | 00:00:00 | 00:00:00 | |
| EA3GEO | 2026-09-01 12:08:46 | 41.55209 | 2.79941 | 336° | 13km/h | 21580m | 6.0m/s | 0°C | 0% | 0hPa | 0V | 00:00:00 | 00:00:00 | 00:00:00 | |
| EA3GEO | 2026-09-01 12:08:35 | 41.55167 | 2.79963 | 343° | 11km/h | 21525m | 5.4m/s | 0°C | 0% | 0hPa | 0V | 00:00:00 | 00:00:00 | 00:00:00 | |
| EA3GEO | 2026-09-01 12:08:26 | 41.55138 | 2.79987 | 346° | 9km/h | 21480m | 5.0m/s | 0°C | 0% | 0hPa | 0V | 00:00:00 | 00:00:00 | 00:00:00 | |
| EA3GEO | 2026-09-01 12:08:21 | 41.55121 | 2.80007 | 329° | 18km/h | 21450m | 5.8m/s | 0°C | 0% | 0hPa | 0V | 00:00:00 | 00:00:00 | 00:00:00 | |
| EA3GEO | 2026-09-01 12:08:12 | 41.55104 | 2.80037 | 289° | 16km/h | 21405m | 4.6m/s | 0°C | 0% | 0hPa | 0V | 00:00:00 | 00:00:00 | 00:00:00 | |
| EA3GEO | 2026-09-01 12:08:04 | 41.55086 | 2.80069 | 336° | 11km/h | 21369m | 4.2m/s | 0°C | 0% | 0hPa | 0V | 00:00:00 | 00:00:00 | 00:00:00 | |
| EA3GEO | 2026-09-01 12:07:51 | 41.55038 | 2.80116 | 327° | 15km/h | 21301m | 3.5m/s | 0°C | 0% | 0hPa | 0V | 00:00:00 | 00:00:00 | 00:00:00 | |
| EA3GEO | 2026-09-01 12:07:44 | 41.55008 | 2.80123 | 352° | 22km/h | 21271m | 4.8m/s | 0°C | 0% | 0hPa | 0V | 00:00:00 | 00:00:00 | 00:00:00 | |
| EA3GEO | 2026-09-01 12:07:31 | 41.54975 | 2.80146 | 0° | 0km/h | 21206m | 5.0m/s | 0°C | 0% | 0hPa | 0V | 00:00:00 | 00:00:00 | 00:00:00 | |
| EA3GEO | 2026-09-01 12:07:24 | 41.54971 | 2.80165 | 285° | 7km/h | 21170m | 6.2m/s | 0°C | 0% | 0hPa | 0V | 00:00:00 | 00:00:00 | 00:00:00 | |
| EA3GEO | 2026-09-01 12:07:12 | 41.54979 | 2.80171 | 186° | 4km/h | 21105m | 6.0m/s | 0°C | 0% | 0hPa | 0V | 00:00:00 | 00:00:00 | 00:00:00 | |
| EA3GEO | 2026-09-01 12:07:05 | 41.54988 | 2.80156 | 119° | 9km/h | 21070m | 4.0m/s | 0°C | 0% | 0hPa | 0V | 00:00:00 | 00:00:00 | 00:00:00 | |
| EA3GEO | 2026-09-01 12:06:59 | 41.54990 | 2.80141 | 106° | 18km/h | 21044m | 4.6m/s | 0°C | 0% | 0hPa | 0V | 00:00:00 | 00:00:00 | 00:00:00 | |
| EA3GEO | 2026-09-01 12:06:39 | 41.54987 | 2.80084 | 77° | 4km/h | 20948m | 4.1m/s | 0°C | 0% | 0hPa | 0V | 00:00:00 | 00:00:00 | 00:00:00 | |
| EA3GEO | 2026-09-01 12:06:31 | 41.54979 | 2.80073 | 271° | 11km/h | 20908m | 4.2m/s | 0°C | 0% | 0hPa | 0V | 00:00:00 | 00:00:00 | 00:00:00 | |
| EA3GEO | 2026-09-01 12:06:25 | 41.54980 | 2.80077 | 38° | 5km/h | 20879m | 4.8m/s | 0°C | 0% | 0hPa | 0V | 00:00:00 | 00:00:00 | 00:00:00 | |
| EA3GEO | 2026-09-01 12:06:18 | 41.54976 | 2.80096 | 235° | 9km/h | 20843m | 5.1m/s | 0°C | 0% | 0hPa | 0V | 00:00:00 | 00:00:00 | 00:00:00 | |
| EA3GEO | 2026-09-01 12:06:14 | 41.54977 | 2.80095 | 44° | 4km/h | 20818m | 6.5m/s | 0°C | 0% | 0hPa | 0V | 00:00:00 | 00:00:00 | 00:00:00 | |
| EA3GEO | 2026-09-01 12:06:07 | 41.54988 | 2.80103 | 192° | 13km/h | 20789m | 3.8m/s | 0°C | 0% | 0hPa | 0V | 00:00:00 | 00:00:00 | 00:00:00 | |
| EA3GEO | 2026-09-01 12:06:01 | 41.54987 | 2.80091 | 106° | 9km/h | 20760m | 4.9m/s | 0°C | 0% | 0hPa | 0V | 00:00:00 | 00:00:00 | 00:00:00 | |
| EA3GEO | 2026-09-01 12:05:56 | 41.54993 | 2.80082 | 138° | 11km/h | 20736m | 3.5m/s | 0°C | 0% | 0hPa | 0V | 00:00:00 | 00:00:00 | 00:00:00 | |
| EA3GEO | 2026-09-01 12:05:46 | 41.55003 | 2.80042 | 121° | 18km/h | 20684m | 3.2m/s | 0°C | 0% | 0hPa | 0V | 00:00:00 | 00:00:00 | 00:00:00 | |
| EA3GEO | 2026-09-01 12:05:41 | 41.55010 | 2.80020 | 102° | 22km/h | 20659m | 3.8m/s | 0°C | 0% | 0hPa | 0V | 00:00:00 | 00:00:00 | 00:00:00 | |
| EA3GEO | 2026-09-01 12:05:35 | 41.55014 | 2.79979 | 98° | 26km/h | 20630m | 3.3m/s | 0°C | 0% | 0hPa | 0V | 00:00:00 | 00:00:00 | 00:00:00 | |
| EA3GEO | 2026-09-01 12:05:31 | 41.55014 | 2.79953 | 101° | 22km/h | 20607m | 5.9m/s | 0°C | 0% | 0hPa | 0V | 00:00:00 | 00:00:00 | 00:00:00 | |
| EA3GEO | 2026-09-01 12:05:24 | 41.55028 | 2.79902 | 87° | 18km/h | 20578m | 5.7m/s | 0°C | 0% | 0hPa | 0V | 00:00:00 | 00:00:00 | 00:00:00 | |
| EA3GEO | 2026-09-01 12:05:18 | 41.55027 | 2.79877 | 110° | 18km/h | 20548m | 5.6m/s | 0°C | 0% | 0hPa | 0V | 00:00:00 | 00:00:00 | 00:00:00 | |
| EA3GEO | 2026-09-01 12:05:13 | 41.55032 | 2.79852 | 118° | 7km/h | 20525m | 5.1m/s | 0°C | 0% | 0hPa | 0V | 00:00:00 | 00:00:00 | 00:00:00 | |
| EA3GEO | 2026-09-01 12:04:23 | 41.55044 | 2.79773 | 96° | 7km/h | 20278m | 5.4m/s | 0°C | 0% | 0hPa | 0V | 00:00:00 | 00:00:00 | 00:00:00 | |
| EA3GEO | 2026-09-01 12:04:16 | 41.55050 | 2.79749 | 92° | 15km/h | 20245m | 5.8m/s | 0°C | 0% | 0hPa | 0V | 00:00:00 | 00:00:00 | 00:00:00 | |
| EA3GEO | 2026-09-01 12:04:10 | 41.55055 | 2.79728 | 119° | 11km/h | 20216m | 5.8m/s | 0°C | 0% | 0hPa | 0V | 00:00:00 | 00:00:00 | 00:00:00 | |
| EA3GEO | 2026-09-01 12:03:59 | 41.55056 | 2.79692 | 73° | 18km/h | 20165m | 4.0m/s | 0°C | 0% | 0hPa | 0V | 00:00:00 | 00:00:00 | 00:00:00 | |
| EA3GEO | 2026-09-01 12:03:51 | 41.55053 | 2.79655 | 91° | 20km/h | 20127m | 4.2m/s | 0°C | 0% | 0hPa | 0V | 00:00:00 | 00:00:00 | 00:00:00 | |
| EA3GEO | 2026-09-01 12:03:44 | 41.55039 | 2.79623 | 86° | 13km/h | 20094m | 5.8m/s | 0°C | 0% | 0hPa | 0V | 00:00:00 | 00:00:00 | 00:00:00 | |
| EA3GEO | 2026-09-01 12:03:37 | 41.55030 | 2.79596 | 32° | 13km/h | 20057m | 3.8m/s | 0°C | 0% | 0hPa | 0V | 00:00:00 | 00:00:00 | 00:00:00 | |
| EA3GEO | 2026-09-01 12:03:30 | 41.55031 | 2.79580 | 125° | 7km/h | 20022m | 5.5m/s | 0°C | 0% | 0hPa | 0V | 00:00:00 | 00:00:00 | 00:00:00 | |
| EA3GEO | 2026-09-01 12:03:24 | 41.55030 | 2.79574 | 149° | 7km/h | 19992m | 4.6m/s | 0°C | 0% | 0hPa | 0V | 00:00:00 | 00:00:00 | 00:00:00 | |
| EA3GEO | 2026-09-01 12:03:18 | 41.55027 | 2.79571 | 270° | 5km/h | 19963m | 4.9m/s | 0°C | 0% | 0hPa | 0V | 00:00:00 | 00:00:00 | 00:00:00 | |
| EA3GEO | 2026-09-01 12:03:12 | 41.55023 | 2.79569 | 49° | 2km/h | 19934m | 3.7m/s | 0°C | 0% | 0hPa | 0V | 00:00:00 | 00:00:00 | 00:00:00 | |
| EA3GEO | 2026-09-01 12:03:06 | 41.55016 | 2.79583 | 237° | 13km/h | 19905m | 5.4m/s | 0°C | 0% | 0hPa | 0V | 00:00:00 | 00:00:00 | 00:00:00 | |
| EA3GEO | 2026-09-01 12:03:00 | 41.55026 | 2.79588 | 279° | 5km/h | 19874m | 7.0m/s | 0°C | 0% | 0hPa | 0V | 00:00:00 | 00:00:00 | 00:00:00 | |
| EA3GEO | 2026-09-01 12:02:54 | 41.55036 | 2.79603 | 150° | 15km/h | 19842m | 4.9m/s | 0°C | 0% | 0hPa | 0V | 00:00:00 | 00:00:00 | 00:00:00 | |
| EA3GEO | 2026-09-01 12:02:49 | 41.55051 | 2.79601 | 230° | 9km/h | 19818m | 5.7m/s | 0°C | 0% | 0hPa | 0V | 00:00:00 | 00:00:00 | 00:00:00 | |
| EA3GEO | 2026-09-01 12:02:43 | 41.55074 | 2.79594 | 121° | 11km/h | 19784m | 4.2m/s | 0°C | 0% | 0hPa | 0V | 00:00:00 | 00:00:00 | 00:00:00 | |
| EA3GEO | 2026-09-01 12:02:36 | 41.55083 | 2.79585 | 147° | 13km/h | 19755m | 4.8m/s | 0°C | 0% | 0hPa | 0V | 00:00:00 | 00:00:00 | 00:00:00 | |
| EA3GEO | 2026-09-01 12:02:30 | 41.55102 | 2.79569 | 158° | 9km/h | 19726m | 5.8m/s | 0°C | 0% | 0hPa | 0V | 00:00:00 | 00:00:00 | 00:00:00 | |
| EA3GEO | 2026-09-01 12:02:25 | 41.55106 | 2.79562 | 102° | 9km/h | 19701m | 5.9m/s | 0°C | 0% | 0hPa | 0V | 00:00:00 | 00:00:00 | 00:00:00 | |
| EA3GEO | 2026-09-01 12:02:19 | 41.55117 | 2.79542 | 152° | 4km/h | 19669m | 6.0m/s | 0°C | 0% | 0hPa | 0V | 00:00:00 | 00:00:00 | 00:00:00 | |
| EA3GEO | 2026-09-01 12:02:14 | 41.55121 | 2.79532 | 117° | 22km/h | 19646m | 4.6m/s | 0°C | 0% | 0hPa | 0V | 00:00:00 | 00:00:00 | 00:00:00 | |
| EA3GEO | 2026-09-01 12:02:08 | 41.55124 | 2.79513 | 77° | 4km/h | 19611m | 5.8m/s | 0°C | 0% | 0hPa | 0V | 00:00:00 | 00:00:00 | 00:00:00 | |
| EA3GEO | 2026-09-01 12:02:02 | 41.55123 | 2.79491 | 90° | 18km/h | 19588m | 5.1m/s | 0°C | 0% | 0hPa | 0V | 00:00:00 | 00:00:00 | 00:00:00 | |
| EA3GEO | 2026-09-01 12:01:57 | 41.55113 | 2.79476 | 10° | 13km/h | 19562m | 6.1m/s | 0°C | 0% | 0hPa | 0V | 00:00:00 | 00:00:00 | 00:00:00 | |
| EA3GEO | 2026-09-01 12:01:51 | 41.55091 | 2.79463 | 61° | 13km/h | 19533m | 6.0m/s | 0°C | 0% | 0hPa | 0V | 00:00:00 | 00:00:00 | 00:00:00 | |
| EA3GEO | 2026-09-01 12:01:44 | 41.55080 | 2.79456 | 12° | 9km/h | 19499m | 5.5m/s | 0°C | 0% | 0hPa | 0V | 00:00:00 | 00:00:00 | 00:00:00 | |
| EA3GEO | 2026-09-01 12:01:39 | 41.55075 | 2.79450 | 0° | 0km/h | 19473m | 6.6m/s | 0°C | 0% | 0hPa | 0V | 00:00:00 | 00:00:00 | 00:00:00 | |
| EA3GEO | 2026-09-01 12:01:33 | 41.55075 | 2.79450 | 172° | 4km/h | 19442m | 4.4m/s | 0°C | 0% | 0hPa | 0V | 00:00:00 | 00:00:00 | 00:00:00 | |
| EA3GEO | 2026-09-01 12:01:27 | 41.55074 | 2.79442 | 232° | 9km/h | 19412m | 3.8m/s | 0°C | 0% | 0hPa | 0V | 00:00:00 | 00:00:00 | 00:00:00 | |
| EA3GEO | 2026-09-01 12:01:21 | 41.55083 | 2.79441 | 117° | 7km/h | 19384m | 5.1m/s | 0°C | 0% | 0hPa | 0V | 00:00:00 | 00:00:00 | 00:00:00 | |
| EA3GEO | 2026-09-01 12:01:15 | 41.55084 | 2.79444 | 197° | 7km/h | 19355m | 4.7m/s | 0°C | 0% | 0hPa | 0V | 00:00:00 | 00:00:00 | 00:00:00 | |
| EA3GEO | 2026-09-01 12:01:10 | 41.55099 | 2.79440 | 116° | 5km/h | 19330m | 5.6m/s | 0°C | 0% | 0hPa | 0V | 00:00:00 | 00:00:00 | 00:00:00 | |
| EA3GEO | 2026-09-01 12:01:05 | 41.55100 | 2.79444 | 209° | 5km/h | 19306m | 5.1m/s | 0°C | 0% | 0hPa | 0V | 00:00:00 | 00:00:00 | 00:00:00 | |
| EA3GEO | 2026-09-01 12:01:00 | 41.55120 | 2.79432 | 126° | 18km/h | 19280m | 4.2m/s | 0°C | 0% | 0hPa | 0V | 00:00:00 | 00:00:00 | 00:00:00 | |
| EA3GEO | 2026-09-01 12:00:54 | 41.55133 | 2.79419 | 140° | 18km/h | 19251m | 3.7m/s | 0°C | 0% | 0hPa | 0V | 00:00:00 | 00:00:00 | 00:00:00 | |
| EA3GEO | 2026-09-01 12:00:48 | 41.55158 | 2.79387 | 134° | 18km/h | 19223m | 5.0m/s | 0°C | 0% | 0hPa | 0V | 00:00:00 | 00:00:00 | 00:00:00 | |
| EA3GEO | 2026-09-01 12:00:43 | 41.55180 | 2.79361 | 119° | 27km/h | 19199m | 4.2m/s | 0°C | 0% | 0hPa | 0V | 00:00:00 | 00:00:00 | 00:00:00 | |
| EA3GEO | 2026-09-01 12:00:36 | 41.55208 | 2.79296 | 124° | 24km/h | 19159m | 4.6m/s | 0°C | 0% | 0hPa | 0V | 00:00:00 | 00:00:00 | 00:00:00 | |
| EA3GEO | 2026-09-01 12:00:27 | 41.55230 | 2.79222 | 116° | 31km/h | 19116m | 4.6m/s | 0°C | 0% | 0hPa | 0V | 00:00:00 | 00:00:00 | 00:00:00 | |
| EA3GEO | 2026-09-01 12:00:19 | 41.55240 | 2.79161 | 118° | 24km/h | 19084m | 5.8m/s | 0°C | 0% | 0hPa | 0V | 00:00:00 | 00:00:00 | 00:00:00 | |
| EA3GEO | 2026-09-01 12:00:12 | 41.55250 | 2.79096 | 85° | 31km/h | 19050m | 3.7m/s | 0°C | 0% | 0hPa | 0V | 00:00:00 | 00:00:00 | 00:00:00 | |
| EA3GEO | 2026-09-01 12:00:07 | 41.55251 | 2.79042 | 87° | 31km/h | 19027m | 5.4m/s | 0°C | 0% | 0hPa | 0V | 00:00:00 | 00:00:00 | 00:00:00 | |
| EA3GEO | 2026-09-01 11:59:55 | 41.55227 | 2.78916 | 76° | 40km/h | 18968m | 3.7m/s | 0°C | 0% | 0hPa | 0V | 00:00:00 | 00:00:00 | 00:00:00 | |
| EA3GEO | 2026-09-01 11:59:41 | 41.55157 | 2.78766 | 47° | 42km/h | 18899m | 5.4m/s | 0°C | 0% | 0hPa | 0V | 00:00:00 | 00:00:00 | 00:00:00 | |
| EA3GEO | 2026-09-01 11:59:35 | 41.55114 | 2.78699 | 53° | 35km/h | 18870m | 5.1m/s | 0°C | 0% | 0hPa | 0V | 00:00:00 | 00:00:00 | 00:00:00 | |
| EA3GEO | 2026-09-01 11:59:30 | 41.55074 | 2.78636 | 48° | 44km/h | 18842m | 5.6m/s | 0°C | 0% | 0hPa | 0V | 00:00:00 | 00:00:00 | 00:00:00 | |
| EA3GEO | 2026-09-01 11:59:23 | 41.55026 | 2.78574 | 44° | 44km/h | 18812m | 5.5m/s | 0°C | 0% | 0hPa | 0V | 00:00:00 | 00:00:00 | 00:00:00 | |
| EA3GEO | 2026-09-01 11:59:17 | 41.54976 | 2.78520 | 31° | 47km/h | 18783m | 4.4m/s | 0°C | 0% | 0hPa | 0V | 00:00:00 | 00:00:00 | 00:00:00 | |
| EA3GEO | 2026-09-01 11:59:12 | 41.54933 | 2.78478 | 33° | 31km/h | 18759m | 4.9m/s | 0°C | 0% | 0hPa | 0V | 00:00:00 | 00:00:00 | 00:00:00 | |
| EA3GEO | 2026-09-01 11:59:07 | 41.54895 | 2.78443 | 28° | 44km/h | 18737m | 5.9m/s | 0°C | 0% | 0hPa | 0V | 00:00:00 | 00:00:00 | 00:00:00 | |
| EA3GEO | 2026-09-01 11:59:01 | 41.54844 | 2.78400 | 47° | 26km/h | 18709m | 6.1m/s | 0°C | 0% | 0hPa | 0V | 00:00:00 | 00:00:00 | 00:00:00 | |
| EA3GEO | 2026-09-01 11:58:56 | 41.54814 | 2.78377 | 24° | 37km/h | 18685m | 4.7m/s | 0°C | 0% | 0hPa | 0V | 00:00:00 | 00:00:00 | 00:00:00 | |
| EA3GEO | 2026-09-01 11:58:40 | 41.54714 | 2.78324 | 16° | 15km/h | 18611m | 5.9m/s | 0°C | 0% | 0hPa | 0V | 00:00:00 | 00:00:00 | 00:00:00 | |
| EA3GEO | 2026-09-01 11:58:35 | 41.54691 | 2.78323 | 10° | 24km/h | 18586m | 6.2m/s | 0°C | 0% | 0hPa | 0V | 00:00:00 | 00:00:00 | 00:00:00 | |
| EA3GEO | 2026-09-01 11:58:29 | 41.54657 | 2.78320 | 349° | 13km/h | 18557m | 5.5m/s | 0°C | 0% | 0hPa | 0V | 00:00:00 | 00:00:00 | 00:00:00 | |
| EA3GEO | 2026-09-01 11:58:24 | 41.54636 | 2.78320 | 2° | 27km/h | 18534m | 3.7m/s | 0°C | 0% | 0hPa | 0V | 00:00:00 | 00:00:00 | 00:00:00 | |
| EA3GEO | 2026-09-01 11:58:18 | 41.54607 | 2.78316 | 359° | 16km/h | 18507m | 5.7m/s | 0°C | 0% | 0hPa | 0V | 00:00:00 | 00:00:00 | 00:00:00 | |
| EA3GEO | 2026-09-01 11:58:10 | 41.54579 | 2.78306 | 25° | 16km/h | 18469m | 5.5m/s | 0°C | 0% | 0hPa | 0V | 00:00:00 | 00:00:00 | 00:00:00 | |
| EA3GEO | 2026-09-01 11:57:53 | 41.54564 | 2.78288 | 94° | 5km/h | 18386m | 6.6m/s | 0°C | 0% | 0hPa | 0V | 00:00:00 | 00:00:00 | 00:00:00 | |
| EA3GEO | 2026-09-01 11:57:47 | 41.54567 | 2.78287 | 172° | 7km/h | 18358m | 5.0m/s | 0°C | 0% | 0hPa | 0V | 00:00:00 | 00:00:00 | 00:00:00 | |
| EA3GEO | 2026-09-01 11:57:37 | 41.54582 | 2.78286 | 171° | 7km/h | 18313m | 3.8m/s | 0°C | 0% | 0hPa | 0V | 00:00:00 | 00:00:00 | 00:00:00 | |
| EA3GEO | 2026-09-01 11:57:17 | 41.54616 | 2.78273 | 175° | 11km/h | 18219m | 5.1m/s | 0°C | 0% | 0hPa | 0V | 00:00:00 | 00:00:00 | 00:00:00 | |
| EA3GEO | 2026-09-01 11:57:09 | 41.54627 | 2.78281 | 130° | 7km/h | 18183m | 4.3m/s | 0°C | 0% | 0hPa | 0V | 00:00:00 | 00:00:00 | 00:00:00 | |
| EA3GEO | 2026-09-01 11:57:03 | 41.54625 | 2.78273 | 134° | 2km/h | 18155m | 3.3m/s | 0°C | 0% | 0hPa | 0V | 00:00:00 | 00:00:00 | 00:00:00 | |
| EA3GEO | 2026-09-01 11:56:48 | 41.54634 | 2.78256 | 163° | 7km/h | 18083m | 4.4m/s | 0°C | 0% | 0hPa | 0V | 00:00:00 | 00:00:00 | 00:00:00 | |
| EA3GEO | 2026-09-01 11:56:21 | 41.54601 | 2.78185 | 35° | 15km/h | 17956m | 5.8m/s | 0°C | 0% | 0hPa | 0V | 00:00:00 | 00:00:00 | 00:00:00 | |
| EA3GEO | 2026-09-01 11:56:10 | 41.54583 | 2.78161 | 35° | 5km/h | 17904m | 3.7m/s | 0°C | 0% | 0hPa | 0V | 00:00:00 | 00:00:00 | 00:00:00 | |
| EA3GEO | 2026-09-01 11:56:06 | 41.54584 | 2.78141 | 104° | 18km/h | 17878m | 5.3m/s | 0°C | 0% | 0hPa | 0V | 00:00:00 | 00:00:00 | 00:00:00 | |
| EA3GEO | 2026-09-01 11:56:00 | 41.54585 | 2.78114 | 132° | 4km/h | 17854m | 4.0m/s | 0°C | 0% | 0hPa | 0V | 00:00:00 | 00:00:00 | 00:00:00 | |
| EA3GEO | 2026-09-01 11:55:54 | 41.54584 | 2.78095 | 74° | 5km/h | 17826m | 5.7m/s | 0°C | 0% | 0hPa | 0V | 00:00:00 | 00:00:00 | 00:00:00 | |
| EA3GEO | 2026-09-01 11:55:49 | 41.54579 | 2.78077 | 95° | 15km/h | 17800m | 5.9m/s | 0°C | 0% | 0hPa | 0V | 00:00:00 | 00:00:00 | 00:00:00 | |
| EA3GEO | 2026-09-01 11:55:45 | 41.54584 | 2.78049 | 121° | 15km/h | 17777m | 6.8m/s | 0°C | 0% | 0hPa | 0V | 00:00:00 | 00:00:00 | 00:00:00 | |
| EA3GEO | 2026-09-01 11:55:35 | 41.54585 | 2.78009 | 89° | 13km/h | 17731m | 4.2m/s | 0°C | 0% | 0hPa | 0V | 00:00:00 | 00:00:00 | 00:00:00 | |
| EA3GEO | 2026-09-01 11:55:29 | 41.54588 | 2.77985 | 102° | 16km/h | 17701m | 6.4m/s | 0°C | 0% | 0hPa | 0V | 00:00:00 | 00:00:00 | 00:00:00 | |
| EA3GEO | 2026-09-01 11:55:22 | 41.54593 | 2.77965 | 125° | 15km/h | 17667m | 4.4m/s | 0°C | 0% | 0hPa | 0V | 00:00:00 | 00:00:00 | 00:00:00 | |
| EA3GEO | 2026-09-01 11:55:15 | 41.54602 | 2.77929 | 84° | 15km/h | 17632m | 3.9m/s | 0°C | 0% | 0hPa | 0V | 00:00:00 | 00:00:00 | 00:00:00 | |
| EA3GEO | 2026-09-01 11:55:08 | 41.54607 | 2.77890 | 107° | 13km/h | 17598m | 5.4m/s | 0°C | 0% | 0hPa | 0V | 00:00:00 | 00:00:00 | 00:00:00 | |
| EA3GEO | 2026-09-01 11:55:02 | 41.54600 | 2.77865 | 92° | 13km/h | 17570m | 4.4m/s | 0°C | 0% | 0hPa | 0V | 00:00:00 | 00:00:00 | 00:00:00 | |
| EA3GEO | 2026-09-01 11:54:56 | 41.54599 | 2.77834 | 86° | 15km/h | 17541m | 5.2m/s | 0°C | 0% | 0hPa | 0V | 00:00:00 | 00:00:00 | 00:00:00 | |
| EA3GEO | 2026-09-01 11:54:49 | 41.54586 | 2.77804 | 50° | 15km/h | 17507m | 4.8m/s | 0°C | 0% | 0hPa | 0V | 00:00:00 | 00:00:00 | 00:00:00 | |
| EA3GEO | 2026-09-01 11:54:44 | 41.54576 | 2.77783 | 61° | 18km/h | 17484m | 5.1m/s | 0°C | 0% | 0hPa | 0V | 00:00:00 | 00:00:00 | 00:00:00 | |
| EA3GEO | 2026-09-01 11:54:38 | 41.54577 | 2.77753 | 76° | 24km/h | 17454m | 5.6m/s | 0°C | 0% | 0hPa | 0V | 00:00:00 | 00:00:00 | 00:00:00 | |
| EA3GEO | 2026-09-01 11:54:18 | 41.54588 | 2.77640 | 110° | 24km/h | 17357m | 5.6m/s | 0°C | 0% | 0hPa | 0V | 00:00:00 | 00:00:00 | 00:00:00 | |
| EA3GEO | 2026-09-01 11:54:13 | 41.54594 | 2.77613 | 107° | 20km/h | 17332m | 5.7m/s | 0°C | 0% | 0hPa | 0V | 00:00:00 | 00:00:00 | 00:00:00 | |
| EA3GEO | 2026-09-01 11:53:53 | 41.54660 | 2.77424 | 121° | 35km/h | 17236m | 5.7m/s | 0°C | 0% | 0hPa | 0V | 00:00:00 | 00:00:00 | 00:00:00 | |
| EA3GEO | 2026-09-01 11:52:18 | 41.54634 | 2.76019 | 70° | 42km/h | 16787m | 5.4m/s | 0°C | 0% | 0hPa | 0V | 00:00:00 | 00:00:00 | 00:00:00 | |
| EA3GEO | 2026-09-01 11:51:34 | 41.54562 | 2.75389 | 82° | 40km/h | 16587m | 4.7m/s | 0°C | 0% | 0hPa | 0V | 00:00:00 | 00:00:00 | 00:00:00 | |
| EA3GEO | 2026-09-01 11:51:27 | 41.54552 | 2.75264 | 92° | 42km/h | 16549m | 4.8m/s | 0°C | 0% | 0hPa | 0V | 00:00:00 | 00:00:00 | 00:00:00 | |
| EA3GEO | 2026-09-01 11:51:17 | 41.54533 | 2.75127 | 84° | 47km/h | 16509m | 4.9m/s | 0°C | 0% | 0hPa | 0V | 00:00:00 | 00:00:00 | 00:00:00 | |
| EA3GEO | 2026-09-01 11:51:12 | 41.54516 | 2.75031 | 80° | 47km/h | 16479m | 6.2m/s | 0°C | 0% | 0hPa | 0V | 00:00:00 | 00:00:00 | 00:00:00 | |
| EA3GEO | 2026-09-01 11:51:06 | 41.54502 | 2.74951 | 76° | 49km/h | 16456m | 5.1m/s | 0°C | 0% | 0hPa | 0V | 00:00:00 | 00:00:00 | 00:00:00 | |
| EA3GEO | 2026-09-01 11:50:54 | 41.54441 | 2.74728 | 71° | 57km/h | 16399m | 4.3m/s | 0°C | 0% | 0hPa | 0V | 00:00:00 | 00:00:00 | 00:00:00 | |
| EA3GEO | 2026-09-01 11:50:33 | 41.54330 | 2.74415 | 66° | 46km/h | 16307m | 4.2m/s | 0°C | 0% | 0hPa | 0V | 00:00:00 | 00:00:00 | 00:00:00 | |
| EA3GEO | 2026-09-01 11:50:24 | 41.54302 | 2.74294 | 68° | 44km/h | 16270m | 6.0m/s | 0°C | 0% | 0hPa | 0V | 00:00:00 | 00:00:00 | 00:00:00 | |
| EA3GEO | 2026-09-01 11:49:52 | 41.54171 | 2.73769 | 74° | 51km/h | 16121m | 5.3m/s | 0°C | 0% | 0hPa | 0V | 00:00:00 | 00:00:00 | 00:00:00 | |
| EA3GEO | 2026-09-01 11:49:42 | 41.54138 | 2.73609 | 71° | 47km/h | 16075m | 4.8m/s | 0°C | 0% | 0hPa | 0V | 00:00:00 | 00:00:00 | 00:00:00 | |
| EA3GEO | 2026-09-01 11:49:29 | 41.54088 | 2.73392 | 76° | 62km/h | 16014m | 4.1m/s | 0°C | 0% | 0hPa | 0V | 00:00:00 | 00:00:00 | 00:00:00 | |
| EA3GEO | 2026-09-01 11:49:23 | 41.54066 | 2.73288 | 71° | 49km/h | 15986m | 5.3m/s | 0°C | 0% | 0hPa | 0V | 00:00:00 | 00:00:00 | 00:00:00 | |
| EA3IBE | 2026-09-01 11:49:08 | 41.54005 | 2.73009 | 74° | 60km/h | 15915m | 5.1m/s | 0°C | 0% | 0hPa | 0V | 00:00:00 | 00:00:00 | 00:00:00 | |
| EA3GEO | 2026-09-01 11:49:05 | 41.53992 | 2.72947 | 80° | 62km/h | 15901m | 5.9m/s | 0°C | 0% | 0hPa | 0V | 00:00:00 | 00:00:00 | 00:00:00 | |
| EA3GEO | 2026-09-01 11:48:59 | 41.53970 | 2.72833 | 80° | 57km/h | 15874m | 4.2m/s | 0°C | 0% | 0hPa | 0V | 00:00:00 | 00:00:00 | 00:00:00 | |
| EA3IBE | 2026-09-01 11:48:24 | 41.53846 | 2.72095 | 74° | 68km/h | 15711m | 4.9m/s | 0°C | 0% | 0hPa | 0V | 00:00:00 | 00:00:00 | 00:00:00 | |
| EA3IBE | 2026-09-01 11:48:13 | 41.53783 | 2.71864 | 67° | 62km/h | 15659m | 5.3m/s | 0°C | 0% | 0hPa | 0V | 00:00:00 | 00:00:00 | 00:00:00 | |
| EA3GEO | 2026-09-01 11:48:02 | 41.53719 | 2.71645 | 68° | 62km/h | 15605m | 5.4m/s | 0°C | 0% | 0hPa | 0V | 00:00:00 | 00:00:00 | 00:00:00 | |
| EA3IBE | 2026-09-01 11:47:43 | 41.53606 | 2.71237 | 73° | 68km/h | 15516m | 4.7m/s | 0°C | 0% | 0hPa | 0V | 00:00:00 | 00:00:00 | 00:00:00 | |
| EA3GEO | 2026-09-01 11:47:24 | 41.53494 | 2.70826 | 74° | 71km/h | 15431m | 5.7m/s | 0°C | 0% | 0hPa | 0V | 00:00:00 | 00:00:00 | 00:00:00 | |
| EA3GEO | 2026-09-01 11:47:16 | 41.53446 | 2.70646 | 70° | 75km/h | 15396m | 4.7m/s | 0°C | 0% | 0hPa | 0V | 00:00:00 | 00:00:00 | 00:00:00 | |
| EA3IBE | 2026-09-01 11:47:03 | 41.53355 | 2.70308 | 75° | 77km/h | 15332m | 4.8m/s | 0°C | 0% | 0hPa | 0V | 00:00:00 | 00:00:00 | 00:00:00 | |
| EA3IBE | 2026-09-01 11:46:55 | 41.53313 | 2.70134 | 72° | 78km/h | 15301m | 3.6m/s | 0°C | 0% | 0hPa | 0V | 00:00:00 | 00:00:00 | 00:00:00 | |
| EA3IBE | 2026-09-01 11:46:49 | 41.53278 | 2.69988 | 76° | 77km/h | 15277m | 3.9m/s | 0°C | 0% | 0hPa | 0V | 00:00:00 | 00:00:00 | 00:00:00 | |
| EA3IBE | 2026-09-01 11:46:40 | 41.53218 | 2.69771 | 71° | 80km/h | 15238m | 3.9m/s | 0°C | 0% | 0hPa | 0V | 00:00:00 | 00:00:00 | 00:00:00 | |
| EA3IBE | 2026-09-01 11:46:33 | 41.53162 | 2.69576 | 72° | 73km/h | 15203m | 5.7m/s | 0°C | 0% | 0hPa | 0V | 00:00:00 | 00:00:00 | 00:00:00 | |
| EA3GEO | 2026-09-01 11:46:27 | 41.53132 | 2.69458 | 72° | 73km/h | 15179m | 5.0m/s | 0°C | 0% | 0hPa | 0V | 00:00:00 | 00:00:00 | 00:00:00 | |
| EA3GEO | 2026-09-01 11:46:17 | 41.53054 | 2.69233 | 70° | 71km/h | 15133m | 5.4m/s | 0°C | 0% | 0hPa | 0V | 00:00:00 | 00:00:00 | 00:00:00 | |
| EA3GEO | 2026-09-01 11:46:11 | 41.53008 | 2.69107 | 63° | 71km/h | 15108m | 4.1m/s | 0°C | 0% | 0hPa | 0V | 00:00:00 | 00:00:00 | 00:00:00 | |
| EA3GEO | 2026-09-01 11:46:06 | 41.52967 | 2.68994 | 69° | 73km/h | 15085m | 4.2m/s | 0°C | 0% | 0hPa | 0V | 00:00:00 | 00:00:00 | 00:00:00 | |
| EA3IBE | 2026-09-01 11:46:05 | 41.52960 | 2.68972 | 65° | 71km/h | 15080m | 4.7m/s | 0°C | 0% | 0hPa | 0V | 00:00:00 | 00:00:00 | 00:00:00 | |
| EA3GEO | 2026-09-01 11:46:00 | 41.52922 | 2.68870 | 65° | 68km/h | 15059m | 4.0m/s | 0°C | 0% | 0hPa | 0V | 00:00:00 | 00:00:00 | 00:00:00 | |
| EA3GEO | 2026-09-01 11:45:55 | 41.52885 | 2.68759 | 70° | 75km/h | 15034m | 6.1m/s | 0°C | 0% | 0hPa | 0V | 00:00:00 | 00:00:00 | 00:00:00 | |
| EA3GEO | 2026-09-01 11:45:50 | 41.52848 | 2.68629 | 69° | 69km/h | 15007m | 5.1m/s | 0°C | 0% | 0hPa | 0V | 00:00:00 | 00:00:00 | 00:00:00 | |
| EA3IBE | 2026-09-01 11:45:43 | 41.52809 | 2.68493 | 66° | 62km/h | 14983m | 4.3m/s | 0°C | 0% | 0hPa | 0V | 00:00:00 | 00:00:00 | 00:00:00 | |
| EA3GEO | 2026-09-01 11:45:36 | 41.52772 | 2.68329 | 78° | 73km/h | 14951m | 4.1m/s | 0°C | 0% | 0hPa | 0V | 00:00:00 | 00:00:00 | 00:00:00 | |
| EA3IBE | 2026-09-01 11:45:30 | 41.52743 | 2.68197 | 80° | 73km/h | 14925m | 5.5m/s | 0°C | 0% | 0hPa | 0V | 00:00:00 | 00:00:00 | 00:00:00 | |
| EA3GEO | 2026-09-01 11:45:28 | 41.52735 | 2.68146 | 81° | 77km/h | 14915m | 5.1m/s | 0°C | 0% | 0hPa | 0V | 00:00:00 | 00:00:00 | 00:00:00 | |
| EA3IBE | 2026-09-01 11:45:24 | 41.52716 | 2.68028 | 78° | 69km/h | 14893m | 4.8m/s | 0°C | 0% | 0hPa | 0V | 00:00:00 | 00:00:00 | 00:00:00 | |
| EA3IBE | 2026-09-01 11:45:19 | 41.52689 | 2.67872 | 79° | 80km/h | 14864m | 5.3m/s | 0°C | 0% | 0hPa | 0V | 00:00:00 | 00:00:00 | 00:00:00 | |
| EA3GEO | 2026-09-01 11:45:17 | 41.52685 | 2.67846 | 80° | 77km/h | 14860m | 3.8m/s | 0°C | 0% | 0hPa | 0V | 00:00:00 | 00:00:00 | 00:00:00 | |
| EA3IBE | 2026-09-01 11:45:12 | 41.52661 | 2.67721 | 77° | 80km/h | 14837m | 4.9m/s | 0°C | 0% | 0hPa | 0V | 00:00:00 | 00:00:00 | 00:00:00 | |
| EA3GEO | 2026-09-01 11:45:11 | 41.52661 | 2.67721 | 77° | 80km/h | 14837m | 4.9m/s | 0°C | 0% | 0hPa | 0V | 00:00:00 | 00:00:00 | 00:00:00 | |
| EA3IBE | 2026-09-01 11:45:07 | 41.52632 | 2.67592 | 72° | 78km/h | 14812m | 4.0m/s | 0°C | 0% | 0hPa | 0V | 00:00:00 | 00:00:00 | 00:00:00 | |
| EA3IBE | 2026-09-01 11:45:00 | 41.52598 | 2.67436 | 73° | 84km/h | 14786m | 4.5m/s | 0°C | 0% | 0hPa | 0V | 00:00:00 | 00:00:00 | 00:00:00 | |
| EA3GEO | 2026-09-01 11:44:59 | 41.52587 | 2.67381 | 75° | 86km/h | 14777m | 5.1m/s | 0°C | 0% | 0hPa | 0V | 00:00:00 | 00:00:00 | 00:00:00 | |
| EA3IBE | 2026-09-01 11:44:54 | 41.52560 | 2.67275 | 77° | 80km/h | 14758m | 4.9m/s | 0°C | 0% | 0hPa | 0V | 00:00:00 | 00:00:00 | 00:00:00 | |
| EA3GEO | 2026-09-01 11:44:52 | 41.52552 | 2.67223 | 79° | 75km/h | 14750m | 3.9m/s | 0°C | 0% | 0hPa | 0V | 00:00:00 | 00:00:00 | 00:00:00 | |
| EA3IBE | 2026-09-01 11:44:49 | 41.52530 | 2.67125 | 74° | 82km/h | 14731m | 3.8m/s | 0°C | 0% | 0hPa | 0V | 00:00:00 | 00:00:00 | 00:00:00 | |
| EA3IBE | 2026-09-01 11:44:40 | 41.52483 | 2.66919 | 74° | 80km/h | 14691m | 4.0m/s | 0°C | 0% | 0hPa | 0V | 00:00:00 | 00:00:00 | 00:00:00 | |
| EA3GEO | 2026-09-01 11:44:38 | 41.52468 | 2.66845 | 79° | 73km/h | 14678m | 4.1m/s | 0°C | 0% | 0hPa | 0V | 00:00:00 | 00:00:00 | 00:00:00 | |
| EA3IBE | 2026-09-01 11:44:34 | 41.52456 | 2.66765 | 79° | 86km/h | 14662m | 5.6m/s | 0°C | 0% | 0hPa | 0V | 00:00:00 | 00:00:00 | 00:00:00 | |
| EA3GEO | 2026-09-01 11:44:32 | 41.52448 | 2.66710 | 79° | 82km/h | 14652m | 7.3m/s | 0°C | 0% | 0hPa | 0V | 00:00:00 | 00:00:00 | 00:00:00 | |
| EA3IBE | 2026-09-01 11:44:27 | 41.52429 | 2.66581 | 79° | 82km/h | 14628m | 4.9m/s | 0°C | 0% | 0hPa | 0V | 00:00:00 | 00:00:00 | 00:00:00 | |
| EA3GEO | 2026-09-01 11:44:26 | 41.52421 | 2.66525 | 80° | 86km/h | 14618m | 5.9m/s | 0°C | 0% | 0hPa | 0V | 00:00:00 | 00:00:00 | 00:00:00 | |
| EA3GEO | 2026-09-01 11:44:20 | 41.52397 | 2.66386 | 82° | 77km/h | 14593m | 4.2m/s | 0°C | 0% | 0hPa | 0V | 00:00:00 | 00:00:00 | 00:00:00 | |
| EA3IBE | 2026-09-01 11:44:19 | 41.52394 | 2.66360 | 81° | 78km/h | 14588m | 5.1m/s | 0°C | 0% | 0hPa | 0V | 00:00:00 | 00:00:00 | 00:00:00 | |
| EA3IBE | 2026-09-01 11:44:15 | 41.52373 | 2.66221 | 78° | 86km/h | 14564m | 5.5m/s | 0°C | 0% | 0hPa | 0V | 00:00:00 | 00:00:00 | 00:00:00 | |
| EA3IBE | 2026-09-01 11:44:08 | 41.52342 | 2.66012 | 80° | 91km/h | 14529m | 6.1m/s | 0°C | 0% | 0hPa | 0V | 00:00:00 | 00:00:00 | 00:00:00 | |
| EA3IBE | 2026-09-01 11:44:00 | 41.52308 | 2.65814 | 85° | 88km/h | 14497m | 5.0m/s | 0°C | 0% | 0hPa | 0V | 00:00:00 | 00:00:00 | 00:00:00 | |
| EA3GEO | 2026-09-01 11:43:54 | 41.52277 | 2.65637 | 77° | 88km/h | 14469m | 5.4m/s | 0°C | 0% | 0hPa | 0V | 00:00:00 | 00:00:00 | 00:00:00 | |
| EA3IBE | 2026-09-01 11:43:52 | 41.52269 | 2.65577 | 83° | 93km/h | 14460m | 5.2m/s | 0°C | 0% | 0hPa | 0V | 00:00:00 | 00:00:00 | 00:00:00 | |
| EA3IBE | 2026-09-01 11:43:48 | 41.52248 | 2.65430 | 77° | 91km/h | 14437m | 4.7m/s | 0°C | 0% | 0hPa | 0V | 00:00:00 | 00:00:00 | 00:00:00 | |
| EA3IBE | 2026-09-01 11:43:41 | 41.52208 | 2.65254 | 79° | 91km/h | 14407m | 4.3m/s | 0°C | 0% | 0hPa | 0V | 00:00:00 | 00:00:00 | 00:00:00 | |
| EA3IBE | 2026-09-01 11:43:36 | 41.52186 | 2.65105 | 75° | 86km/h | 14383m | 4.7m/s | 0°C | 0% | 0hPa | 0V | 00:00:00 | 00:00:00 | 00:00:00 | |
| EA3IBE | 2026-09-01 11:43:32 | 41.52155 | 2.64957 | 78° | 99km/h | 14358m | 6.3m/s | 0°C | 0% | 0hPa | 0V | 00:00:00 | 00:00:00 | 00:00:00 | |
| EA3GEO | 2026-09-01 11:43:27 | 41.52132 | 2.64829 | 79° | 93km/h | 14340m | 5.1m/s | 0°C | 0% | 0hPa | 0V | 00:00:00 | 00:00:00 | 00:00:00 | |
| EA3IBE | 2026-09-01 11:43:25 | 41.52120 | 2.64771 | 71° | 86km/h | 14330m | 4.0m/s | 0°C | 0% | 0hPa | 0V | 00:00:00 | 00:00:00 | 00:00:00 | |
| EA3GEO | 2026-09-01 11:43:22 | 41.52097 | 2.64689 | 70° | 88km/h | 14317m | 6.7m/s | 0°C | 0% | 0hPa | 0V | 00:00:00 | 00:00:00 | 00:00:00 | |
| EA3IBE | 2026-09-01 11:43:19 | 41.52077 | 2.64595 | 78° | 100km/h | 14302m | 6.2m/s | 0°C | 0% | 0hPa | 0V | 00:00:00 | 00:00:00 | 00:00:00 | |
| EA3GEO | 2026-09-01 11:43:16 | 41.52052 | 2.64470 | 71° | 97km/h | 14284m | 5.2m/s | 0°C | 0% | 0hPa | 0V | 00:00:00 | 00:00:00 | 00:00:00 | |
| EA3IBE | 2026-09-01 11:43:14 | 41.52043 | 2.64440 | 70° | 97km/h | 14279m | 4.6m/s | 0°C | 0% | 0hPa | 0V | 00:00:00 | 00:00:00 | 00:00:00 | |
| EA3GEO | 2026-09-01 11:43:11 | 41.52018 | 2.64316 | 79° | 100km/h | 14261m | 4.4m/s | 0°C | 0% | 0hPa | 0V | 00:00:00 | 00:00:00 | 00:00:00 | |
| EA3IBE | 2026-09-01 11:43:08 | 41.52008 | 2.64249 | 79° | 99km/h | 14253m | 4.6m/s | 0°C | 0% | 0hPa | 0V | 00:00:00 | 00:00:00 | 00:00:00 | |
| EA3IBE | 2026-09-01 11:43:02 | 41.51968 | 2.64063 | 76° | 95km/h | 14227m | 4.6m/s | 0°C | 0% | 0hPa | 0V | 00:00:00 | 00:00:00 | 00:00:00 | |
| EA3GEO | 2026-09-01 11:43:00 | 41.51957 | 2.64000 | 78° | 97km/h | 14217m | 5.8m/s | 0°C | 0% | 0hPa | 0V | 00:00:00 | 00:00:00 | 00:00:00 | |
| EA3IBE | 2026-09-01 11:42:57 | 41.51939 | 2.63903 | 78° | 95km/h | 14204m | 6.1m/s | 0°C | 0% | 0hPa | 0V | 00:00:00 | 00:00:00 | 00:00:00 | |
| EA3GEO | 2026-09-01 11:42:51 | 41.51903 | 2.63730 | 74° | 93km/h | 14175m | 3.6m/s | 0°C | 0% | 0hPa | 0V | 00:00:00 | 00:00:00 | 00:00:00 | |
| EA3IBE | 2026-09-01 11:42:46 | 41.51869 | 2.63581 | 69° | 88km/h | 14153m | 4.1m/s | 0°C | 0% | 0hPa | 0V | 00:00:00 | 00:00:00 | 00:00:00 | |
| EA3GEO | 2026-09-01 11:42:42 | 41.51845 | 2.63471 | 79° | 88km/h | 14135m | 4.5m/s | 0°C | 0% | 0hPa | 0V | 00:00:00 | 00:00:00 | 00:00:00 | |
| EA3IBE | 2026-09-01 11:42:40 | 41.51835 | 2.63414 | 75° | 89km/h | 14127m | 3.9m/s | 0°C | 0% | 0hPa | 0V | 00:00:00 | 00:00:00 | 00:00:00 | |
| EA3GEO | 2026-09-01 11:42:35 | 41.51803 | 2.63261 | 72° | 89km/h | 14104m | 4.1m/s | 0°C | 0% | 0hPa | 0V | 00:00:00 | 00:00:00 | 00:00:00 | |
| EA3IBE | 2026-09-01 11:42:34 | 41.51796 | 2.63232 | 72° | 93km/h | 14100m | 4.8m/s | 0°C | 0% | 0hPa | 0V | 00:00:00 | 00:00:00 | 00:00:00 | |
| EA3GEO | 2026-09-01 11:42:29 | 41.51765 | 2.63082 | 81° | 93km/h | 14078m | 5.6m/s | 0°C | 0% | 0hPa | 0V | 00:00:00 | 00:00:00 | 00:00:00 | |
| EA3GEO | 2026-09-01 11:42:23 | 41.51733 | 2.62901 | 74° | 99km/h | 14052m | 3.8m/s | 0°C | 0% | 0hPa | 0V | 00:00:00 | 00:00:00 | 00:00:00 | |
| EA3IBE | 2026-09-01 11:42:18 | 41.51700 | 2.62748 | 75° | 86km/h | 14029m | 5.1m/s | 0°C | 0% | 0hPa | 0V | 00:00:00 | 00:00:00 | 00:00:00 | |
| EA3IBE | 2026-09-01 11:42:13 | 41.51669 | 2.62609 | 71° | 91km/h | 14009m | 4.2m/s | 0°C | 0% | 0hPa | 0V | 00:00:00 | 00:00:00 | 00:00:00 | |
| EA3GEO | 2026-09-01 11:42:10 | 41.51647 | 2.62516 | 75° | 97km/h | 13995m | 3.4m/s | 0°C | 0% | 0hPa | 0V | 00:00:00 | 00:00:00 | 00:00:00 | |
| EA3IBE | 2026-09-01 11:42:08 | 41.51633 | 2.62454 | 74° | 97km/h | 13987m | 4.9m/s | 0°C | 0% | 0hPa | 0V | 00:00:00 | 00:00:00 | 00:00:00 | |
| EA3GEO | 2026-09-01 11:42:03 | 41.51589 | 2.62281 | 73° | 97km/h | 13961m | 5.3m/s | 0°C | 0% | 0hPa | 0V | 00:00:00 | 00:00:00 | 00:00:00 | |
| EA3IBE | 2026-09-01 11:41:57 | 41.51557 | 2.62116 | 79° | 100km/h | 13940m | 4.6m/s | 0°C | 0% | 0hPa | 0V | 00:00:00 | 00:00:00 | 00:00:00 | |
| EA3GEO | 2026-09-01 11:41:56 | 41.51551 | 2.62084 | 78° | 95km/h | 13936m | 3.6m/s | 0°C | 0% | 0hPa | 0V | 00:00:00 | 00:00:00 | 00:00:00 | |
| EA3IBE | 2026-09-01 11:41:52 | 41.51514 | 2.61929 | 75° | 95km/h | 13918m | 3.1m/s | 0°C | 0% | 0hPa | 0V | 00:00:00 | 00:00:00 | 00:00:00 | |
| EA3GEO | 2026-09-01 11:41:49 | 41.51501 | 2.61866 | 77° | 99km/h | 13910m | 5.3m/s | 0°C | 0% | 0hPa | 0V | 00:00:00 | 00:00:00 | 00:00:00 | |
| EA3IBE | 2026-09-01 11:41:45 | 41.51477 | 2.61732 | 75° | 108km/h | 13892m | 4.2m/s | 0°C | 0% | 0hPa | 0V | 00:00:00 | 00:00:00 | 00:00:00 | |
| EA3GEO | 2026-09-01 11:41:43 | 41.51462 | 2.61663 | 77° | 102km/h | 13884m | 5.6m/s | 0°C | 0% | 0hPa | 0V | 00:00:00 | 00:00:00 | 00:00:00 | |
| EA3IBE | 2026-09-01 11:41:39 | 41.51437 | 2.61533 | 77° | 99km/h | 13866m | 5.3m/s | 0°C | 0% | 0hPa | 0V | 00:00:00 | 00:00:00 | 00:00:00 | |
| EA3GEO | 2026-09-01 11:41:35 | 41.51408 | 2.61399 | 72° | 108km/h | 13848m | 5.0m/s | 0°C | 0% | 0hPa | 0V | 00:00:00 | 00:00:00 | 00:00:00 | |
| EA3IBE | 2026-09-01 11:41:34 | 41.51390 | 2.61332 | 71° | 106km/h | 13840m | 5.1m/s | 0°C | 0% | 0hPa | 0V | 00:00:00 | 00:00:00 | 00:00:00 | |
| EA3GEO | 2026-09-01 11:41:30 | 41.51368 | 2.61233 | 77° | 97km/h | 13826m | 3.8m/s | 0°C | 0% | 0hPa | 0V | 00:00:00 | 00:00:00 | 00:00:00 | |
| EA3IBE | 2026-09-01 11:41:28 | 41.51347 | 2.61142 | 71° | 93km/h | 13815m | 3.8m/s | 0°C | 0% | 0hPa | 0V | 00:00:00 | 00:00:00 | 00:00:00 | |
| EA3IBE | 2026-09-01 11:41:22 | 41.51308 | 2.60985 | 74° | 102km/h | 13794m | 3.3m/s | 0°C | 0% | 0hPa | 0V | 00:00:00 | 00:00:00 | 00:00:00 | |
| EA3GEO | 2026-09-01 11:41:21 | 41.51300 | 2.60952 | 75° | 104km/h | 13789m | 5.4m/s | 0°C | 0% | 0hPa | 0V | 00:00:00 | 00:00:00 | 00:00:00 | |
| EA3IBE | 2026-09-01 11:41:18 | 41.51271 | 2.60824 | 70° | 95km/h | 13774m | 5.3m/s | 0°C | 0% | 0hPa | 0V | 00:00:00 | 00:00:00 | 00:00:00 | |
| EA3GEO | 2026-09-01 11:41:13 | 41.51240 | 2.60707 | 75° | 95km/h | 13757m | 5.2m/s | 0°C | 0% | 0hPa | 0V | 00:00:00 | 00:00:00 | 00:00:00 | |
| EA3IBE | 2026-09-01 11:41:10 | 41.51217 | 2.60608 | 71° | 104km/h | 13744m | 3.7m/s | 0°C | 0% | 0hPa | 0V | 00:00:00 | 00:00:00 | 00:00:00 | |
| EA3GEO | 2026-09-01 11:41:07 | 41.51191 | 2.60517 | 71° | 93km/h | 13732m | 7.6m/s | 0°C | 0% | 0hPa | 0V | 00:00:00 | 00:00:00 | 00:00:00 | |
| EA3IBE | 2026-09-01 11:41:02 | 41.51143 | 2.60377 | 66° | 95km/h | 13708m | 5.5m/s | 0°C | 0% | 0hPa | 0V | 00:00:00 | 00:00:00 | 00:00:00 | |
| EA3GEO | 2026-09-01 11:41:01 | 41.51134 | 2.60347 | 71° | 97km/h | 13704m | 5.0m/s | 0°C | 0% | 0hPa | 0V | 00:00:00 | 00:00:00 | 00:00:00 | |
| EA3IBE | 2026-09-01 11:40:57 | 41.51102 | 2.60225 | 71° | 91km/h | 13688m | 4.3m/s | 0°C | 0% | 0hPa | 0V | 00:00:00 | 00:00:00 | 00:00:00 | |
| EA3GEO | 2026-09-01 11:40:55 | 41.51086 | 2.60167 | 70° | 91km/h | 13679m | 4.7m/s | 0°C | 0% | 0hPa | 0V | 00:00:00 | 00:00:00 | 00:00:00 | |
| EA3IBE | 2026-09-01 11:40:50 | 41.51042 | 2.60023 | 68° | 93km/h | 13657m | 4.4m/s | 0°C | 0% | 0hPa | 0V | 00:00:00 | 00:00:00 | 00:00:00 | |
| EA3GEO | 2026-09-01 11:40:45 | 41.50997 | 2.59886 | 69° | 80km/h | 13633m | 4.7m/s | 0°C | 0% | 0hPa | 0V | 00:00:00 | 00:00:00 | 00:00:00 | |
| EA3IBE | 2026-09-01 11:40:44 | 41.50989 | 2.59860 | 69° | 84km/h | 13629m | 4.9m/s | 0°C | 0% | 0hPa | 0V | 00:00:00 | 00:00:00 | 00:00:00 | |
| EA3IBE | 2026-09-01 11:40:36 | 41.50917 | 2.59634 | 67° | 91km/h | 13591m | 4.9m/s | 0°C | 0% | 0hPa | 0V | 00:00:00 | 00:00:00 | 00:00:00 | |
| EA3GEO | 2026-09-01 11:40:34 | 41.50899 | 2.59581 | 67° | 84km/h | 13581m | 3.7m/s | 0°C | 0% | 0hPa | 0V | 00:00:00 | 00:00:00 | 00:00:00 | |
| EA3IBE | 2026-09-01 11:40:30 | 41.50861 | 2.59467 | 65° | 97km/h | 13564m | 5.3m/s | 0°C | 0% | 0hPa | 0V | 00:00:00 | 00:00:00 | 00:00:00 | |
| EA3GEO | 2026-09-01 11:40:26 | 41.50826 | 2.59358 | 72° | 86km/h | 13546m | 3.9m/s | 0°C | 0% | 0hPa | 0V | 00:00:00 | 00:00:00 | 00:00:00 | |
| EA3IBE | 2026-09-01 11:40:22 | 41.50792 | 2.59246 | 68° | 99km/h | 13529m | 6.7m/s | 0°C | 0% | 0hPa | 0V | 00:00:00 | 00:00:00 | 00:00:00 | |
| EA3IBE | 2026-09-01 11:40:17 | 41.50742 | 2.59104 | 70° | 84km/h | 13505m | 5.9m/s | 0°C | 0% | 0hPa | 0V | 00:00:00 | 00:00:00 | 00:00:00 | |
| EA3GEO | 2026-09-01 11:40:14 | 41.50718 | 2.59021 | 67° | 88km/h | 13493m | 4.7m/s | 0°C | 0% | 0hPa | 0V | 00:00:00 | 00:00:00 | 00:00:00 | |
| EA3IBE | 2026-09-01 11:40:12 | 41.50697 | 2.58966 | 63° | 99km/h | 13483m | 5.2m/s | 0°C | 0% | 0hPa | 0V | 00:00:00 | 00:00:00 | 00:00:00 | |
| EA3IBE | 2026-09-01 11:40:06 | 41.50637 | 2.58794 | 64° | 86km/h | 13455m | 4.7m/s | 0°C | 0% | 0hPa | 0V | 00:00:00 | 00:00:00 | 00:00:00 | |
| EA3GEO | 2026-09-01 11:40:01 | 41.50583 | 2.58658 | 67° | 95km/h | 13435m | 3.1m/s | 0°C | 0% | 0hPa | 0V | 00:00:00 | 00:00:00 | 00:00:00 | |
| EA3IBE | 2026-09-01 11:39:59 | 41.50566 | 2.58600 | 73° | 89km/h | 13427m | 3.6m/s | 0°C | 0% | 0hPa | 0V | 00:00:00 | 00:00:00 | 00:00:00 | |
| EA3GEO | 2026-09-01 11:39:55 | 41.50527 | 2.58487 | 60° | 97km/h | 13408m | 5.3m/s | 0°C | 0% | 0hPa | 0V | 00:00:00 | 00:00:00 | 00:00:00 | |
| EA3IBE | 2026-09-01 11:39:52 | 41.50490 | 2.58407 | 59° | 93km/h | 13394m | 5.6m/s | 0°C | 0% | 0hPa | 0V | 00:00:00 | 00:00:00 | 00:00:00 | |
| EA3GEO | 2026-09-01 11:39:50 | 41.50466 | 2.58352 | 61° | 95km/h | 13382m | 6.5m/s | 0°C | 0% | 0hPa | 0V | 00:00:00 | 00:00:00 | 00:00:00 | |
| EA3IBE | 2026-09-01 11:39:46 | 41.50418 | 2.58240 | 58° | 93km/h | 13365m | 3.7m/s | 0°C | 0% | 0hPa | 0V | 00:00:00 | 00:00:00 | 00:00:00 | |
| EA3IBE | 2026-09-01 11:39:42 | 41.50359 | 2.58099 | 58° | 97km/h | 13340m | 4.3m/s | 0°C | 0% | 0hPa | 0V | 00:00:00 | 00:00:00 | 00:00:00 | |
| EA3GEO | 2026-09-01 11:39:38 | 41.50320 | 2.58023 | 57° | 88km/h | 13328m | 4.9m/s | 0°C | 0% | 0hPa | 0V | 00:00:00 | 00:00:00 | 00:00:00 | |
| EA3IBE | 2026-09-01 11:39:35 | 41.50280 | 2.57947 | 60° | 91km/h | 13314m | 5.1m/s | 0°C | 0% | 0hPa | 0V | 00:00:00 | 00:00:00 | 00:00:00 | |
| EA3IBE | 2026-09-01 11:39:30 | 41.50216 | 2.57784 | 60° | 86km/h | 13289m | 4.1m/s | 0°C | 0% | 0hPa | 0V | 00:00:00 | 00:00:00 | 00:00:00 | |
| EA3IBE | 2026-09-01 11:39:23 | 41.50132 | 2.57605 | 60° | 93km/h | 13259m | 6.3m/s | 0°C | 0% | 0hPa | 0V | 00:00:00 | 00:00:00 | 00:00:00 | |
| EA3IBE | 2026-09-01 11:39:16 | 41.50059 | 2.57453 | 58° | 91km/h | 13233m | 4.3m/s | 0°C | 0% | 0hPa | 0V | 00:00:00 | 00:00:00 | 00:00:00 | |
| EA3IBE | 2026-09-01 11:39:11 | 41.50003 | 2.57318 | 63° | 89km/h | 13213m | 5.3m/s | 0°C | 0% | 0hPa | 0V | 00:00:00 | 00:00:00 | 00:00:00 | |
| EA3IBE | 2026-09-01 11:39:02 | 41.49906 | 2.57075 | 68° | 89km/h | 13175m | 5.0m/s | 0°C | 0% | 0hPa | 0V | 00:00:00 | 00:00:00 | 00:00:00 | |
| EA3IBE | 2026-09-01 11:38:58 | 41.49857 | 2.56944 | 63° | 89km/h | 13156m | 3.7m/s | 0°C | 0% | 0hPa | 0V | 00:00:00 | 00:00:00 | 00:00:00 | |
| EA3IBE | 2026-09-01 11:38:51 | 41.49797 | 2.56771 | 69° | 89km/h | 13131m | 6.7m/s | 0°C | 0% | 0hPa | 0V | 00:00:00 | 00:00:00 | 00:00:00 | |
| EA3GEO | 2026-09-01 11:38:50 | 41.49789 | 2.56742 | 70° | 93km/h | 13126m | 3.8m/s | 0°C | 0% | 0hPa | 0V | 00:00:00 | 00:00:00 | 00:00:00 | |
| EA3IBE | 2026-09-01 11:38:45 | 41.49747 | 2.56598 | 63° | 91km/h | 13105m | 4.0m/s | 0°C | 0% | 0hPa | 0V | 00:00:00 | 00:00:00 | 00:00:00 | |
| EA3GEO | 2026-09-01 11:38:42 | 41.49718 | 2.56510 | 74° | 99km/h | 13090m | 3.4m/s | 0°C | 0% | 0hPa | 0V | 00:00:00 | 00:00:00 | 00:00:00 | |
| EA3IBE | 2026-09-01 11:38:39 | 41.49695 | 2.56412 | 73° | 102km/h | 13078m | 4.1m/s | 0°C | 0% | 0hPa | 0V | 00:00:00 | 00:00:00 | 00:00:00 | |
| EA3IBE | 2026-09-01 11:38:33 | 41.49640 | 2.56236 | 70° | 89km/h | 13051m | 4.9m/s | 0°C | 0% | 0hPa | 0V | 00:00:00 | 00:00:00 | 00:00:00 | |
| EA3IBE | 2026-09-01 11:38:28 | 41.49593 | 2.56084 | 64° | 99km/h | 13030m | 5.1m/s | 0°C | 0% | 0hPa | 0V | 00:00:00 | 00:00:00 | 00:00:00 | |
| EA3IBE | 2026-09-01 11:38:21 | 41.49519 | 2.55889 | 67° | 91km/h | 12996m | 4.1m/s | 0°C | 0% | 0hPa | 0V | 00:00:00 | 00:00:00 | 00:00:00 | |
| EA3IBE | 2026-09-01 11:38:16 | 41.49467 | 2.55749 | 63° | 95km/h | 12974m | 5.1m/s | 0°C | 0% | 0hPa | 0V | 00:00:00 | 00:00:00 | 00:00:00 | |
| EA3IBE | 2026-09-01 11:38:11 | 41.49401 | 2.55572 | 69° | 91km/h | 12948m | 4.3m/s | 0°C | 0% | 0hPa | 0V | 00:00:00 | 00:00:00 | 00:00:00 | |
| EA3GEO | 2026-09-01 11:38:09 | 41.49384 | 2.55517 | 65° | 86km/h | 12940m | 3.3m/s | 0°C | 0% | 0hPa | 0V | 00:00:00 | 00:00:00 | 00:00:00 | |
| EA3IBE | 2026-09-01 11:38:05 | 41.49353 | 2.55431 | 65° | 99km/h | 12929m | 4.2m/s | 0°C | 0% | 0hPa | 0V | 00:00:00 | 00:00:00 | 00:00:00 | |
| EA3IBE | 2026-09-01 11:38:00 | 41.49289 | 2.55254 | 64° | 93km/h | 12903m | 4.2m/s | 0°C | 0% | 0hPa | 0V | 00:00:00 | 00:00:00 | 00:00:00 | |
| EA3IBE | 2026-09-01 11:37:53 | 41.49227 | 2.55093 | 66° | 93km/h | 12878m | 4.8m/s | 0°C | 0% | 0hPa | 0V | 00:00:00 | 00:00:00 | 00:00:00 | |
| EA3IBE | 2026-09-01 11:37:48 | 41.49174 | 2.54951 | 60° | 89km/h | 12860m | 3.9m/s | 0°C | 0% | 0hPa | 0V | 00:00:00 | 00:00:00 | 00:00:00 | |
| EA3IBE | 2026-09-01 11:37:42 | 41.49116 | 2.54785 | 67° | 91km/h | 12834m | 5.3m/s | 0°C | 0% | 0hPa | 0V | 00:00:00 | 00:00:00 | 00:00:00 | |
| EA3GEO | 2026-09-01 11:37:37 | 41.49075 | 2.54638 | 74° | 93km/h | 12815m | 3.4m/s | 0°C | 0% | 0hPa | 0V | 00:00:00 | 00:00:00 | 00:00:00 | |
| EA3IBE | 2026-09-01 11:37:31 | 41.49024 | 2.54452 | 69° | 93km/h | 12786m | 5.1m/s | 0°C | 0% | 0hPa | 0V | 00:00:00 | 00:00:00 | 00:00:00 | |
| EA3IBE | 2026-09-01 11:37:25 | 41.48975 | 2.54275 | 69° | 97km/h | 12762m | 3.9m/s | 0°C | 0% | 0hPa | 0V | 00:00:00 | 00:00:00 | 00:00:00 | |
| EA3IBE | 2026-09-01 11:37:19 | 41.48919 | 2.54098 | 72° | 88km/h | 12735m | 4.6m/s | 0°C | 0% | 0hPa | 0V | 00:00:00 | 00:00:00 | 00:00:00 | |
| EA3GEO | 2026-09-01 11:35:45 | 41.48203 | 2.51281 | 76° | 89km/h | 12342m | 2.3m/s | 0°C | 0% | 0hPa | 0V | 00:00:00 | 00:00:00 | 00:00:00 | |
| EA3GEO | 2026-09-01 11:35:22 | 41.48040 | 2.50584 | 72° | 91km/h | 12245m | 4.2m/s | 0°C | 0% | 0hPa | 0V | 00:00:00 | 00:00:00 | 00:00:00 | |
| EA3GEO | 2026-09-01 11:35:14 | 41.47976 | 2.50345 | 72° | 97km/h | 12212m | 4.8m/s | 0°C | 0% | 0hPa | 0V | 00:00:00 | 00:00:00 | 00:00:00 | |
| EA3GEO | 2026-09-01 11:34:59 | 41.47862 | 2.49911 | 69° | 95km/h | 12151m | 4.7m/s | 0°C | 0% | 0hPa | 0V | 00:00:00 | 00:00:00 | 00:00:00 | |
| EA3GEO | 2026-09-01 11:34:15 | 41.47506 | 2.48722 | 64° | 89km/h | 11950m | 7.4m/s | 0°C | 0% | 0hPa | 0V | 00:00:00 | 00:00:00 | 00:00:00 | |
| EA3GEO | 2026-09-01 11:33:44 | 41.47210 | 2.47962 | 63° | 86km/h | 11760m | 11.2m/s | 0°C | 0% | 0hPa | 0V | 00:00:00 | 00:00:00 | 00:00:00 | |
| EA3GEO | 2026-09-01 11:32:53 | 41.46775 | 2.46660 | 71° | 84km/h | 11459m | 12.0m/s | 0°C | 0% | 0hPa | 0V | 00:00:00 | 00:00:00 | 00:00:00 | |
| EA3GEO | 2026-09-01 11:32:07 | 41.46500 | 2.45414 | 75° | 86km/h | 11174m | 5.2m/s | 0°C | 0% | 0hPa | 0V | 00:00:00 | 00:00:00 | 00:00:00 | |
| EA3GEO | 2026-09-01 11:31:15 | 41.46177 | 2.44062 | 70° | 84km/h | 10845m | 3.7m/s | 0°C | 0% | 0hPa | 0V | 00:00:00 | 00:00:00 | 00:00:00 | |
| EA3GEO | 2026-09-01 11:31:05 | 41.46107 | 2.43815 | 71° | 78km/h | 10780m | 9.9m/s | 0°C | 0% | 0hPa | 0V | 00:00:00 | 00:00:00 | 00:00:00 | |
| EA3GEO | 2026-09-01 11:30:56 | 41.46041 | 2.43595 | 68° | 80km/h | 10722m | 8.4m/s | 0°C | 0% | 0hPa | 0V | 00:00:00 | 00:00:00 | 00:00:00 | |
| EA3GEO | 2026-09-01 11:30:48 | 41.45981 | 2.43408 | 70° | 75km/h | 10670m | 5.2m/s | 0°C | 0% | 0hPa | 0V | 00:00:00 | 00:00:00 | 00:00:00 | |
| EA3GEO | 2026-09-01 11:30:39 | 41.45912 | 2.43192 | 66° | 77km/h | 10615m | 8.7m/s | 0°C | 0% | 0hPa | 0V | 00:00:00 | 00:00:00 | 00:00:00 | |
| EA3GEO | 2026-09-01 11:30:33 | 41.45868 | 2.43046 | 72° | 77km/h | 10578m | 5.3m/s | 0°C | 0% | 0hPa | 0V | 00:00:00 | 00:00:00 | 00:00:00 | |
| EA3GEO | 2026-09-01 11:30:26 | 41.45811 | 2.42890 | 66° | 78km/h | 10538m | 3.9m/s | 0°C | 0% | 0hPa | 0V | 00:00:00 | 00:00:00 | 00:00:00 | |
| EA3GEO | 2026-09-01 11:30:14 | 41.45729 | 2.42602 | 74° | 77km/h | 10465m | 5.9m/s | 0°C | 0% | 0hPa | 0V | 00:00:00 | 00:00:00 | 00:00:00 | |
| EA3GEO | 2026-09-01 11:30:06 | 41.45675 | 2.42403 | 70° | 78km/h | 10414m | 4.9m/s | 0°C | 0% | 0hPa | 0V | 00:00:00 | 00:00:00 | 00:00:00 | |
| EA3GEO | 2026-09-01 11:30:01 | 41.45638 | 2.42273 | 73° | 91km/h | 10379m | 7.7m/s | 0°C | 0% | 0hPa | 0V | 00:00:00 | 00:00:00 | 00:00:00 | |
| EA3GEO | 2026-09-01 11:29:54 | 41.45594 | 2.42097 | 69° | 77km/h | 10343m | 3.5m/s | 0°C | 0% | 0hPa | 0V | 00:00:00 | 00:00:00 | 00:00:00 | |
| EA3GEO | 2026-09-01 11:29:43 | 41.45532 | 2.41815 | 74° | 80km/h | 10268m | 7.4m/s | 0°C | 0% | 0hPa | 0V | 00:00:00 | 00:00:00 | 00:00:00 | |
| EA3GEO | 2026-09-01 11:29:25 | 41.45436 | 2.41343 | 78° | 80km/h | 10155m | 7.2m/s | 0°C | 0% | 0hPa | 0V | 00:00:00 | 00:00:00 | 00:00:00 | |
| EA3GEO | 2026-09-01 11:29:19 | 41.45399 | 2.41190 | 81° | 91km/h | 10121m | 6.9m/s | 0°C | 0% | 0hPa | 0V | 00:00:00 | 00:00:00 | 00:00:00 | |
| EA3GEO | 2026-09-01 11:29:03 | 41.45327 | 2.40749 | 82° | 80km/h | 10015m | 6.2m/s | 0°C | 0% | 0hPa | 0V | 00:00:00 | 00:00:00 | 00:00:00 | |
| EA3GEO | 2026-09-01 11:28:58 | 41.45301 | 2.40605 | 75° | 86km/h | 9989m | 4.3m/s | 0°C | 0% | 0hPa | 0V | 00:00:00 | 00:00:00 | 00:00:00 | |
| EA3GEO | 2026-09-01 11:28:50 | 41.45261 | 2.40381 | 77° | 86km/h | 9936m | 4.6m/s | 0°C | 0% | 0hPa | 0V | 00:00:00 | 00:00:00 | 00:00:00 | |
| EA3GEO | 2026-09-01 11:28:42 | 41.45223 | 2.40163 | 77° | 99km/h | 9887m | 6.2m/s | 0°C | 0% | 0hPa | 0V | 00:00:00 | 00:00:00 | 00:00:00 | |
| EA3GEO | 2026-09-01 11:28:36 | 41.45193 | 2.39993 | 74° | 82km/h | 9858m | 6.6m/s | 0°C | 0% | 0hPa | 0V | 00:00:00 | 00:00:00 | 00:00:00 | |
| EA3GEO | 2026-09-01 11:28:28 | 41.45151 | 2.39778 | 75° | 82km/h | 9807m | 5.7m/s | 0°C | 0% | 0hPa | 0V | 00:00:00 | 00:00:00 | 00:00:00 | |
| EA3GEO | 2026-09-01 11:28:21 | 41.45092 | 2.39550 | 69° | 86km/h | 9767m | 4.0m/s | 0°C | 0% | 0hPa | 0V | 00:00:00 | 00:00:00 | 00:00:00 | |
| EA3GEO | 2026-09-01 11:28:15 | 41.45066 | 2.39416 | 85° | 80km/h | 9734m | 7.3m/s | 0°C | 0% | 0hPa | 0V | 00:00:00 | 00:00:00 | 00:00:00 | |
| EA3GEO | 2026-09-01 11:28:07 | 41.45010 | 2.39200 | 74° | 86km/h | 9688m | 7.1m/s | 0°C | 0% | 0hPa | 0V | 00:00:00 | 00:00:00 | 00:00:00 | |
| EA3GEO | 2026-09-01 11:28:02 | 41.44980 | 2.39060 | 71° | 80km/h | 9647m | 6.7m/s | 0°C | 0% | 0hPa | 0V | 00:00:00 | 00:00:00 | 00:00:00 | |
| EA3GEO | 2026-09-01 11:27:48 | 41.44890 | 2.38693 | 70° | 73km/h | 9575m | 6.3m/s | 0°C | 0% | 0hPa | 0V | 00:00:00 | 00:00:00 | 00:00:00 | |
| EA3GEO | 2026-09-01 11:27:41 | 41.44845 | 2.38515 | 67° | 86km/h | 9528m | 6.3m/s | 0°C | 0% | 0hPa | 0V | 00:00:00 | 00:00:00 | 00:00:00 | |
| EA3GEO | 2026-09-01 11:27:36 | 41.44808 | 2.38386 | 81° | 77km/h | 9493m | 6.3m/s | 0°C | 0% | 0hPa | 0V | 00:00:00 | 00:00:00 | 00:00:00 | |
| EA3GEO | 2026-09-01 11:27:24 | 41.44732 | 2.38069 | 69° | 75km/h | 9427m | 7.9m/s | 0°C | 0% | 0hPa | 0V | 00:00:00 | 00:00:00 | 00:00:00 | |
| EA3GEO | 2026-09-01 11:27:14 | 41.44670 | 2.37802 | 77° | 82km/h | 9368m | 6.2m/s | 0°C | 0% | 0hPa | 0V | 00:00:00 | 00:00:00 | 00:00:00 | |
| EA3GEO | 2026-09-01 11:27:03 | 41.44591 | 2.37517 | 77° | 78km/h | 9320m | 1.8m/s | 0°C | 0% | 0hPa | 0V | 00:00:00 | 00:00:00 | 00:00:00 | |
| EA3GEO | 2026-09-01 11:26:54 | 41.44530 | 2.37284 | 73° | 82km/h | 9286m | 4.0m/s | 0°C | 0% | 0hPa | 0V | 00:00:00 | 00:00:00 | 00:00:00 | |
| EA3GEO | 2026-09-01 11:26:46 | 41.44482 | 2.37075 | 73° | 77km/h | 9253m | 4.1m/s | 0°C | 0% | 0hPa | 0V | 00:00:00 | 00:00:00 | 00:00:00 | |
| EA3GEO | 2026-09-01 11:26:35 | 41.44421 | 2.36791 | 76° | 75km/h | 9208m | 4.2m/s | 0°C | 0% | 0hPa | 0V | 00:00:00 | 00:00:00 | 00:00:00 | |
| EA3GEO | 2026-09-01 11:26:30 | 41.44388 | 2.36656 | 75° | 84km/h | 9189m | 3.8m/s | 0°C | 0% | 0hPa | 0V | 00:00:00 | 00:00:00 | 00:00:00 | |
| EA3GEO | 2026-09-01 11:26:24 | 41.44359 | 2.36516 | 77° | 77km/h | 9162m | 7.2m/s | 0°C | 0% | 0hPa | 0V | 00:00:00 | 00:00:00 | 00:00:00 | |
| EA3GEO | 2026-09-01 11:26:18 | 41.44325 | 2.36363 | 80° | 68km/h | 9127m | 7.5m/s | 0°C | 0% | 0hPa | 0V | 00:00:00 | 00:00:00 | 00:00:00 | |
| EA3GEO | 2026-09-01 11:26:12 | 41.44292 | 2.36225 | 76° | 75km/h | 9081m | 6.8m/s | 0°C | 0% | 0hPa | 0V | 00:00:00 | 00:00:00 | 00:00:00 | |
| EA3GEO | 2026-09-01 11:26:07 | 41.44261 | 2.36106 | 69° | 71km/h | 9049m | 5.2m/s | 0°C | 0% | 0hPa | 0V | 00:00:00 | 00:00:00 | 00:00:00 | |
| EA3GEO | 2026-09-01 11:26:01 | 41.44220 | 2.35973 | 72° | 73km/h | 9017m | 5.2m/s | 0°C | 0% | 0hPa | 0V | 00:00:00 | 00:00:00 | 00:00:00 | |
| EA3GEO | 2026-09-01 11:25:56 | 41.44186 | 2.35847 | 74° | 71km/h | 8977m | 5.6m/s | 0°C | 0% | 0hPa | 0V | 00:00:00 | 00:00:00 | 00:00:00 | |
| EA3GEO | 2026-09-01 11:25:50 | 41.44156 | 2.35722 | 78° | 64km/h | 8945m | 2.7m/s | 0°C | 0% | 0hPa | 0V | 00:00:00 | 00:00:00 | 00:00:00 | |
| EA3GEO | 2026-09-01 11:25:43 | 41.44109 | 2.35564 | 72° | 82km/h | 8899m | 3.4m/s | 0°C | 0% | 0hPa | 0V | 00:00:00 | 00:00:00 | 00:00:00 | |
| EA3GEO | 2026-09-01 11:25:37 | 41.44073 | 2.35426 | 74° | 75km/h | 8859m | 3.8m/s | 0°C | 0% | 0hPa | 0V | 00:00:00 | 00:00:00 | 00:00:00 | |
| EA3GEO | 2026-09-01 11:25:32 | 41.44047 | 2.35303 | 69° | 71km/h | 8839m | 2.6m/s | 0°C | 0% | 0hPa | 0V | 00:00:00 | 00:00:00 | 00:00:00 | |
| EA3GEO | 2026-09-01 11:25:27 | 41.44017 | 2.35190 | 78° | 73km/h | 8809m | 5.4m/s | 0°C | 0% | 0hPa | 0V | 00:00:00 | 00:00:00 | 00:00:00 | |
| EA3GEO | 2026-09-01 11:25:19 | 41.43971 | 2.35010 | 76° | 58km/h | 8770m | 3.8m/s | 0°C | 0% | 0hPa | 0V | 00:00:00 | 00:00:00 | 00:00:00 | |
| EA3GEO | 2026-09-01 11:25:08 | 41.43910 | 2.34757 | 71° | 71km/h | 8725m | 6.3m/s | 0°C | 0% | 0hPa | 0V | 00:00:00 | 00:00:00 | 00:00:00 | |
| EA3GEO | 2026-09-01 11:25:02 | 41.43867 | 2.34619 | 72° | 62km/h | 8701m | 4.3m/s | 0°C | 0% | 0hPa | 0V | 00:00:00 | 00:00:00 | 00:00:00 | |
| EA3GEO | 2026-09-01 11:24:56 | 41.43844 | 2.34486 | 70° | 78km/h | 8679m | 7.7m/s | 0°C | 0% | 0hPa | 0V | 00:00:00 | 00:00:00 | 00:00:00 | |
| EA3GEO | 2026-09-01 11:24:50 | 41.43800 | 2.34353 | 77° | 77km/h | 8635m | 8.8m/s | 0°C | 0% | 0hPa | 0V | 00:00:00 | 00:00:00 | 00:00:00 | |
| EA3GEO | 2026-09-01 11:24:37 | 41.43727 | 2.34053 | 65° | 75km/h | 8547m | 6.1m/s | 0°C | 0% | 0hPa | 0V | 00:00:00 | 00:00:00 | 00:00:00 | |
| EA3GEO | 2026-09-01 11:24:31 | 41.43699 | 2.33905 | 78° | 66km/h | 8518m | 4.8m/s | 0°C | 0% | 0hPa | 0V | 00:00:00 | 00:00:00 | 00:00:00 | |
| EA3GEO | 2026-09-01 11:24:22 | 41.43662 | 2.33700 | 87° | 80km/h | 8467m | 4.9m/s | 0°C | 0% | 0hPa | 0V | 00:00:00 | 00:00:00 | 00:00:00 | |
| EA3GEO | 2026-09-01 11:24:17 | 41.43642 | 2.33592 | 76° | 55km/h | 8443m | 4.7m/s | 0°C | 0% | 0hPa | 0V | 00:00:00 | 00:00:00 | 00:00:00 | |
| EA3GEO | 2026-09-01 11:24:11 | 41.43627 | 2.33461 | 88° | 80km/h | 8411m | 6.0m/s | 0°C | 0% | 0hPa | 0V | 00:00:00 | 00:00:00 | 00:00:00 | |
| EA3GEO | 2026-09-01 11:24:05 | 41.43602 | 2.33319 | 76° | 71km/h | 8379m | 4.9m/s | 0°C | 0% | 0hPa | 0V | 00:00:00 | 00:00:00 | 00:00:00 | |
| EA3GEO | 2026-09-01 11:23:58 | 41.43578 | 2.33172 | 80° | 69km/h | 8339m | 5.5m/s | 0°C | 0% | 0hPa | 0V | 00:00:00 | 00:00:00 | 00:00:00 | |
| EA3GEO | 2026-09-01 11:23:54 | 41.43553 | 2.33067 | 79° | 60km/h | 8308m | 7.7m/s | 0°C | 0% | 0hPa | 0V | 00:00:00 | 00:00:00 | 00:00:00 | |
| EA3GEO | 2026-09-01 11:23:48 | 41.43547 | 2.32934 | 80° | 66km/h | 8275m | 6.3m/s | 0°C | 0% | 0hPa | 0V | 00:00:00 | 00:00:00 | 00:00:00 | |
| EA3GEO | 2026-09-01 11:23:42 | 41.43529 | 2.32813 | 75° | 77km/h | 8235m | 8.0m/s | 0°C | 0% | 0hPa | 0V | 00:00:00 | 00:00:00 | 00:00:00 | |
| EA3GEO | 2026-09-01 11:23:36 | 41.43512 | 2.32673 | 88° | 64km/h | 8203m | 4.1m/s | 0°C | 0% | 0hPa | 0V | 00:00:00 | 00:00:00 | 00:00:00 | |
| EA3GEO | 2026-09-01 11:23:30 | 41.43497 | 2.32526 | 81° | 71km/h | 8166m | 4.8m/s | 0°C | 0% | 0hPa | 0V | 00:00:00 | 00:00:00 | 00:00:00 | |
| EA3GEO | 2026-09-01 11:23:24 | 41.43475 | 2.32379 | 86° | 80km/h | 8130m | 4.2m/s | 0°C | 0% | 0hPa | 0V | 00:00:00 | 00:00:00 | 00:00:00 | |
| EA3GEO | 2026-09-01 11:23:18 | 41.43460 | 2.32238 | 78° | 78km/h | 8092m | 5.2m/s | 0°C | 0% | 0hPa | 0V | 00:00:00 | 00:00:00 | 00:00:00 | |
| EA3GEO | 2026-09-01 11:23:13 | 41.43437 | 2.32106 | 79° | 75km/h | 8065m | 5.1m/s | 0°C | 0% | 0hPa | 0V | 00:00:00 | 00:00:00 | 00:00:00 | |
| EA3GEO | 2026-09-01 11:23:08 | 41.43422 | 2.31993 | 86° | 62km/h | 8034m | 3.7m/s | 0°C | 0% | 0hPa | 0V | 00:00:00 | 00:00:00 | 00:00:00 | |
| EA3GEO | 2026-09-01 11:23:02 | 41.43407 | 2.31861 | 70° | 75km/h | 8009m | 3.2m/s | 0°C | 0% | 0hPa | 0V | 00:00:00 | 00:00:00 | 00:00:00 | |
| EA3GEO | 2026-09-01 11:22:57 | 41.43384 | 2.31741 | 80° | 68km/h | 7980m | 8.4m/s | 0°C | 0% | 0hPa | 0V | 00:00:00 | 00:00:00 | 00:00:00 | |
| EA3GEO | 2026-09-01 11:22:51 | 41.43358 | 2.31610 | 76° | 68km/h | 7941m | 6.5m/s | 0°C | 0% | 0hPa | 0V | 00:00:00 | 00:00:00 | 00:00:00 | |
| EA3GEO | 2026-09-01 11:22:45 | 41.43335 | 2.31445 | 80° | 77km/h | 7906m | 4.9m/s | 0°C | 0% | 0hPa | 0V | 00:00:00 | 00:00:00 | 00:00:00 | |
| EA3GEO | 2026-09-01 11:22:39 | 41.43310 | 2.31292 | 95° | 82km/h | 7862m | 5.7m/s | 0°C | 0% | 0hPa | 0V | 00:00:00 | 00:00:00 | 00:00:00 | |
| EA3GEO | 2026-09-01 11:22:33 | 41.43283 | 2.31145 | 74° | 84km/h | 7834m | 1.8m/s | 0°C | 0% | 0hPa | 0V | 00:00:00 | 00:00:00 | 00:00:00 | |
| EA3GEO | 2026-09-01 11:22:28 | 41.43258 | 2.31011 | 80° | 78km/h | 7812m | 5.4m/s | 0°C | 0% | 0hPa | 0V | 00:00:00 | 00:00:00 | 00:00:00 | |
| EA3GEO | 2026-09-01 11:22:22 | 41.43242 | 2.30853 | 80° | 82km/h | 7778m | 5.8m/s | 0°C | 0% | 0hPa | 0V | 00:00:00 | 00:00:00 | 00:00:00 | |
| EA3GEO | 2026-09-01 11:22:16 | 41.43229 | 2.30695 | 81° | 86km/h | 7738m | 6.6m/s | 0°C | 0% | 0hPa | 0V | 00:00:00 | 00:00:00 | 00:00:00 | |
| EA3GEO | 2026-09-01 11:22:11 | 41.43204 | 2.30563 | 81° | 77km/h | 7707m | 5.3m/s | 0°C | 0% | 0hPa | 0V | 00:00:00 | 00:00:00 | 00:00:00 | |
| EA3GEO | 2026-09-01 11:22:05 | 41.43193 | 2.30404 | 80° | 84km/h | 7678m | 5.4m/s | 0°C | 0% | 0hPa | 0V | 00:00:00 | 00:00:00 | 00:00:00 | |
| EA3GEO | 2026-09-01 11:22:00 | 41.43166 | 2.30266 | 76° | 82km/h | 7653m | 5.8m/s | 0°C | 0% | 0hPa | 0V | 00:00:00 | 00:00:00 | 00:00:00 | |
| EA3GEO | 2026-09-01 11:21:55 | 41.43149 | 2.30134 | 86° | 77km/h | 7621m | 6.4m/s | 0°C | 0% | 0hPa | 0V | 00:00:00 | 00:00:00 | 00:00:00 | |
| EA3GEO | 2026-09-01 11:21:49 | 41.43126 | 2.29989 | 78° | 77km/h | 7589m | 4.5m/s | 0°C | 0% | 0hPa | 0V | 00:00:00 | 00:00:00 | 00:00:00 | |
| EA3GEO | 2026-09-01 11:21:44 | 41.43108 | 2.29872 | 87° | 69km/h | 7564m | 5.5m/s | 0°C | 0% | 0hPa | 0V | 00:00:00 | 00:00:00 | 00:00:00 | |
| EA3GEO | 2026-09-01 11:21:39 | 41.43097 | 2.29745 | 77° | 71km/h | 7530m | 5.7m/s | 0°C | 0% | 0hPa | 0V | 00:00:00 | 00:00:00 | 00:00:00 | |
| EA3GEO | 2026-09-01 11:21:33 | 41.43080 | 2.29597 | 79° | 82km/h | 7504m | 2.2m/s | 0°C | 0% | 0hPa | 0V | 00:00:00 | 00:00:00 | 00:00:00 | |
| EA3GEO | 2026-09-01 11:21:28 | 41.43061 | 2.29469 | 83° | 69km/h | 7477m | 6.7m/s | 0°C | 0% | 0hPa | 0V | 00:00:00 | 00:00:00 | 00:00:00 | |
| EA3GEO | 2026-09-01 11:21:22 | 41.43040 | 2.29328 | 84° | 71km/h | 7443m | 8.2m/s | 0°C | 0% | 0hPa | 0V | 00:00:00 | 00:00:00 | 00:00:00 | |
| EA3GEO | 2026-09-01 11:21:16 | 41.43027 | 2.29183 | 81° | 71km/h | 7405m | 7.2m/s | 0°C | 0% | 0hPa | 0V | 00:00:00 | 00:00:00 | 00:00:00 | |
| EA3GEO | 2026-09-01 11:21:10 | 41.42999 | 2.29040 | 69° | 77km/h | 7370m | 4.7m/s | 0°C | 0% | 0hPa | 0V | 00:00:00 | 00:00:00 | 00:00:00 | |
| EA3GEO | 2026-09-01 11:21:05 | 41.42980 | 2.28928 | 86° | 71km/h | 7333m | 6.8m/s | 0°C | 0% | 0hPa | 0V | 00:00:00 | 00:00:00 | 00:00:00 | |
| EA3GEO | 2026-09-01 11:21:00 | 41.42960 | 2.28795 | 79° | 75km/h | 7306m | 2.5m/s | 0°C | 0% | 0hPa | 0V | 00:00:00 | 00:00:00 | 00:00:00 | |
| EA3GEO | 2026-09-01 11:20:56 | 41.42949 | 2.28645 | 79° | 64km/h | 7265m | 9.0m/s | 0°C | 0% | 0hPa | 0V | 00:00:00 | 00:00:00 | 00:00:00 | |
| EA3GEO | 2026-09-01 11:20:49 | 41.42933 | 2.28527 | 83° | 78km/h | 7230m | 6.6m/s | 0°C | 0% | 0hPa | 0V | 00:00:00 | 00:00:00 | 00:00:00 | |
| EA3GEO | 2026-09-01 11:20:44 | 41.42907 | 2.28377 | 71° | 69km/h | 7190m | 6.4m/s | 0°C | 0% | 0hPa | 0V | 00:00:00 | 00:00:00 | 00:00:00 | |
| EA3GEO | 2026-09-01 11:20:38 | 41.42893 | 2.28265 | 88° | 73km/h | 7154m | 6.7m/s | 0°C | 0% | 0hPa | 0V | 00:00:00 | 00:00:00 | 00:00:00 | |
| EA3GEO | 2026-09-01 11:20:31 | 41.42881 | 2.28094 | 87° | 82km/h | 7115m | 3.7m/s | 0°C | 0% | 0hPa | 0V | 00:00:00 | 00:00:00 | 00:00:00 | |
| EA3GEO | 2026-09-01 11:20:25 | 41.42860 | 2.27924 | 78° | 77km/h | 7087m | 3.9m/s | 0°C | 0% | 0hPa | 0V | 00:00:00 | 00:00:00 | 00:00:00 | |
| EA3GEO | 2026-09-01 11:20:20 | 41.42841 | 2.27791 | 83° | 86km/h | 7069m | 4.8m/s | 0°C | 0% | 0hPa | 0V | 00:00:00 | 00:00:00 | 00:00:00 | |
| EA3GEO | 2026-09-01 11:20:14 | 41.42805 | 2.27627 | 75° | 80km/h | 7037m | 2.5m/s | 0°C | 0% | 0hPa | 0V | 00:00:00 | 00:00:00 | 00:00:00 | |
| EA3GEO | 2026-09-01 11:20:09 | 41.42776 | 2.27490 | 82° | 78km/h | 7010m | 4.4m/s | 0°C | 0% | 0hPa | 0V | 00:00:00 | 00:00:00 | 00:00:00 | |
| EA3GEO | 2026-09-01 11:20:04 | 41.42756 | 2.27371 | 74° | 68km/h | 6990m | 4.0m/s | 0°C | 0% | 0hPa | 0V | 00:00:00 | 00:00:00 | 00:00:00 | |
| EA3GEO | 2026-09-01 11:19:58 | 41.42731 | 2.27222 | 82° | 75km/h | 6955m | 4.9m/s | 0°C | 0% | 0hPa | 0V | 00:00:00 | 00:00:00 | 00:00:00 | |
| EA3GEO | 2026-09-01 11:19:52 | 41.42707 | 2.27060 | 79° | 73km/h | 6915m | 6.0m/s | 0°C | 0% | 0hPa | 0V | 00:00:00 | 00:00:00 | 00:00:00 | |
| EA3GEO | 2026-09-01 11:19:47 | 41.42691 | 2.26934 | 79° | 80km/h | 6885m | 7.1m/s | 0°C | 0% | 0hPa | 0V | 00:00:00 | 00:00:00 | 00:00:00 | |
| EA3GEO | 2026-09-01 11:19:40 | 41.42649 | 2.26760 | 70° | 75km/h | 6848m | 4.3m/s | 0°C | 0% | 0hPa | 0V | 00:00:00 | 00:00:00 | 00:00:00 | |
| EA3GEO | 2026-09-01 11:19:34 | 41.42618 | 2.26595 | 93° | 77km/h | 6807m | 5.1m/s | 0°C | 0% | 0hPa | 0V | 00:00:00 | 00:00:00 | 00:00:00 | |
| EA3GEO | 2026-09-01 11:19:29 | 41.42604 | 2.26469 | 78° | 77km/h | 6780m | 7.0m/s | 0°C | 0% | 0hPa | 0V | 00:00:00 | 00:00:00 | 00:00:00 | |
| EA3GEO | 2026-09-01 11:19:23 | 41.42567 | 2.26297 | 79° | 82km/h | 6744m | 4.6m/s | 0°C | 0% | 0hPa | 0V | 00:00:00 | 00:00:00 | 00:00:00 | |
| EA3GEO | 2026-09-01 11:19:17 | 41.42538 | 2.26119 | 78° | 97km/h | 6701m | 7.7m/s | 0°C | 0% | 0hPa | 0V | 00:00:00 | 00:00:00 | 00:00:00 | |
| EA3GEO | 2026-09-01 11:19:12 | 41.42527 | 2.25984 | 90° | 66km/h | 6672m | 1.5m/s | 0°C | 0% | 0hPa | 0V | 00:00:00 | 00:00:00 | 00:00:00 | |
| EA3GEO | 2026-09-01 11:19:07 | 41.42499 | 2.25847 | 65° | 89km/h | 6644m | 8.0m/s | 0°C | 0% | 0hPa | 0V | 00:00:00 | 00:00:00 | 00:00:00 | |
| EA3GEO | 2026-09-01 11:19:01 | 41.42474 | 2.25688 | 72° | 78km/h | 6600m | 4.8m/s | 0°C | 0% | 0hPa | 0V | 00:00:00 | 00:00:00 | 00:00:00 | |
| EA3GEO | 2026-09-01 11:18:55 | 41.42436 | 2.25546 | 84° | 77km/h | 6565m | 5.9m/s | 0°C | 0% | 0hPa | 0V | 00:00:00 | 00:00:00 | 00:00:00 | |
| EA3GEO | 2026-09-01 11:18:51 | 41.42419 | 2.25419 | 74° | 69km/h | 6533m | 4.9m/s | 0°C | 0% | 0hPa | 0V | 00:00:00 | 00:00:00 | 00:00:00 | |
| EA3GEO | 2026-09-01 11:18:44 | 41.42380 | 2.25271 | 68° | 86km/h | 6500m | 7.2m/s | 0°C | 0% | 0hPa | 0V | 00:00:00 | 00:00:00 | 00:00:00 | |
| EA3GEO | 2026-09-01 11:18:38 | 41.42350 | 2.25107 | 83° | 99km/h | 6462m | 7.3m/s | 0°C | 0% | 0hPa | 0V | 00:00:00 | 00:00:00 | 00:00:00 | |
| EA3GEO | 2026-09-01 11:18:32 | 41.42325 | 2.24930 | 81° | 89km/h | 6425m | 5.4m/s | 0°C | 0% | 0hPa | 0V | 00:00:00 | 00:00:00 | 00:00:00 | |
| EA3GEO | 2026-09-01 11:18:27 | 41.42296 | 2.24782 | 80° | 80km/h | 6397m | 3.2m/s | 0°C | 0% | 0hPa | 0V | 00:00:00 | 00:00:00 | 00:00:00 | |
| EA3GEO | 2026-09-01 11:18:21 | 41.42265 | 2.24615 | 65° | 82km/h | 6364m | 2.6m/s | 0°C | 0% | 0hPa | 0V | 00:00:00 | 00:00:00 | 00:00:00 | |
| EA3GEO | 2026-09-01 11:18:15 | 41.42223 | 2.24466 | 75° | 84km/h | 6333m | 5.5m/s | 0°C | 0% | 0hPa | 0V | 00:00:00 | 00:00:00 | 00:00:00 | |
| EA3GEO | 2026-09-01 11:18:10 | 41.42196 | 2.24326 | 74° | 89km/h | 6308m | 6.2m/s | 0°C | 0% | 0hPa | 0V | 00:00:00 | 00:00:00 | 00:00:00 | |
| EA3GEO | 2026-09-01 11:18:05 | 41.42180 | 2.24194 | 90° | 71km/h | 6284m | 3.3m/s | 0°C | 0% | 0hPa | 0V | 00:00:00 | 00:00:00 | 00:00:00 | |
| EA3GEO | 2026-09-01 11:17:59 | 41.42158 | 2.24043 | 75° | 69km/h | 6244m | 7.0m/s | 0°C | 0% | 0hPa | 0V | 00:00:00 | 00:00:00 | 00:00:00 | |
| EA3GEO | 2026-09-01 11:17:53 | 41.42134 | 2.23885 | 88° | 77km/h | 6209m | 2.5m/s | 0°C | 0% | 0hPa | 0V | 00:00:00 | 00:00:00 | 00:00:00 | |
| EA3GEO | 2026-09-01 11:17:48 | 41.42119 | 2.23752 | 75° | 86km/h | 6180m | 5.9m/s | 0°C | 0% | 0hPa | 0V | 00:00:00 | 00:00:00 | 00:00:00 | |
| EA3GEO | 2026-09-01 11:17:42 | 41.42094 | 2.23589 | 83° | 75km/h | 6139m | 7.2m/s | 0°C | 0% | 0hPa | 0V | 00:00:00 | 00:00:00 | 00:00:00 | |
| EA3GEO | 2026-09-01 11:17:37 | 41.42088 | 2.23474 | 90° | 73km/h | 6108m | 4.1m/s | 0°C | 0% | 0hPa | 0V | 00:00:00 | 00:00:00 | 00:00:00 | |
| EA3GEO | 2026-09-01 11:17:31 | 41.42076 | 2.23330 | 85° | 68km/h | 6078m | 4.4m/s | 0°C | 0% | 0hPa | 0V | 00:00:00 | 00:00:00 | 00:00:00 | |
| EA3GEO | 2026-09-01 11:17:26 | 41.42064 | 2.23202 | 77° | 84km/h | 6054m | 3.8m/s | 0°C | 0% | 0hPa | 0V | 00:00:00 | 00:00:00 | 00:00:00 | |
| EA3GEO | 2026-09-01 11:17:20 | 41.42041 | 2.23056 | 82° | 66km/h | 6019m | 4.9m/s | 0°C | 0% | 0hPa | 0V | 00:00:00 | 00:00:00 | 00:00:00 | |
| EA3GEO | 2026-09-01 11:17:14 | 41.42007 | 2.22916 | 81° | 75km/h | 5980m | 6.4m/s | 0°C | 0% | 0hPa | 0V | 00:00:00 | 00:00:00 | 00:00:00 | |
| EA3GEO | 2026-09-01 11:17:08 | 41.41971 | 2.22777 | 68° | 66km/h | 5945m | 3.0m/s | 0°C | 0% | 0hPa | 0V | 00:00:00 | 00:00:00 | 00:00:00 | |
| EA3GEO | 2026-09-01 11:17:03 | 41.41953 | 2.22659 | 84° | 86km/h | 5922m | 2.3m/s | 0°C | 0% | 0hPa | 0V | 00:00:00 | 00:00:00 | 00:00:00 | |
| EA3GEO | 2026-09-01 11:16:57 | 41.41928 | 2.22513 | 73° | 69km/h | 5882m | 5.9m/s | 0°C | 0% | 0hPa | 0V | 00:00:00 | 00:00:00 | 00:00:00 | |
| EA3GEO | 2026-09-01 11:16:51 | 41.41886 | 2.22367 | 71° | 82km/h | 5850m | 6.0m/s | 0°C | 0% | 0hPa | 0V | 00:00:00 | 00:00:00 | 00:00:00 | |
| EA3GEO | 2026-09-01 11:16:46 | 41.41857 | 2.22250 | 74° | 66km/h | 5816m | 4.9m/s | 0°C | 0% | 0hPa | 0V | 00:00:00 | 00:00:00 | 00:00:00 | |
| EA3GEO | 2026-09-01 11:16:41 | 41.41832 | 2.22152 | 65° | 60km/h | 5786m | 4.8m/s | 0°C | 0% | 0hPa | 0V | 00:00:00 | 00:00:00 | 00:00:00 | |
| EA3GEO | 2026-09-01 11:16:35 | 41.41798 | 2.22039 | 73° | 69km/h | 5752m | 5.1m/s | 0°C | 0% | 0hPa | 0V | 00:00:00 | 00:00:00 | 00:00:00 | |
| EA3GEO | 2026-09-01 11:16:30 | 41.41775 | 2.21940 | 85° | 66km/h | 5726m | 2.5m/s | 0°C | 0% | 0hPa | 0V | 00:00:00 | 00:00:00 | 00:00:00 | |
| EA3GEO | 2026-09-01 11:16:25 | 41.41751 | 2.21833 | 63° | 68km/h | 5706m | 4.6m/s | 0°C | 0% | 0hPa | 0V | 00:00:00 | 00:00:00 | 00:00:00 | |
| EA3GEO | 2026-09-01 11:16:19 | 41.41729 | 2.21692 | 83° | 78km/h | 5682m | 5.1m/s | 0°C | 0% | 0hPa | 0V | 00:00:00 | 00:00:00 | 00:00:00 | |
| EA3GEO | 2026-09-01 11:16:14 | 41.41707 | 2.21583 | 77° | 62km/h | 5649m | 6.8m/s | 0°C | 0% | 0hPa | 0V | 00:00:00 | 00:00:00 | 00:00:00 | |
| EA3GEO | 2026-09-01 11:16:08 | 41.41685 | 2.21451 | 68° | 62km/h | 5613m | 4.6m/s | 0°C | 0% | 0hPa | 0V | 00:00:00 | 00:00:00 | 00:00:00 | |
| EA3GEO | 2026-09-01 11:16:03 | 41.41660 | 2.21366 | 70° | 55km/h | 5592m | 5.7m/s | 0°C | 0% | 0hPa | 0V | 00:00:00 | 00:00:00 | 00:00:00 | |
| EA3GEO | 2026-09-01 11:15:57 | 41.41621 | 2.21245 | 82° | 68km/h | 5547m | 4.7m/s | 0°C | 0% | 0hPa | 0V | 00:00:00 | 00:00:00 | 00:00:00 | |
| EA3GEO | 2026-09-01 11:15:51 | 41.41606 | 2.21123 | 78° | 58km/h | 5517m | 5.3m/s | 0°C | 0% | 0hPa | 0V | 00:00:00 | 00:00:00 | 00:00:00 | |
| EA3GEO | 2026-09-01 11:15:46 | 41.41593 | 2.21023 | 85° | 66km/h | 5491m | 5.7m/s | 0°C | 0% | 0hPa | 0V | 00:00:00 | 00:00:00 | 00:00:00 | |
| EA3GEO | 2026-09-01 11:15:40 | 41.41581 | 2.20889 | 89° | 68km/h | 5455m | 5.4m/s | 0°C | 0% | 0hPa | 0V | 00:00:00 | 00:00:00 | 00:00:00 | |
| EA3GEO | 2026-09-01 11:15:35 | 41.41576 | 2.20784 | 87° | 57km/h | 5427m | 7.1m/s | 0°C | 0% | 0hPa | 0V | 00:00:00 | 00:00:00 | 00:00:00 | |
| EA3GEO | 2026-09-01 11:15:30 | 41.41562 | 2.20695 | 66° | 53km/h | 5394m | 7.0m/s | 0°C | 0% | 0hPa | 0V | 00:00:00 | 00:00:00 | 00:00:00 | |
| EA3GEO | 2026-09-01 11:15:24 | 41.41536 | 2.20577 | 80° | 58km/h | 5355m | 6.5m/s | 0°C | 0% | 0hPa | 0V | 00:00:00 | 00:00:00 | 00:00:00 | |
| EA3GEO | 2026-09-01 11:15:18 | 41.41520 | 2.20466 | 72° | 60km/h | 5325m | 4.7m/s | 0°C | 0% | 0hPa | 0V | 00:00:00 | 00:00:00 | 00:00:00 | |
| EA3GEO | 2026-09-01 11:15:12 | 41.41499 | 2.20361 | 82° | 57km/h | 5298m | 3.8m/s | 0°C | 0% | 0hPa | 0V | 00:00:00 | 00:00:00 | 00:00:00 | |
| EA3GEO | 2026-09-01 11:15:07 | 41.41488 | 2.20269 | 80° | 51km/h | 5276m | 4.4m/s | 0°C | 0% | 0hPa | 0V | 00:00:00 | 00:00:00 | 00:00:00 | |
| EA3GEO | 2026-09-01 11:15:01 | 41.41458 | 2.20156 | 77° | 49km/h | 5247m | 5.2m/s | 0°C | 0% | 0hPa | 0V | 00:00:00 | 00:00:00 | 00:00:00 | |
| EA3GEO | 2026-09-01 11:14:56 | 41.41452 | 2.20059 | 88° | 55km/h | 5213m | 2.0m/s | 0°C | 0% | 0hPa | 0V | 00:00:00 | 00:00:00 | 00:00:00 | |
| EA3GEO | 2026-09-01 11:14:49 | 41.41441 | 2.19931 | 98° | 51km/h | 5175m | 4.2m/s | 0°C | 0% | 0hPa | 0V | 00:00:00 | 00:00:00 | 00:00:00 | |
| EA3GEO | 2026-09-01 11:14:44 | 41.41439 | 2.19856 | 86° | 46km/h | 5154m | 4.4m/s | 0°C | 0% | 0hPa | 0V | 00:00:00 | 00:00:00 | 00:00:00 | |
| EA3GEO | 2026-09-01 11:14:38 | 41.41436 | 2.19763 | 94° | 53km/h | 5117m | 4.7m/s | 0°C | 0% | 0hPa | 0V | 00:00:00 | 00:00:00 | 00:00:00 | |
| EA3GEO | 2026-09-01 11:14:33 | 41.41430 | 2.19658 | 80° | 64km/h | 5088m | 5.5m/s | 0°C | 0% | 0hPa | 0V | 00:00:00 | 00:00:00 | 00:00:00 | |
| EA3GEO | 2026-09-01 11:14:27 | 41.41425 | 2.19554 | 79° | 47km/h | 5051m | 4.6m/s | 0°C | 0% | 0hPa | 0V | 00:00:00 | 00:00:00 | 00:00:00 | |
| EA3GEO | 2026-09-01 11:14:21 | 41.41403 | 2.19437 | 63° | 62km/h | 5017m | 2.9m/s | 0°C | 0% | 0hPa | 0V | 00:00:00 | 00:00:00 | 00:00:00 | |
| EA3GEO | 2026-09-01 11:14:15 | 41.41367 | 2.19330 | 81° | 69km/h | 4977m | 8.5m/s | 0°C | 0% | 0hPa | 0V | 00:00:00 | 00:00:00 | 00:00:00 | |
| EA3GEO | 2026-09-01 11:14:09 | 41.41353 | 2.19211 | 88° | 53km/h | 4932m | 4.7m/s | 0°C | 0% | 0hPa | 0V | 00:00:00 | 00:00:00 | 00:00:00 | |
| EA3GEO | 2026-09-01 11:14:03 | 41.41350 | 2.19106 | 77° | 55km/h | 4900m | 4.3m/s | 0°C | 0% | 0hPa | 0V | 00:00:00 | 00:00:00 | 00:00:00 | |
| EA3GEO | 2026-09-01 11:13:57 | 41.41318 | 2.18997 | 80° | 57km/h | 4866m | 5.9m/s | 0°C | 0% | 0hPa | 0V | 00:00:00 | 00:00:00 | 00:00:00 | |
| EA3GEO | 2026-09-01 11:13:51 | 41.41292 | 2.18886 | 69° | 69km/h | 4821m | 8.3m/s | 0°C | 0% | 0hPa | 0V | 00:00:00 | 00:00:00 | 00:00:00 | |
| EA3GEO | 2026-09-01 11:13:45 | 41.41257 | 2.18778 | 61° | 57km/h | 4778m | 5.3m/s | 0°C | 0% | 0hPa | 0V | 00:00:00 | 00:00:00 | 00:00:00 | |
| EA3GEO | 2026-09-01 11:13:39 | 41.41212 | 2.18666 | 65° | 60km/h | 4744m | 6.5m/s | 0°C | 0% | 0hPa | 0V | 00:00:00 | 00:00:00 | 00:00:00 | |
| EA3GEO | 2026-09-01 11:13:34 | 41.41189 | 2.18578 | 66° | 58km/h | 4719m | 7.2m/s | 0°C | 0% | 0hPa | 0V | 00:00:00 | 00:00:00 | 00:00:00 | |
| EA3GEO | 2026-09-01 11:13:28 | 41.41146 | 2.18468 | 69° | 66km/h | 4683m | 7.9m/s | 0°C | 0% | 0hPa | 0V | 00:00:00 | 00:00:00 | 00:00:00 | |
| EA3GEO | 2026-09-01 11:13:22 | 41.41109 | 2.18346 | 76° | 57km/h | 4644m | 6.9m/s | 0°C | 0% | 0hPa | 0V | 00:00:00 | 00:00:00 | 00:00:00 | |
| EA3GEO | 2026-09-01 11:13:17 | 41.41077 | 2.18254 | 62° | 73km/h | 4620m | 5.3m/s | 0°C | 0% | 0hPa | 0V | 00:00:00 | 00:00:00 | 00:00:00 | |
| EA3GEO | 2026-09-01 11:13:11 | 41.41047 | 2.18130 | 74° | 55km/h | 4581m | 7.7m/s | 0°C | 0% | 0hPa | 0V | 00:00:00 | 00:00:00 | 00:00:00 | |
| EA3GEO | 2026-09-01 11:13:06 | 41.41035 | 2.18027 | 84° | 66km/h | 4553m | 4.1m/s | 0°C | 0% | 0hPa | 0V | 00:00:00 | 00:00:00 | 00:00:00 | |
| EA3GEO | 2026-09-01 11:13:01 | 41.41012 | 2.17929 | 68° | 73km/h | 4522m | 6.2m/s | 0°C | 0% | 0hPa | 0V | 00:00:00 | 00:00:00 | 00:00:00 | |
| EA3GEO | 2026-09-01 11:12:55 | 41.40972 | 2.17796 | 79° | 68km/h | 4489m | 6.8m/s | 0°C | 0% | 0hPa | 0V | 00:00:00 | 00:00:00 | 00:00:00 | |
| EA3GEO | 2026-09-01 11:12:50 | 41.40956 | 2.17666 | 77° | 84km/h | 4460m | 3.8m/s | 0°C | 0% | 0hPa | 0V | 00:00:00 | 00:00:00 | 00:00:00 | |
| EA3GEO | 2026-09-01 11:12:44 | 41.40928 | 2.17547 | 81° | 57km/h | 4419m | 4.9m/s | 0°C | 0% | 0hPa | 0V | 00:00:00 | 00:00:00 | 00:00:00 | |
| EA3GEO | 2026-09-01 11:12:38 | 41.40909 | 2.17406 | 70° | 78km/h | 4385m | 4.3m/s | 0°C | 0% | 0hPa | 0V | 00:00:00 | 00:00:00 | 00:00:00 | |
| EA3GEO | 2026-09-01 11:12:33 | 41.40884 | 2.17299 | 74° | 57km/h | 4361m | 5.4m/s | 0°C | 0% | 0hPa | 0V | 00:00:00 | 00:00:00 | 00:00:00 | |
| EA3GEO | 2026-09-01 11:12:27 | 41.40863 | 2.17185 | 88° | 58km/h | 4329m | 3.2m/s | 0°C | 0% | 0hPa | 0V | 00:00:00 | 00:00:00 | 00:00:00 | |
| EA3GEO | 2026-09-01 11:12:22 | 41.40844 | 2.17085 | 69° | 66km/h | 4299m | 4.4m/s | 0°C | 0% | 0hPa | 0V | 00:00:00 | 00:00:00 | 00:00:00 | |
| EA3GEO | 2026-09-01 11:12:16 | 41.40811 | 2.16949 | 74° | 82km/h | 4261m | 3.6m/s | 0°C | 0% | 0hPa | 0V | 00:00:00 | 00:00:00 | 00:00:00 | |
| EA3GEO | 2026-09-01 11:12:10 | 41.40779 | 2.16800 | 81° | 73km/h | 4235m | 5.2m/s | 0°C | 0% | 0hPa | 0V | 00:00:00 | 00:00:00 | 00:00:00 | |
| EA3GEO | 2026-09-01 11:12:04 | 41.40739 | 2.16655 | 73° | 78km/h | 4207m | 5.0m/s | 0°C | 0% | 0hPa | 0V | 00:00:00 | 00:00:00 | 00:00:00 | |
| EA3GEO | 2026-09-01 11:11:59 | 41.40729 | 2.16544 | 88° | 55km/h | 4180m | 4.1m/s | 0°C | 0% | 0hPa | 0V | 00:00:00 | 00:00:00 | 00:00:00 | |
| EA3GEO | 2026-09-01 11:11:53 | 41.40714 | 2.16417 | 77° | 57km/h | 4143m | 3.4m/s | 0°C | 0% | 0hPa | 0V | 00:00:00 | 00:00:00 | 00:00:00 | |
| EA3GEO | 2026-09-01 11:11:48 | 41.40694 | 2.16314 | 91° | 58km/h | 4115m | 5.6m/s | 0°C | 0% | 0hPa | 0V | 00:00:00 | 00:00:00 | 00:00:00 | |
| EA3GEO | 2026-09-01 11:11:42 | 41.40692 | 2.16217 | 89° | 60km/h | 4078m | 1.4m/s | 0°C | 0% | 0hPa | 0V | 00:00:00 | 00:00:00 | 00:00:00 | |
| EA3GEO | 2026-09-01 11:11:36 | 41.40664 | 2.16108 | 58° | 35km/h | 4044m | 5.5m/s | 0°C | 0% | 0hPa | 0V | 00:00:00 | 00:00:00 | 00:00:00 | |
| EA3GEO | 2026-09-01 11:11:31 | 41.40654 | 2.16048 | 85° | 49km/h | 4012m | 7.5m/s | 0°C | 0% | 0hPa | 0V | 00:00:00 | 00:00:00 | 00:00:00 | |
| EA3GEO | 2026-09-01 11:11:20 | 41.40638 | 2.15862 | 69° | 62km/h | 3946m | 2.2m/s | 0°C | 0% | 0hPa | 0V | 00:00:00 | 00:00:00 | 00:00:00 | |
| EA3GEO | 2026-09-01 11:11:14 | 41.40619 | 2.15773 | 102° | 44km/h | 3911m | 6.2m/s | 0°C | 0% | 0hPa | 0V | 00:00:00 | 00:00:00 | 00:00:00 | |
| EA3GEO | 2026-09-01 11:11:09 | 41.40608 | 2.15697 | 57° | 42km/h | 3877m | 5.9m/s | 0°C | 0% | 0hPa | 0V | 00:00:00 | 00:00:00 | 00:00:00 | |
| EA3GEO | 2026-09-01 11:11:03 | 41.40599 | 2.15624 | 78° | 51km/h | 3836m | 6.3m/s | 0°C | 0% | 0hPa | 0V | 00:00:00 | 00:00:00 | 00:00:00 | |
| EA3GEO | 2026-09-01 11:10:58 | 41.40574 | 2.15565 | 60° | 37km/h | 3804m | 4.3m/s | 0°C | 0% | 0hPa | 0V | 00:00:00 | 00:00:00 | 00:00:00 | |
| EA3GEO | 2026-09-01 11:10:52 | 41.40570 | 2.15495 | 89° | 44km/h | 3776m | 4.3m/s | 0°C | 0% | 0hPa | 0V | 00:00:00 | 00:00:00 | 00:00:00 | |
| EA3GEO | 2026-09-01 11:10:47 | 41.40546 | 2.15437 | 61° | 35km/h | 3747m | 5.9m/s | 0°C | 0% | 0hPa | 0V | 00:00:00 | 00:00:00 | 00:00:00 | |
| EA3GEO | 2026-09-01 11:10:41 | 41.40522 | 2.15375 | 57° | 38km/h | 3706m | 4.1m/s | 0°C | 0% | 0hPa | 0V | 00:00:00 | 00:00:00 | 00:00:00 | |
| EA3GEO | 2026-09-01 11:10:35 | 41.40488 | 2.15306 | 56° | 42km/h | 3672m | 6.2m/s | 0°C | 0% | 0hPa | 0V | 00:00:00 | 00:00:00 | 00:00:00 | |
| EA3GEO | 2026-09-01 11:10:30 | 41.40460 | 2.15231 | 79° | 55km/h | 3652m | 4.0m/s | 0°C | 0% | 0hPa | 0V | 00:00:00 | 00:00:00 | 00:00:00 | |
| EA3GEO | 2026-09-01 11:10:24 | 41.40454 | 2.15166 | 67° | 27km/h | 3617m | 3.5m/s | 0°C | 0% | 0hPa | 0V | 00:00:00 | 00:00:00 | 00:00:00 | |
| EA3GEO | 2026-09-01 11:10:19 | 41.40431 | 2.15116 | 71° | 24km/h | 3590m | 3.9m/s | 0°C | 0% | 0hPa | 0V | 00:00:00 | 00:00:00 | 00:00:00 | |
| EA3GEO | 2026-09-01 11:10:14 | 41.40424 | 2.15075 | 68° | 42km/h | 3562m | 5.1m/s | 0°C | 0% | 0hPa | 0V | 00:00:00 | 00:00:00 | 00:00:00 | |
| EA3GEO | 2026-09-01 11:10:08 | 41.40403 | 2.14993 | 60° | 38km/h | 3527m | 6.6m/s | 0°C | 0% | 0hPa | 0V | 00:00:00 | 00:00:00 | 00:00:00 | |
| EA3GEO | 2026-09-01 11:10:03 | 41.40399 | 2.14941 | 89° | 35km/h | 3502m | 3.2m/s | 0°C | 0% | 0hPa | 0V | 00:00:00 | 00:00:00 | 00:00:00 | |
| EA3GEO | 2026-09-01 11:09:57 | 41.40381 | 2.14879 | 76° | 27km/h | 3469m | 2.8m/s | 0°C | 0% | 0hPa | 0V | 00:00:00 | 00:00:00 | 00:00:00 | |
| EA3GEO | 2026-09-01 11:09:52 | 41.40372 | 2.14835 | 89° | 33km/h | 3446m | 5.1m/s | 0°C | 0% | 0hPa | 0V | 00:00:00 | 00:00:00 | 00:00:00 | |
| EA3GEO | 2026-09-01 11:09:46 | 41.40370 | 2.14773 | 73° | 20km/h | 3409m | 5.1m/s | 0°C | 0% | 0hPa | 0V | 00:00:00 | 00:00:00 | 00:00:00 | |
| EA3GEO | 2026-09-01 11:09:40 | 41.40365 | 2.14720 | 84° | 29km/h | 3379m | 5.2m/s | 0°C | 0% | 0hPa | 0V | 00:00:00 | 00:00:00 | 00:00:00 | |
| EA3GEO | 2026-09-01 11:09:34 | 41.40359 | 2.14656 | 84° | 33km/h | 3346m | 4.5m/s | 0°C | 0% | 0hPa | 0V | 00:00:00 | 00:00:00 | 00:00:00 | |
| EA3GEO | 2026-09-01 11:09:28 | 41.40338 | 2.14566 | 62° | 46km/h | 3316m | 5.7m/s | 0°C | 0% | 0hPa | 0V | 00:00:00 | 00:00:00 | 00:00:00 | |
| EA3GEO | 2026-09-01 11:09:22 | 41.40323 | 2.14485 | 68° | 42km/h | 3282m | 3.9m/s | 0°C | 0% | 0hPa | 0V | 00:00:00 | 00:00:00 | 00:00:00 | |
| EA3GEO | 2026-09-01 11:09:16 | 41.40283 | 2.14418 | 47° | 33km/h | 3245m | 4.3m/s | 0°C | 0% | 0hPa | 0V | 00:00:00 | 00:00:00 | 00:00:00 | |
| EA3GEO | 2026-09-01 11:09:07 | 41.40265 | 2.14354 | 44° | 38km/h | 3194m | 4.0m/s | 0°C | 0% | 0hPa | 0V | 00:00:00 | 00:00:00 | 00:00:00 | |
| EA3GEO | 2026-09-01 11:09:01 | 41.40231 | 2.14273 | 70° | 37km/h | 3166m | 5.1m/s | 0°C | 0% | 0hPa | 0V | 00:00:00 | 00:00:00 | 00:00:00 | |
| EA3GEO | 2026-09-01 11:08:56 | 41.40222 | 2.14237 | 64° | 31km/h | 3136m | 5.2m/s | 0°C | 0% | 0hPa | 0V | 00:00:00 | 00:00:00 | 00:00:00 | |
| EA3GEO | 2026-09-01 11:08:51 | 41.40193 | 2.14176 | 56° | 42km/h | 3110m | 3.9m/s | 0°C | 0% | 0hPa | 0V | 00:00:00 | 00:00:00 | 00:00:00 | |
| EA3GEO | 2026-09-01 11:08:45 | 41.40182 | 2.14121 | 87° | 33km/h | 3075m | 3.6m/s | 0°C | 0% | 0hPa | 0V | 00:00:00 | 00:00:00 | 00:00:00 | |
| EA3GEO | 2026-09-01 11:08:40 | 41.40169 | 2.14060 | 57° | 38km/h | 3046m | 5.4m/s | 0°C | 0% | 0hPa | 0V | 00:00:00 | 00:00:00 | 00:00:00 | |
| EA3GEO | 2026-09-01 11:08:34 | 41.40146 | 2.14022 | 85° | 24km/h | 3014m | 4.5m/s | 0°C | 0% | 0hPa | 0V | 00:00:00 | 00:00:00 | 00:00:00 | |
| EA3GEO | 2026-09-01 11:08:29 | 41.40127 | 2.13971 | 64° | 35km/h | 2980m | 4.6m/s | 0°C | 0% | 0hPa | 0V | 00:00:00 | 00:00:00 | 00:00:00 | |
| EA3GEO | 2026-09-01 11:08:24 | 41.40107 | 2.13937 | 38° | 33km/h | 2954m | 2.8m/s | 0°C | 0% | 0hPa | 0V | 00:00:00 | 00:00:00 | 00:00:00 | |
| EA3GEO | 2026-09-01 11:08:19 | 41.40092 | 2.13895 | 89° | 38km/h | 2923m | 6.9m/s | 0°C | 0% | 0hPa | 0V | 00:00:00 | 00:00:00 | 00:00:00 | |
| EA3GEO | 2026-09-01 11:08:13 | 41.40066 | 2.13837 | 42° | 29km/h | 2883m | 6.5m/s | 0°C | 0% | 0hPa | 0V | 00:00:00 | 00:00:00 | 00:00:00 | |
| EA3GEO | 2026-09-01 11:08:08 | 41.40052 | 2.13790 | 90° | 18km/h | 2857m | 2.3m/s | 0°C | 0% | 0hPa | 0V | 00:00:00 | 00:00:00 | 00:00:00 | |
| EA3GEO | 2026-09-01 11:08:02 | 41.40027 | 2.13758 | 52° | 35km/h | 2823m | 6.6m/s | 0°C | 0% | 0hPa | 0V | 00:00:00 | 00:00:00 | 00:00:00 | |
| EA3GEO | 2026-09-01 11:07:57 | 41.39998 | 2.13733 | 49° | 20km/h | 2796m | 3.1m/s | 0°C | 0% | 0hPa | 0V | 00:00:00 | 00:00:00 | 00:00:00 | |
| EA3GEO | 2026-09-01 11:07:51 | 41.39975 | 2.13688 | 24° | 26km/h | 2760m | 2.9m/s | 0°C | 0% | 0hPa | 0V | 00:00:00 | 00:00:00 | 00:00:00 | |
| EA3GEO | 2026-09-01 11:07:46 | 41.39952 | 2.13652 | 66° | 38km/h | 2737m | 7.5m/s | 0°C | 0% | 0hPa | 0V | 00:00:00 | 00:00:00 | 00:00:00 | |
| EA3GEO | 2026-09-01 11:07:40 | 41.39943 | 2.13605 | 90° | 27km/h | 2700m | 2.7m/s | 0°C | 0% | 0hPa | 0V | 00:00:00 | 00:00:00 | 00:00:00 | |
| EA3GEO | 2026-09-01 11:07:34 | 41.39918 | 2.13574 | 59° | 20km/h | 2666m | 4.5m/s | 0°C | 0% | 0hPa | 0V | 00:00:00 | 00:00:00 | 00:00:00 | |
| EA3GEO | 2026-09-01 11:07:28 | 41.39907 | 2.13516 | 75° | 29km/h | 2631m | 5.0m/s | 0°C | 0% | 0hPa | 0V | 00:00:00 | 00:00:00 | 00:00:00 | |
| EA3GEO | 2026-09-01 11:07:23 | 41.39896 | 2.13492 | 29° | 27km/h | 2602m | 4.1m/s | 0°C | 0% | 0hPa | 0V | 00:00:00 | 00:00:00 | 00:00:00 | |
| EA3GEO | 2026-09-01 11:07:18 | 41.39884 | 2.13464 | 125° | 11km/h | 2571m | 5.6m/s | 0°C | 0% | 0hPa | 0V | 00:00:00 | 00:00:00 | 00:00:00 | |
| EA3GEO | 2026-09-01 11:07:12 | 41.39869 | 2.13439 | 11° | 31km/h | 2537m | 4.8m/s | 0°C | 0% | 0hPa | 0V | 00:00:00 | 00:00:00 | 00:00:00 | |
| EA3GEO | 2026-09-01 11:07:07 | 41.39851 | 2.13410 | 88° | 20km/h | 2508m | 8.4m/s | 0°C | 0% | 0hPa | 0V | 00:00:00 | 00:00:00 | 00:00:00 | |
| EA3GEO | 2026-09-01 11:07:02 | 41.39857 | 2.13388 | 126° | 9km/h | 2473m | 5.0m/s | 0°C | 0% | 0hPa | 0V | 00:00:00 | 00:00:00 | 00:00:00 | |
| EA3GEO | 2026-09-01 11:06:56 | 41.39840 | 2.13347 | 46° | 31km/h | 2434m | 4.8m/s | 0°C | 0% | 0hPa | 0V | 00:00:00 | 00:00:00 | 00:00:00 | |
| EA3GEO | 2026-09-01 11:06:52 | 41.39833 | 2.13332 | 40° | 18km/h | 2404m | 6.6m/s | 0°C | 0% | 0hPa | 0V | 00:00:00 | 00:00:00 | 00:00:00 | |
| EA3GEO | 2026-09-01 11:06:45 | 41.39795 | 2.13293 | 31° | 11km/h | 2367m | 4.7m/s | 0°C | 0% | 0hPa | 0V | 00:00:00 | 00:00:00 | 00:00:00 | |
| EA3GEO | 2026-09-01 11:06:40 | 41.39784 | 2.13281 | 70° | 13km/h | 2344m | 4.9m/s | 0°C | 0% | 0hPa | 0V | 00:00:00 | 00:00:00 | 00:00:00 | |
| EA3GEO | 2026-09-01 11:06:34 | 41.39777 | 2.13243 | 53° | 15km/h | 2314m | 4.9m/s | 0°C | 0% | 0hPa | 0V | 00:00:00 | 00:00:00 | 00:00:00 | |
| EA3GEO | 2026-09-01 11:06:29 | 41.39762 | 2.13223 | 88° | 13km/h | 2285m | 4.6m/s | 0°C | 0% | 0hPa | 0V | 00:00:00 | 00:00:00 | 00:00:00 | |
| EA3GEO | 2026-09-01 11:06:24 | 41.39755 | 2.13190 | 40° | 13km/h | 2260m | 5.5m/s | 0°C | 0% | 0hPa | 0V | 00:00:00 | 00:00:00 | 00:00:00 | |
| EA3GEO | 2026-09-01 11:06:18 | 41.39756 | 2.13161 | 44° | 16km/h | 2225m | 5.0m/s | 0°C | 0% | 0hPa | 0V | 00:00:00 | 00:00:00 | 00:00:00 | |
| EA3GEO | 2026-09-01 11:06:12 | 41.39746 | 2.13126 | 76° | 24km/h | 2194m | 4.4m/s | 0°C | 0% | 0hPa | 0V | 00:00:00 | 00:00:00 | 00:00:00 | |
| EA3GEO | 2026-09-01 11:06:06 | 41.39727 | 2.13097 | 57° | 37km/h | 2157m | 4.5m/s | 0°C | 0% | 0hPa | 0V | 00:00:00 | 00:00:00 | 00:00:00 | |
| EA3GEO | 2026-09-01 11:06:01 | 41.39713 | 2.13049 | 38° | 24km/h | 2130m | 4.5m/s | 0°C | 0% | 0hPa | 0V | 00:00:00 | 00:00:00 | 00:00:00 | |
| EA3GEO | 2026-09-01 11:05:56 | 41.39690 | 2.13007 | 71° | 26km/h | 2099m | 5.3m/s | 0°C | 0% | 0hPa | 0V | 00:00:00 | 00:00:00 | 00:00:00 | |
| EA3GEO | 2026-09-01 11:05:50 | 41.39656 | 2.12961 | 54° | 44km/h | 2070m | 3.6m/s | 0°C | 0% | 0hPa | 0V | 00:00:00 | 00:00:00 | 00:00:00 | |
| EA3GEO | 2026-09-01 11:05:44 | 41.39638 | 2.12915 | 69° | 27km/h | 2030m | 3.5m/s | 0°C | 0% | 0hPa | 0V | 00:00:00 | 00:00:00 | 00:00:00 | |
| EA3GEO | 2026-09-01 11:05:39 | 41.39625 | 2.12868 | 42° | 27km/h | 2001m | 2.5m/s | 0°C | 0% | 0hPa | 0V | 00:00:00 | 00:00:00 | 00:00:00 | |
| EA3GEO | 2026-09-01 11:05:33 | 41.39582 | 2.12816 | 39° | 38km/h | 1969m | 3.4m/s | 0°C | 0% | 0hPa | 0V | 00:00:00 | 00:00:00 | 00:00:00 | |
| EA3GEO | 2026-09-01 11:05:28 | 41.39553 | 2.12765 | 47° | 38km/h | 1941m | 4.0m/s | 0°C | 0% | 0hPa | 0V | 00:00:00 | 00:00:00 | 00:00:00 | |
| EA3GEO | 2026-09-01 11:05:22 | 41.39528 | 2.12729 | 50° | 35km/h | 1904m | 3.0m/s | 0°C | 0% | 0hPa | 0V | 00:00:00 | 00:00:00 | 00:00:00 | |
| EA3GEO | 2026-09-01 11:05:16 | 41.39512 | 2.12690 | 36° | 20km/h | 1870m | 4.7m/s | 0°C | 0% | 0hPa | 0V | 00:00:00 | 00:00:00 | 00:00:00 | |
| EA3GEO | 2026-09-01 11:05:11 | 41.39490 | 2.12651 | 56° | 29km/h | 1843m | 5.2m/s | 0°C | 0% | 0hPa | 0V | 00:00:00 | 00:00:00 | 00:00:00 | |
| EA3GEO | 2026-09-01 11:05:05 | 41.39455 | 2.12605 | 28° | 38km/h | 1808m | 4.6m/s | 0°C | 0% | 0hPa | 0V | 00:00:00 | 00:00:00 | 00:00:00 | |
| EA3GEO | 2026-09-01 11:05:00 | 41.39426 | 2.12572 | 51° | 18km/h | 1779m | 5.9m/s | 0°C | 0% | 0hPa | 0V | 00:00:00 | 00:00:00 | 00:00:00 | |
| EA3GEO | 2026-09-01 11:04:54 | 41.39401 | 2.12556 | 30° | 7km/h | 1743m | 4.4m/s | 0°C | 0% | 0hPa | 0V | 00:00:00 | 00:00:00 | 00:00:00 | |
| EA3GEO | 2026-09-01 11:04:49 | 41.39390 | 2.12544 | 53° | 22km/h | 1710m | 4.5m/s | 0°C | 0% | 0hPa | 0V | 00:00:00 | 00:00:00 | 00:00:00 | |
| EA3GEO | 2026-09-01 11:04:43 | 41.39368 | 2.12523 | 60° | 16km/h | 1673m | 5.6m/s | 0°C | 0% | 0hPa | 0V | 00:00:00 | 00:00:00 | 00:00:00 | |
| EA3GEO | 2026-09-01 11:04:38 | 41.39352 | 2.12496 | 67° | 26km/h | 1643m | 5.7m/s | 0°C | 0% | 0hPa | 0V | 00:00:00 | 00:00:00 | 00:00:00 | |
| EA3GEO | 2026-09-01 11:04:32 | 41.39335 | 2.12469 | 55° | 18km/h | 1606m | 6.1m/s | 0°C | 0% | 0hPa | 0V | 00:00:00 | 00:00:00 | 00:00:00 | |
| EA3GEO | 2026-09-01 11:04:26 | 41.39324 | 2.12443 | 93° | 20km/h | 1566m | 3.8m/s | 0°C | 0% | 0hPa | 0V | 00:00:00 | 00:00:00 | 00:00:00 | |
| EA3GEO | 2026-09-01 11:04:21 | 41.39313 | 2.12424 | 62° | 24km/h | 1540m | 1.7m/s | 0°C | 0% | 0hPa | 0V | 00:00:00 | 00:00:00 | 00:00:00 | |
| EA3GEO | 2026-09-01 11:04:16 | 41.39309 | 2.12400 | 32° | 9km/h | 1516m | 5.0m/s | 0°C | 0% | 0hPa | 0V | 00:00:00 | 00:00:00 | 00:00:00 | |
| EA3GEO | 2026-09-01 11:04:07 | 41.39319 | 2.12358 | 129° | 16km/h | 1472m | 3.9m/s | 0°C | 0% | 0hPa | 0V | 00:00:00 | 00:00:00 | 00:00:00 | |
| EA3GEO | 2026-09-01 11:04:01 | 41.39333 | 2.12341 | 156° | 22km/h | 1445m | 2.7m/s | 0°C | 0% | 0hPa | 0V | 00:00:00 | 00:00:00 | 00:00:00 | |
| EA3GEO | 2026-09-01 11:03:55 | 41.39351 | 2.12318 | 145° | 5km/h | 1421m | 2.6m/s | 0°C | 0% | 0hPa | 0V | 00:00:00 | 00:00:00 | 00:00:00 | |
| EA3GEO | 2026-09-01 11:03:49 | 41.39358 | 2.12289 | 83° | 7km/h | 1394m | 4.0m/s | 0°C | 0% | 0hPa | 0V | 00:00:00 | 00:00:00 | 00:00:00 | |
| EA3GEO | 2026-09-01 11:03:44 | 41.39357 | 2.12279 | 209° | 4km/h | 1373m | 0.5m/s | 0°C | 0% | 0hPa | 0V | 00:00:00 | 00:00:00 | 00:00:00 | |
| EA3GEO | 2026-09-01 11:03:38 | 41.39355 | 2.12262 | 60° | 11km/h | 1348m | 3.9m/s | 0°C | 0% | 0hPa | 0V | 00:00:00 | 00:00:00 | 00:00:00 | |
| EA3GEO | 2026-09-01 11:03:32 | 41.39347 | 2.12228 | 23° | 13km/h | 1325m | 4.2m/s | 0°C | 0% | 0hPa | 0V | 00:00:00 | 00:00:00 | 00:00:00 | |
| EA3GEO | 2026-09-01 11:03:27 | 41.39340 | 2.12206 | 63° | 4km/h | 1302m | 5.6m/s | 0°C | 0% | 0hPa | 0V | 00:00:00 | 00:00:00 | 00:00:00 | |
| EA3GEO | 2026-09-01 11:03:21 | 41.39322 | 2.12182 | 46° | 18km/h | 1269m | 5.7m/s | 0°C | 0% | 0hPa | 0V | 00:00:00 | 00:00:00 | 00:00:00 | |
| EA3GEO | 2026-09-01 11:03:15 | 41.39303 | 2.12138 | 53° | 18km/h | 1238m | 4.1m/s | 0°C | 0% | 0hPa | 0V | 00:00:00 | 00:00:00 | 00:00:00 | |
| EA3GEO | 2026-09-01 11:03:10 | 41.39283 | 2.12103 | 32° | 33km/h | 1211m | 6.5m/s | 0°C | 0% | 0hPa | 0V | 00:00:00 | 00:00:00 | 00:00:00 | |
| EA3GEO | 2026-09-01 11:03:05 | 41.39258 | 2.12072 | 44° | 22km/h | 1177m | 4.6m/s | 0°C | 0% | 0hPa | 0V | 00:00:00 | 00:00:00 | 00:00:00 | |
| EA3GEO | 2026-09-01 11:02:59 | 41.39250 | 2.12046 | 74° | 16km/h | 1142m | 4.1m/s | 0°C | 0% | 0hPa | 0V | 00:00:00 | 00:00:00 | 00:00:00 | |
| EA3GEO | 2026-09-01 11:02:53 | 41.39232 | 2.12015 | 11° | 15km/h | 1111m | 6.2m/s | 0°C | 0% | 0hPa | 0V | 00:00:00 | 00:00:00 | 00:00:00 | |
| EA3GEO | 2026-09-01 11:02:47 | 41.39208 | 2.12002 | 7° | 7km/h | 1082m | 4.3m/s | 0°C | 0% | 0hPa | 0V | 00:00:00 | 00:00:00 | 00:00:00 | |
| EA3GEO | 2026-09-01 11:02:42 | 41.39197 | 2.11996 | 13° | 24km/h | 1056m | 1.5m/s | 0°C | 0% | 0hPa | 0V | 00:00:00 | 00:00:00 | 00:00:00 | |
| EA3GEO | 2026-09-01 11:02:36 | 41.39175 | 2.11982 | 47° | 7km/h | 1025m | 5.3m/s | 0°C | 0% | 0hPa | 0V | 00:00:00 | 00:00:00 | 00:00:00 | |
| EA3GEO | 2026-09-01 11:02:30 | 41.39147 | 2.11958 | 10° | 27km/h | 990m | 6.4m/s | 0°C | 0% | 0hPa | 0V | 00:00:00 | 00:00:00 | 00:00:00 | |
| EA3GEO | 2026-09-01 11:02:25 | 41.39129 | 2.11927 | 86° | 15km/h | 963m | 2.4m/s | 0°C | 0% | 0hPa | 0V | 00:00:00 | 00:00:00 | 00:00:00 | |
| EA3GEO | 2026-09-01 11:02:19 | 41.39114 | 2.11910 | 35° | 26km/h | 932m | 6.4m/s | 0°C | 0% | 0hPa | 0V | 00:00:00 | 00:00:00 | 00:00:00 | |
| EA3GEO | 2026-09-01 11:02:14 | 41.39081 | 2.11893 | 13° | 31km/h | 906m | 7.6m/s | 0°C | 0% | 0hPa | 0V | 00:00:00 | 00:00:00 | 00:00:00 | |
| EA3GEO | 2026-09-01 11:02:08 | 41.39047 | 2.11871 | 11° | 24km/h | 871m | 4.8m/s | 0°C | 0% | 0hPa | 0V | 00:00:00 | 00:00:00 | 00:00:00 | |
| EA3GEO | 2026-09-01 11:02:03 | 41.39022 | 2.11856 | 25° | 31km/h | 842m | 7.0m/s | 0°C | 0% | 0hPa | 0V | 00:00:00 | 00:00:00 | 00:00:00 | |
| EA3GEO | 2026-09-01 11:01:57 | 41.38982 | 2.11851 | 15° | 15km/h | 802m | 4.5m/s | 0°C | 0% | 0hPa | 0V | 00:00:00 | 00:00:00 | 00:00:00 | |
| EA3GEO | 2026-09-01 11:01:51 | 41.38956 | 2.11833 | 24° | 16km/h | 766m | 4.6m/s | 0°C | 0% | 0hPa | 0V | 00:00:00 | 00:00:00 | 00:00:00 | |
| EA3GEO | 2026-09-01 11:01:46 | 41.38928 | 2.11829 | 23° | 18km/h | 739m | 2.8m/s | 0°C | 0% | 0hPa | 0V | 00:00:00 | 00:00:00 | 00:00:00 | |
| EA3GEO | 2026-09-01 11:01:41 | 41.38901 | 2.11816 | 29° | 40km/h | 715m | 5.2m/s | 0°C | 0% | 0hPa | 0V | 00:00:00 | 00:00:00 | 00:00:00 | |
| EA3GEO | 2026-09-01 11:01:36 | 41.38871 | 2.11790 | 28° | 27km/h | 680m | 4.8m/s | 0°C | 0% | 0hPa | 0V | 00:00:00 | 00:00:00 | 00:00:00 | |
| EA3GEO | 2026-09-01 11:01:31 | 41.38845 | 2.11779 | 25° | 31km/h | 653m | 7.3m/s | 0°C | 0% | 0hPa | 0V | 00:00:00 | 00:00:00 | 00:00:00 | |
| EA3GEO | 2026-09-01 11:01:25 | 41.38801 | 2.11769 | 20° | 27km/h | 602m | 5.1m/s | 0°C | 0% | 0hPa | 0V | 00:00:00 | 00:00:00 | 00:00:00 | |
| EA3GEO | 2026-09-01 11:01:19 | 41.38761 | 2.11757 | 335° | 18km/h | 552m | 7.4m/s | 0°C | 0% | 0hPa | 0V | 00:00:00 | 00:00:00 | 00:00:00 | |
| EA3GEO | 2026-09-01 11:01:14 | 41.38736 | 2.11758 | 361° | 31km/h | 515m | 7.5m/s | 0°C | 0% | 0hPa | 0V | 00:00:00 | 00:00:00 | 00:00:00 | |
| EA3GEO | 2026-09-01 11:01:08 | 41.38703 | 2.11758 | 15° | 22km/h | 469m | 7.7m/s | 0°C | 0% | 0hPa | 0V | 00:00:00 | 00:00:00 | 00:00:00 | |
| EA3GEO | 2026-09-01 11:01:03 | 41.38674 | 2.11735 | 20° | 37km/h | 435m | 3.7m/s | 0°C | 0% | 0hPa | 0V | 00:00:00 | 00:00:00 | 00:00:00 | |
| EA3GEO | 2026-09-01 11:00:57 | 41.38641 | 2.11737 | 15° | 29km/h | 390m | 6.3m/s | 0°C | 0% | 0hPa | 0V | 00:00:00 | 00:00:00 | 00:00:00 | |
| EA3GEO | 2026-09-01 11:00:49 | 41.38592 | 2.11733 | 306° | 15km/h | 348m | 3.2m/s | 0°C | 0% | 0hPa | 0V | 00:00:00 | 00:00:00 | 00:00:00 |